<?xml version='1.0' encoding='UTF-8'?><gpx version="1.1" creator="JPX - https://github.com/jenetics/jpx" xmlns="http://www.topografix.com/GPX/1/1"><trk><trkseg><trkpt lat="45.63623963505272" lon="3.033717980023936"><ele>804.9999999999999</ele><time>2026-03-22T14:26:39.999Z</time></trkpt><trkpt lat="45.63619443039485" lon="3.0336433535725273"><ele>805.0</ele><time>2026-03-22T14:26:58.999Z</time></trkpt><trkpt lat="45.636243288375695" lon="3.0335592032604066"><ele>805.0</ele><time>2026-03-22T14:27:06.999Z</time></trkpt><trkpt lat="45.63619715774014" lon="3.033464489584165"><ele>805.0</ele><time>2026-03-22T14:27:09.999Z</time></trkpt><trkpt lat="45.63615398218081" lon="3.0333544558913266"><ele>804.9999999999999</ele><time>2026-03-22T14:27:12.999Z</time></trkpt><trkpt lat="45.63612477922013" lon="3.0332402423311766"><ele>805.0</ele><time>2026-03-22T14:27:15.999Z</time></trkpt><trkpt lat="45.63613405684085" lon="3.033124354552527"><ele>804.3333333333333</ele><time>2026-03-22T14:27:19Z</time></trkpt><trkpt lat="45.63619057136935" lon="3.0330359262851583"><ele>803.6666666666666</ele><time>2026-03-22T14:27:22Z</time></trkpt><trkpt lat="45.636263523793644" lon="3.032980271013278"><ele>803.0</ele><time>2026-03-22T14:27:25Z</time></trkpt><trkpt lat="45.636347278215354" lon="3.032913915136489"><ele>802.3333333333333</ele><time>2026-03-22T14:27:28Z</time></trkpt><trkpt lat="45.63639970447893" lon="3.032862166951061"><ele>801.6666666666666</ele><time>2026-03-22T14:27:30Z</time></trkpt><trkpt lat="45.63645363905256" lon="3.0328057689627133"><ele>801.0</ele><time>2026-03-22T14:27:32Z</time></trkpt><trkpt lat="45.63650461701573" lon="3.0327362146470693"><ele>801.0</ele><time>2026-03-22T14:27:34Z</time></trkpt><trkpt lat="45.636569128912186" lon="3.0326774521938544"><ele>801.0</ele><time>2026-03-22T14:27:36Z</time></trkpt><trkpt lat="45.63663813998371" lon="3.032611670921735"><ele>801.0</ele><time>2026-03-22T14:27:38Z</time></trkpt><trkpt lat="45.63670987420521" lon="3.0325305991948523"><ele>801.0</ele><time>2026-03-22T14:27:40Z</time></trkpt><trkpt lat="45.636785944885276" lon="3.0324492544661807"><ele>801.0</ele><time>2026-03-22T14:27:42Z</time></trkpt><trkpt lat="45.63685372624691" lon="3.0323821087399527"><ele>801.0</ele><time>2026-03-22T14:27:44Z</time></trkpt><trkpt lat="45.6369128737507" lon="3.032316198614153"><ele>802.6666666666666</ele><time>2026-03-22T14:27:46Z</time></trkpt><trkpt lat="45.636979188880915" lon="3.0322435896616846"><ele>804.3333333333333</ele><time>2026-03-22T14:27:48Z</time></trkpt><trkpt lat="45.63704787796339" lon="3.0321669616680906"><ele>806.0</ele><time>2026-03-22T14:27:50Z</time></trkpt><trkpt lat="45.63711251937047" lon="3.0320882979244095"><ele>807.6666666666666</ele><time>2026-03-22T14:27:52Z</time></trkpt><trkpt lat="45.63716950373136" lon="3.0320129908863613"><ele>809.3333333333333</ele><time>2026-03-22T14:27:54Z</time></trkpt><trkpt lat="45.637228848444934" lon="3.031946438111066"><ele>811.0</ele><time>2026-03-22T14:27:56Z</time></trkpt><trkpt lat="45.63729337895698" lon="3.0318749199952157"><ele>810.9999999999999</ele><time>2026-03-22T14:27:58Z</time></trkpt><trkpt lat="45.637357669619895" lon="3.03182000881873"><ele>811.0</ele><time>2026-03-22T14:28:00Z</time></trkpt><trkpt lat="45.63742909322925" lon="3.031782371171408"><ele>811.0</ele><time>2026-03-22T14:28:02Z</time></trkpt><trkpt lat="45.63750235029068" lon="3.0317374450741936"><ele>811.0</ele><time>2026-03-22T14:28:04Z</time></trkpt><trkpt lat="45.6375778141906" lon="3.0316913912430197"><ele>810.9999999999999</ele><time>2026-03-22T14:28:06Z</time></trkpt><trkpt lat="45.63765696586827" lon="3.031647057246745"><ele>811.0</ele><time>2026-03-22T14:28:08Z</time></trkpt><trkpt lat="45.637729676763605" lon="3.0315870956833413"><ele>811.1666666666666</ele><time>2026-03-22T14:28:10Z</time></trkpt><trkpt lat="45.6377921077096" lon="3.0315451888422023"><ele>811.3333333333333</ele><time>2026-03-22T14:28:12Z</time></trkpt><trkpt lat="45.63784315068906" lon="3.0314879845328244"><ele>811.5</ele><time>2026-03-22T14:28:14Z</time></trkpt><trkpt lat="45.63788991908131" lon="3.031419571046755"><ele>811.6666666666667</ele><time>2026-03-22T14:28:17Z</time></trkpt><trkpt lat="45.63795514154904" lon="3.0313476033702735"><ele>811.8333333333334</ele><time>2026-03-22T14:28:19Z</time></trkpt><trkpt lat="45.63809369423904" lon="3.0312441470411167"><ele>812.0</ele><time>2026-03-22T14:28:22Z</time></trkpt><trkpt lat="45.63815629343538" lon="3.03113590314347"><ele>811.8</ele><time>2026-03-22T14:28:23.999Z</time></trkpt><trkpt lat="45.638216218400416" lon="3.0310395848519955"><ele>811.6</ele><time>2026-03-22T14:28:25.999Z</time></trkpt><trkpt lat="45.638278534047934" lon="3.030957149215182"><ele>811.4</ele><time>2026-03-22T14:28:27.999Z</time></trkpt><trkpt lat="45.63833979460889" lon="3.0308604468531373"><ele>811.1999999999999</ele><time>2026-03-22T14:28:29.999Z</time></trkpt><trkpt lat="45.63841061530617" lon="3.030770429432001"><ele>811.0</ele><time>2026-03-22T14:28:31.999Z</time></trkpt><trkpt lat="45.63848262300505" lon="3.0306729585661603"><ele>811.0</ele><time>2026-03-22T14:28:33.999Z</time></trkpt><trkpt lat="45.63854698998645" lon="3.030568253497071"><ele>811.0</ele><time>2026-03-22T14:28:35.999Z</time></trkpt><trkpt lat="45.63858690188014" lon="3.030453661499297"><ele>811.0</ele><time>2026-03-22T14:28:37.999Z</time></trkpt><trkpt lat="45.63859796933113" lon="3.0303310323817145"><ele>811.0</ele><time>2026-03-22T14:28:39.999Z</time></trkpt><trkpt lat="45.638582454045775" lon="3.030189447804644"><ele>811.0</ele><time>2026-03-22T14:28:41.999Z</time></trkpt><trkpt lat="45.6386226622657" lon="3.030058453417135"><ele>812.4</ele><time>2026-03-22T14:28:43.999Z</time></trkpt><trkpt lat="45.63865691483888" lon="3.0299263695320104"><ele>813.8</ele><time>2026-03-22T14:28:45.999Z</time></trkpt><trkpt lat="45.63869557716107" lon="3.029796280543941"><ele>815.1999999999999</ele><time>2026-03-22T14:28:47.999Z</time></trkpt><trkpt lat="45.638739463424386" lon="3.029665630622411"><ele>816.5999999999999</ele><time>2026-03-22T14:28:49.999Z</time></trkpt><trkpt lat="45.638798343289835" lon="3.0295528562258216"><ele>818.0</ele><time>2026-03-22T14:28:51.999Z</time></trkpt><trkpt lat="45.638879064384014" lon="3.0294811565345703"><ele>818.0</ele><time>2026-03-22T14:28:53.999Z</time></trkpt><trkpt lat="45.63897103966784" lon="3.0294172085124953"><ele>818.0</ele><time>2026-03-22T14:28:55.999Z</time></trkpt><trkpt lat="45.639077953951364" lon="3.0294492861845694"><ele>818.0</ele><time>2026-03-22T14:28:57.999Z</time></trkpt><trkpt lat="45.63911615685776" lon="3.0295232692879033"><ele>818.0</ele><time>2026-03-22T14:28:58.999Z</time></trkpt><trkpt lat="45.63922462058587" lon="3.0295635700780807"><ele>818.0</ele><time>2026-03-22T14:29:00.999Z</time></trkpt><trkpt lat="45.63933290693893" lon="3.029566754028144"><ele>818.0000000000001</ele><time>2026-03-22T14:29:02.999Z</time></trkpt><trkpt lat="45.6394239652159" lon="3.0294985770779377"><ele>818.0</ele><time>2026-03-22T14:29:04.999Z</time></trkpt><trkpt lat="45.63949971652691" lon="3.029446231853396"><ele>818.0</ele><time>2026-03-22T14:29:07.999Z</time></trkpt><trkpt lat="45.639526165294214" lon="3.029537886363055"><ele>818.0</ele><time>2026-03-22T14:29:08.999Z</time></trkpt><trkpt lat="45.63960534569128" lon="3.029667239397807"><ele>818.0000000000001</ele><time>2026-03-22T14:29:10.999Z</time></trkpt><trkpt lat="45.63964889751734" lon="3.0297379101717223"><ele>818.0</ele><time>2026-03-22T14:29:11.999Z</time></trkpt><trkpt lat="45.639694004049545" lon="3.0298029757157243"><ele>818.4</ele><time>2026-03-22T14:29:12.999Z</time></trkpt><trkpt lat="45.63979274390143" lon="3.029918878594942"><ele>818.8</ele><time>2026-03-22T14:29:14.999Z</time></trkpt><trkpt lat="45.63985739245362" lon="3.0299761548309894"><ele>819.2</ele><time>2026-03-22T14:29:15.999Z</time></trkpt><trkpt lat="45.63993219163762" lon="3.030029795238989"><ele>819.6</ele><time>2026-03-22T14:29:16.999Z</time></trkpt><trkpt lat="45.640011216106885" lon="3.030074292096563"><ele>820.0</ele><time>2026-03-22T14:29:17.999Z</time></trkpt><trkpt lat="45.64009854957061" lon="3.030116972875248"><ele>818.6</ele><time>2026-03-22T14:29:18.999Z</time></trkpt><trkpt lat="45.640186329764305" lon="3.0301560873149613"><ele>817.2</ele><time>2026-03-22T14:29:19.999Z</time></trkpt><trkpt lat="45.640276660424306" lon="3.030196143182281"><ele>815.8</ele><time>2026-03-22T14:29:20.999Z</time></trkpt><trkpt lat="45.640369494616394" lon="3.0302373092045713"><ele>814.4</ele><time>2026-03-22T14:29:21.999Z</time></trkpt><trkpt lat="45.640463509133596" lon="3.030278227916037"><ele>813.0</ele><time>2026-03-22T14:29:22.999Z</time></trkpt><trkpt lat="45.64055757819114" lon="3.0303183504300635"><ele>813.0</ele><time>2026-03-22T14:29:24Z</time></trkpt><trkpt lat="45.64065157392274" lon="3.0303584416738576"><ele>813.0</ele><time>2026-03-22T14:29:25Z</time></trkpt><trkpt lat="45.64074522128196" lon="3.03040051853214"><ele>813.0</ele><time>2026-03-22T14:29:26Z</time></trkpt><trkpt lat="45.640839575318914" lon="3.0304436621672717"><ele>813.0</ele><time>2026-03-22T14:29:27Z</time></trkpt><trkpt lat="45.64093496717688" lon="3.0304863548661496"><ele>813.0</ele><time>2026-03-22T14:29:28Z</time></trkpt><trkpt lat="45.64103119141236" lon="3.0305286094971895"><ele>813.0</ele><time>2026-03-22T14:29:29Z</time></trkpt><trkpt lat="45.64112864618138" lon="3.0305682973298653"><ele>813.0</ele><time>2026-03-22T14:29:30Z</time></trkpt><trkpt lat="45.64122527675027" lon="3.0306083364380303"><ele>813.0</ele><time>2026-03-22T14:29:31Z</time></trkpt><trkpt lat="45.64132076795033" lon="3.030647903446149"><ele>813.0</ele><time>2026-03-22T14:29:32Z</time></trkpt><trkpt lat="45.64141504429206" lon="3.030686967072866"><ele>813.0</ele><time>2026-03-22T14:29:33Z</time></trkpt><trkpt lat="45.64150748827821" lon="3.0307271378169016"><ele>812.2</ele><time>2026-03-22T14:29:34Z</time></trkpt><trkpt lat="45.64159822625312" lon="3.030767787217061"><ele>811.4</ele><time>2026-03-22T14:29:35Z</time></trkpt><trkpt lat="45.64169531014424" lon="3.0307977693457424"><ele>810.6</ele><time>2026-03-22T14:29:36Z</time></trkpt><trkpt lat="45.64179792832062" lon="3.030812302188327"><ele>809.8000000000001</ele><time>2026-03-22T14:29:37Z</time></trkpt><trkpt lat="45.64189938194549" lon="3.030815436892102"><ele>809.0</ele><time>2026-03-22T14:29:38Z</time></trkpt><trkpt lat="45.64200160950657" lon="3.0308122080172133"><ele>807.4000000000001</ele><time>2026-03-22T14:29:39Z</time></trkpt><trkpt lat="45.64210386241828" lon="3.0308103096597683"><ele>805.8</ele><time>2026-03-22T14:29:40Z</time></trkpt><trkpt lat="45.64220640494234" lon="3.0308090811544233"><ele>804.2</ele><time>2026-03-22T14:29:41Z</time></trkpt><trkpt lat="45.642309119934424" lon="3.0308078505824136"><ele>802.5999999999999</ele><time>2026-03-22T14:29:42Z</time></trkpt><trkpt lat="45.64241172257889" lon="3.030785114062874"><ele>801.0</ele><time>2026-03-22T14:29:43Z</time></trkpt><trkpt lat="45.642513328382336" lon="3.030783585851426"><ele>801.0</ele><time>2026-03-22T14:29:44Z</time></trkpt><trkpt lat="45.642611912188464" lon="3.0307854813243367"><ele>801.0</ele><time>2026-03-22T14:29:45Z</time></trkpt><trkpt lat="45.64271186207301" lon="3.030782499102547"><ele>801.0</ele><time>2026-03-22T14:29:46Z</time></trkpt><trkpt lat="45.64281053638059" lon="3.0307852503359776"><ele>801.0</ele><time>2026-03-22T14:29:47Z</time></trkpt><trkpt lat="45.64290836426132" lon="3.0307919251936726"><ele>801.0</ele><time>2026-03-22T14:29:48Z</time></trkpt><trkpt lat="45.64300103332886" lon="3.030840729923106"><ele>800.1999999999999</ele><time>2026-03-22T14:29:49Z</time></trkpt><trkpt lat="45.643095877496606" lon="3.030879460201045"><ele>799.4</ele><time>2026-03-22T14:29:50Z</time></trkpt><trkpt lat="45.64319526084494" lon="3.0308952648139162"><ele>798.6</ele><time>2026-03-22T14:29:51Z</time></trkpt><trkpt lat="45.64329137357151" lon="3.0309448755415596"><ele>797.8</ele><time>2026-03-22T14:29:52Z</time></trkpt><trkpt lat="45.64338700084685" lon="3.030988060422278"><ele>797.0</ele><time>2026-03-22T14:29:53Z</time></trkpt><trkpt lat="45.64348447162391" lon="3.031030406817669"><ele>797.0</ele><time>2026-03-22T14:29:54Z</time></trkpt><trkpt lat="45.64357917560232" lon="3.0310655051946096"><ele>797.0</ele><time>2026-03-22T14:29:55Z</time></trkpt><trkpt lat="45.64367067242224" lon="3.0311051253152796"><ele>797.0</ele><time>2026-03-22T14:29:56Z</time></trkpt><trkpt lat="45.64375789914545" lon="3.0311621295411797"><ele>797.0</ele><time>2026-03-22T14:29:57Z</time></trkpt><trkpt lat="45.643847394159714" lon="3.031172061438452"><ele>797.0</ele><time>2026-03-22T14:29:58Z</time></trkpt><trkpt lat="45.643930121244864" lon="3.031190014072215"><ele>796.6666666666667</ele><time>2026-03-22T14:29:59Z</time></trkpt><trkpt lat="45.644004216143216" lon="3.031201652087995"><ele>796.3333333333334</ele><time>2026-03-22T14:30:00Z</time></trkpt><trkpt lat="45.644077364820866" lon="3.0311696039533502"><ele>796.0</ele><time>2026-03-22T14:30:01Z</time></trkpt><trkpt lat="45.64413540247436" lon="3.0310846502808118"><ele>795.6666666666667</ele><time>2026-03-22T14:30:02Z</time></trkpt><trkpt lat="45.644189539069856" lon="3.0310010128105196"><ele>795.3333333333334</ele><time>2026-03-22T14:30:03Z</time></trkpt><trkpt lat="45.6442354554106" lon="3.0308905350377886"><ele>795.0</ele><time>2026-03-22T14:30:04Z</time></trkpt><trkpt lat="45.64428880869207" lon="3.0307742634769466"><ele>795.0</ele><time>2026-03-22T14:30:05Z</time></trkpt><trkpt lat="45.64433697498212" lon="3.030647171568148"><ele>795.0</ele><time>2026-03-22T14:30:06Z</time></trkpt><trkpt lat="45.64439006618425" lon="3.030517359440843"><ele>795.0</ele><time>2026-03-22T14:30:07Z</time></trkpt><trkpt lat="45.64445847188309" lon="3.030400574649364"><ele>795.0</ele><time>2026-03-22T14:30:08Z</time></trkpt><trkpt lat="45.64453638634054" lon="3.0302964211495698"><ele>795.0</ele><time>2026-03-22T14:30:09Z</time></trkpt><trkpt lat="45.644626704462674" lon="3.030213704035829"><ele>794.4</ele><time>2026-03-22T14:30:10Z</time></trkpt><trkpt lat="45.64472912814162" lon="3.030166463087436"><ele>793.8</ele><time>2026-03-22T14:30:11Z</time></trkpt><trkpt lat="45.64482914862605" lon="3.030112509511069"><ele>793.2</ele><time>2026-03-22T14:30:12Z</time></trkpt><trkpt lat="45.64493156783632" lon="3.0300693172711513"><ele>792.6</ele><time>2026-03-22T14:30:13Z</time></trkpt><trkpt lat="45.645036493742595" lon="3.0300350399527076"><ele>792.0</ele><time>2026-03-22T14:30:14Z</time></trkpt><trkpt lat="45.6451337734524" lon="3.0300825389270574"><ele>792.0</ele><time>2026-03-22T14:30:15Z</time></trkpt><trkpt lat="45.645228714813996" lon="3.0301405189143678"><ele>792.0</ele><time>2026-03-22T14:30:16Z</time></trkpt><trkpt lat="45.64532039529969" lon="3.0302013570268516"><ele>792.0</ele><time>2026-03-22T14:30:17Z</time></trkpt><trkpt lat="45.645412195133076" lon="3.030262556932063"><ele>792.0</ele><time>2026-03-22T14:30:18Z</time></trkpt><trkpt lat="45.645497783466446" lon="3.0303141873724315"><ele>792.0</ele><time>2026-03-22T14:30:19Z</time></trkpt><trkpt lat="45.645586118793844" lon="3.0303564898907607"><ele>793.6666666666666</ele><time>2026-03-22T14:30:20Z</time></trkpt><trkpt lat="45.645671639588684" lon="3.0303775252829146"><ele>795.3333333333333</ele><time>2026-03-22T14:30:21Z</time></trkpt><trkpt lat="45.64575004439456" lon="3.0303916803062165"><ele>797.0</ele><time>2026-03-22T14:30:22Z</time></trkpt><trkpt lat="45.64582502819493" lon="3.0304070377579944"><ele>798.6666666666666</ele><time>2026-03-22T14:30:23Z</time></trkpt><trkpt lat="45.64589041694756" lon="3.030434725163619"><ele>800.3333333333333</ele><time>2026-03-22T14:30:24Z</time></trkpt><trkpt lat="45.64594731079517" lon="3.0304770095047266"><ele>802.0</ele><time>2026-03-22T14:30:25Z</time></trkpt><trkpt lat="45.64602955407442" lon="3.0305992732402536"><ele>802.0</ele><time>2026-03-22T14:30:26.999Z</time></trkpt><trkpt lat="45.64606626449337" lon="3.0306742790068415"><ele>802.0</ele><time>2026-03-22T14:30:27.999Z</time></trkpt><trkpt lat="45.64613151461248" lon="3.030815259140083"><ele>802.0</ele><time>2026-03-22T14:30:29.999Z</time></trkpt><trkpt lat="45.64618589864252" lon="3.030940476497084"><ele>802.0</ele><time>2026-03-22T14:30:31.999Z</time></trkpt><trkpt lat="45.64624486766233" lon="3.0310816569780985"><ele>802.0</ele><time>2026-03-22T14:30:33.999Z</time></trkpt><trkpt lat="45.64627905959732" lon="3.031158582759459"><ele>801.3333333333333</ele><time>2026-03-22T14:30:34.999Z</time></trkpt><trkpt lat="45.64635086486026" lon="3.031311090706782"><ele>800.6666666666666</ele><time>2026-03-22T14:30:36.999Z</time></trkpt><trkpt lat="45.64639403244061" lon="3.031393807956696"><ele>800.0</ele><time>2026-03-22T14:30:37.999Z</time></trkpt><trkpt lat="45.64644221335316" lon="3.0314804831617703"><ele>799.3333333333333</ele><time>2026-03-22T14:30:38.999Z</time></trkpt><trkpt lat="45.646493353450325" lon="3.031570641014566"><ele>798.6666666666666</ele><time>2026-03-22T14:30:39.999Z</time></trkpt><trkpt lat="45.646546804845215" lon="3.0316612769686837"><ele>798.0</ele><time>2026-03-22T14:30:40.999Z</time></trkpt><trkpt lat="45.646602848108785" lon="3.0317518621337465"><ele>796.0</ele><time>2026-03-22T14:30:41.999Z</time></trkpt><trkpt lat="45.646657829594716" lon="3.031840731107437"><ele>794.0</ele><time>2026-03-22T14:30:42.999Z</time></trkpt><trkpt lat="45.64670887736337" lon="3.0319263241248446"><ele>792.0</ele><time>2026-03-22T14:30:43.999Z</time></trkpt><trkpt lat="45.646757225819854" lon="3.032014452407689"><ele>790.0</ele><time>2026-03-22T14:30:44.999Z</time></trkpt><trkpt lat="45.64679461464243" lon="3.0321057346489004"><ele>788.0</ele><time>2026-03-22T14:30:45.999Z</time></trkpt><trkpt lat="45.646825001079186" lon="3.032202513736186"><ele>786.0</ele><time>2026-03-22T14:30:46.999Z</time></trkpt><trkpt lat="45.64684979035149" lon="3.0323001315911715"><ele>786.0000000000001</ele><time>2026-03-22T14:30:47.999Z</time></trkpt><trkpt lat="45.64687242451457" lon="3.032399589125239"><ele>786.0</ele><time>2026-03-22T14:30:48.999Z</time></trkpt><trkpt lat="45.646892583043936" lon="3.0324932669476867"><ele>786.0</ele><time>2026-03-22T14:30:49.999Z</time></trkpt><trkpt lat="45.64691317681092" lon="3.0325889672768835"><ele>786.0</ele><time>2026-03-22T14:30:50.999Z</time></trkpt><trkpt lat="45.64693186572485" lon="3.0326796216310132"><ele>786.0</ele><time>2026-03-22T14:30:51.999Z</time></trkpt><trkpt lat="45.64695078200895" lon="3.0327705387703463"><ele>786.0000000000001</ele><time>2026-03-22T14:30:52.999Z</time></trkpt><trkpt lat="45.6469700781395" lon="3.03286497799222"><ele>786.0</ele><time>2026-03-22T14:30:53.999Z</time></trkpt><trkpt lat="45.646989712417124" lon="3.032960943752864"><ele>786.6666666666666</ele><time>2026-03-22T14:30:54.999Z</time></trkpt><trkpt lat="45.647011099765194" lon="3.0330564067537877"><ele>787.3333333333333</ele><time>2026-03-22T14:30:55.999Z</time></trkpt><trkpt lat="45.64703307859622" lon="3.033155960053006"><ele>788.0</ele><time>2026-03-22T14:30:56.999Z</time></trkpt><trkpt lat="45.64705270564597" lon="3.033249667610007"><ele>788.6666666666666</ele><time>2026-03-22T14:30:57.999Z</time></trkpt><trkpt lat="45.6470705603489" lon="3.0333448682829056"><ele>789.3333333333333</ele><time>2026-03-22T14:30:58.999Z</time></trkpt><trkpt lat="45.64707614555996" lon="3.0335233797284293"><ele>790.0</ele><time>2026-03-22T14:31:00.999Z</time></trkpt><trkpt lat="45.64705341271668" lon="3.033611356547165"><ele>790.0</ele><time>2026-03-22T14:31:01.999Z</time></trkpt><trkpt lat="45.6470292872749" lon="3.03371378349105"><ele>790.0</ele><time>2026-03-22T14:31:02.999Z</time></trkpt><trkpt lat="45.6470027707875" lon="3.0338163122001647"><ele>790.0</ele><time>2026-03-22T14:31:03.999Z</time></trkpt><trkpt lat="45.64697480044156" lon="3.033924208355992"><ele>790.0</ele><time>2026-03-22T14:31:04.999Z</time></trkpt><trkpt lat="45.646948167609054" lon="3.0340261343690105"><ele>790.0</ele><time>2026-03-22T14:31:05.999Z</time></trkpt><trkpt lat="45.64692516546738" lon="3.0341144380636154"><ele>790.0</ele><time>2026-03-22T14:31:06.999Z</time></trkpt><trkpt lat="45.6469015543678" lon="3.0342061478868163"><ele>790.0</ele><time>2026-03-22T14:31:07.999Z</time></trkpt><trkpt lat="45.64688004285667" lon="3.0342946523980845"><ele>788.3333333333333</ele><time>2026-03-22T14:31:08.999Z</time></trkpt><trkpt lat="45.64688399737886" lon="3.0343957204051253"><ele>786.6666666666666</ele><time>2026-03-22T14:31:09.999Z</time></trkpt><trkpt lat="45.64686206497626" lon="3.034493405647579"><ele>785.0</ele><time>2026-03-22T14:31:10.999Z</time></trkpt><trkpt lat="45.646850805009464" lon="3.0345958493661174"><ele>783.3333333333333</ele><time>2026-03-22T14:31:11.999Z</time></trkpt><trkpt lat="45.64684929309716" lon="3.034704295973018"><ele>781.6666666666666</ele><time>2026-03-22T14:31:12.999Z</time></trkpt><trkpt lat="45.64685692608844" lon="3.0348153009994094"><ele>780.0</ele><time>2026-03-22T14:31:13.999Z</time></trkpt><trkpt lat="45.64686950196047" lon="3.0349327148163225"><ele>779.3333333333334</ele><time>2026-03-22T14:31:14.999Z</time></trkpt><trkpt lat="45.64688945438254" lon="3.035051844516853"><ele>778.6666666666667</ele><time>2026-03-22T14:31:15.999Z</time></trkpt><trkpt lat="45.64690785173662" lon="3.0351675149310937"><ele>778.0</ele><time>2026-03-22T14:31:16.999Z</time></trkpt><trkpt lat="45.64692757050798" lon="3.0352835277052437"><ele>777.3333333333334</ele><time>2026-03-22T14:31:17.999Z</time></trkpt><trkpt lat="45.646948179386236" lon="3.035399620740337"><ele>776.6666666666667</ele><time>2026-03-22T14:31:18.999Z</time></trkpt><trkpt lat="45.646966765117135" lon="3.0355129481841536"><ele>776.0</ele><time>2026-03-22T14:31:19.999Z</time></trkpt><trkpt lat="45.64698447100656" lon="3.035624254575274"><ele>776.1666666666667</ele><time>2026-03-22T14:31:20.999Z</time></trkpt><trkpt lat="45.64697054448368" lon="3.0357353667512266"><ele>776.3333333333334</ele><time>2026-03-22T14:31:21.999Z</time></trkpt><trkpt lat="45.6469871487107" lon="3.035826831482711"><ele>776.5</ele><time>2026-03-22T14:31:22.999Z</time></trkpt><trkpt lat="45.64701722777569" lon="3.0359961051276207"><ele>776.6666666666667</ele><time>2026-03-22T14:31:24.999Z</time></trkpt><trkpt lat="45.6470355404086" lon="3.0360991612468182"><ele>776.8333333333334</ele><time>2026-03-22T14:31:25.999Z</time></trkpt><trkpt lat="45.647054390733636" lon="3.036215468568016"><ele>777.0</ele><time>2026-03-22T14:31:26.999Z</time></trkpt><trkpt lat="45.64707412389439" lon="3.0363329754508945"><ele>777.0</ele><time>2026-03-22T14:31:27.999Z</time></trkpt><trkpt lat="45.64709459899829" lon="3.0364549004507877"><ele>777.0</ele><time>2026-03-22T14:31:28.999Z</time></trkpt><trkpt lat="45.647116456930945" lon="3.0365850598931416"><ele>777.0</ele><time>2026-03-22T14:31:30Z</time></trkpt><trkpt lat="45.64713938057138" lon="3.03671697588846"><ele>777.0</ele><time>2026-03-22T14:31:31Z</time></trkpt><trkpt lat="45.64716784445033" lon="3.036845435732456"><ele>777.0</ele><time>2026-03-22T14:31:32Z</time></trkpt><trkpt lat="45.64720699450631" lon="3.0369752700811463"><ele>775.8</ele><time>2026-03-22T14:31:33Z</time></trkpt><trkpt lat="45.64725728208345" lon="3.0370985289493486"><ele>774.6</ele><time>2026-03-22T14:31:34Z</time></trkpt><trkpt lat="45.64732718568014" lon="3.0372103353286306"><ele>773.4</ele><time>2026-03-22T14:31:35Z</time></trkpt><trkpt lat="45.64741585509892" lon="3.0373005685163426"><ele>772.1999999999999</ele><time>2026-03-22T14:31:36Z</time></trkpt><trkpt lat="45.64750854068977" lon="3.0373748287142015"><ele>771.0</ele><time>2026-03-22T14:31:37Z</time></trkpt><trkpt lat="45.64760436039847" lon="3.0374476041911516"><ele>770.5999999999999</ele><time>2026-03-22T14:31:38Z</time></trkpt><trkpt lat="45.64770226652406" lon="3.0375169994564737"><ele>770.2</ele><time>2026-03-22T14:31:39Z</time></trkpt><trkpt lat="45.647801518878886" lon="3.0375873489148493"><ele>769.8</ele><time>2026-03-22T14:31:40Z</time></trkpt><trkpt lat="45.647899771946264" lon="3.037656660973091"><ele>769.4000000000001</ele><time>2026-03-22T14:31:41Z</time></trkpt><trkpt lat="45.6479980845358" lon="3.0377260082295687"><ele>769.0</ele><time>2026-03-22T14:31:42Z</time></trkpt><trkpt lat="45.64809791760988" lon="3.0377964279937917"><ele>769.0</ele><time>2026-03-22T14:31:43Z</time></trkpt><trkpt lat="45.64820045573288" lon="3.0378661247936947"><ele>769.0</ele><time>2026-03-22T14:31:44Z</time></trkpt><trkpt lat="45.64830584077051" lon="3.0379333054893776"><ele>769.0</ele><time>2026-03-22T14:31:45Z</time></trkpt><trkpt lat="45.64841609419218" lon="3.0379961789487013"><ele>769.0</ele><time>2026-03-22T14:31:46Z</time></trkpt><trkpt lat="45.648528559092696" lon="3.038052807556646"><ele>768.75</ele><time>2026-03-22T14:31:47Z</time></trkpt><trkpt lat="45.6486403117634" lon="3.0381094777351776"><ele>768.5</ele><time>2026-03-22T14:31:48Z</time></trkpt><trkpt lat="45.64875209141957" lon="3.0381668361026097"><ele>768.25</ele><time>2026-03-22T14:31:49Z</time></trkpt><trkpt lat="45.64886261550293" lon="3.0382235501413666"><ele>768.0</ele><time>2026-03-22T14:31:50Z</time></trkpt><trkpt lat="45.64897327797092" lon="3.038271756471307"><ele>765.75</ele><time>2026-03-22T14:31:51Z</time></trkpt><trkpt lat="45.649083667838845" lon="3.0383102596977167"><ele>763.5</ele><time>2026-03-22T14:31:52Z</time></trkpt><trkpt lat="45.649198374200814" lon="3.038333966741438"><ele>761.25</ele><time>2026-03-22T14:31:53Z</time></trkpt><trkpt lat="45.64931398506471" lon="3.0383440444702314"><ele>759.0</ele><time>2026-03-22T14:31:54Z</time></trkpt><trkpt lat="45.649431326527306" lon="3.0383461045600377"><ele>757.75</ele><time>2026-03-22T14:31:55Z</time></trkpt><trkpt lat="45.649548145081944" lon="3.038348471565497"><ele>756.5</ele><time>2026-03-22T14:31:56Z</time></trkpt><trkpt lat="45.64966293398567" lon="3.0383507974414"><ele>755.25</ele><time>2026-03-22T14:31:57Z</time></trkpt><trkpt lat="45.64977763678232" lon="3.038351569445799"><ele>754.0</ele><time>2026-03-22T14:31:58Z</time></trkpt><trkpt lat="45.64989216142911" lon="3.038352552492434"><ele>754.0</ele><time>2026-03-22T14:31:59Z</time></trkpt><trkpt lat="45.6500039574322" lon="3.0383535121175482"><ele>754.0</ele><time>2026-03-22T14:32:00Z</time></trkpt><trkpt lat="45.65010819500719" lon="3.038354406863082"><ele>754.0</ele><time>2026-03-22T14:32:01Z</time></trkpt><trkpt lat="45.65020429339004" lon="3.0383622764915033"><ele>754.0</ele><time>2026-03-22T14:32:02Z</time></trkpt><trkpt lat="45.650301921222244" lon="3.0383653771371875"><ele>754.0</ele><time>2026-03-22T14:32:03Z</time></trkpt><trkpt lat="45.65039292031304" lon="3.0384210859894503"><ele>753.2</ele><time>2026-03-22T14:32:04Z</time></trkpt><trkpt lat="45.6504593322369" lon="3.0385286736865775"><ele>752.4000000000001</ele><time>2026-03-22T14:32:05Z</time></trkpt><trkpt lat="45.65052904700694" lon="3.0386362323895217"><ele>751.6</ele><time>2026-03-22T14:32:06Z</time></trkpt><trkpt lat="45.650601343490784" lon="3.038761672483268"><ele>750.8</ele><time>2026-03-22T14:32:07Z</time></trkpt><trkpt lat="45.65067480451243" lon="3.0388891331090555"><ele>750.0</ele><time>2026-03-22T14:32:08Z</time></trkpt><trkpt lat="45.65074610036645" lon="3.0390128371126526"><ele>750.0</ele><time>2026-03-22T14:32:09Z</time></trkpt><trkpt lat="45.65081067451496" lon="3.039131032940364"><ele>750.0</ele><time>2026-03-22T14:32:10Z</time></trkpt><trkpt lat="45.650860287726324" lon="3.03924660785721"><ele>750.0</ele><time>2026-03-22T14:32:11Z</time></trkpt><trkpt lat="45.65088101245617" lon="3.039373605395059"><ele>750.0</ele><time>2026-03-22T14:32:12Z</time></trkpt><trkpt lat="45.650890612355816" lon="3.0395002445819217"><ele>750.0</ele><time>2026-03-22T14:32:13Z</time></trkpt><trkpt lat="45.650901591550515" lon="3.039626059749897"><ele>749.5</ele><time>2026-03-22T14:32:14Z</time></trkpt><trkpt lat="45.65091905400896" lon="3.0397476995758868"><ele>749.0</ele><time>2026-03-22T14:32:15Z</time></trkpt><trkpt lat="45.65096556306209" lon="3.0398575361988844"><ele>748.5</ele><time>2026-03-22T14:32:16Z</time></trkpt><trkpt lat="45.651030682979325" lon="3.0399364325317846"><ele>748.0</ele><time>2026-03-22T14:32:17Z</time></trkpt><trkpt lat="45.65110468182765" lon="3.0399828926849133"><ele>747.5</ele><time>2026-03-22T14:32:18Z</time></trkpt><trkpt lat="45.65118846915149" lon="3.0399608763209427"><ele>747.0</ele><time>2026-03-22T14:32:19Z</time></trkpt><trkpt lat="45.65126283519751" lon="3.039949723528027"><ele>745.4000000000001</ele><time>2026-03-22T14:32:20Z</time></trkpt><trkpt lat="45.65134217359734" lon="3.039921556598747"><ele>743.8000000000001</ele><time>2026-03-22T14:32:21Z</time></trkpt><trkpt lat="45.651427364498026" lon="3.039875413874815"><ele>742.2</ele><time>2026-03-22T14:32:22Z</time></trkpt><trkpt lat="45.65151552410309" lon="3.0398135051389326"><ele>740.6</ele><time>2026-03-22T14:32:23Z</time></trkpt><trkpt lat="45.65161234021287" lon="3.0397584561675317"><ele>739.0</ele><time>2026-03-22T14:32:24Z</time></trkpt><trkpt lat="45.65169201894115" lon="3.0396584262099267"><ele>739.0</ele><time>2026-03-22T14:32:25Z</time></trkpt><trkpt lat="45.65178069269509" lon="3.039581080654977"><ele>739.0</ele><time>2026-03-22T14:32:25.999Z</time></trkpt><trkpt lat="45.65186558103774" lon="3.039497083868309"><ele>739.0</ele><time>2026-03-22T14:32:26.999Z</time></trkpt><trkpt lat="45.651952173938184" lon="3.039417557685147"><ele>739.0</ele><time>2026-03-22T14:32:27.999Z</time></trkpt><trkpt lat="45.652039809082986" lon="3.0393396221544213"><ele>739.0</ele><time>2026-03-22T14:32:28.999Z</time></trkpt><trkpt lat="45.65212724360896" lon="3.0392635490568223"><ele>738.4000000000001</ele><time>2026-03-22T14:32:29.999Z</time></trkpt><trkpt lat="45.652214517783676" lon="3.0391882472932177"><ele>737.8</ele><time>2026-03-22T14:32:30.999Z</time></trkpt><trkpt lat="45.652306289997725" lon="3.039122308426399"><ele>737.2</ele><time>2026-03-22T14:32:31.999Z</time></trkpt><trkpt lat="45.652404175246964" lon="3.0390691923467035"><ele>736.5999999999999</ele><time>2026-03-22T14:32:32.999Z</time></trkpt><trkpt lat="45.652506718443696" lon="3.039038949230095"><ele>736.0</ele><time>2026-03-22T14:32:33.999Z</time></trkpt><trkpt lat="45.65260896078113" lon="3.0390199197745504"><ele>736.0</ele><time>2026-03-22T14:32:34.999Z</time></trkpt><trkpt lat="45.65271266321861" lon="3.03900842851225"><ele>736.0</ele><time>2026-03-22T14:32:35.999Z</time></trkpt><trkpt lat="45.652815284339034" lon="3.0389949230832385"><ele>736.0</ele><time>2026-03-22T14:32:36.999Z</time></trkpt><trkpt lat="45.652916938508184" lon="3.038974573459501"><ele>736.0</ele><time>2026-03-22T14:32:37.999Z</time></trkpt><trkpt lat="45.653018185237464" lon="3.0389522369051827"><ele>736.0</ele><time>2026-03-22T14:32:38.999Z</time></trkpt><trkpt lat="45.653118090255575" lon="3.0389212078880234"><ele>734.1999999999999</ele><time>2026-03-22T14:32:39.999Z</time></trkpt><trkpt lat="45.65322249158677" lon="3.0388887142733907"><ele>732.4</ele><time>2026-03-22T14:32:40.999Z</time></trkpt><trkpt lat="45.65330876722232" lon="3.0387912853891494"><ele>730.6</ele><time>2026-03-22T14:32:41.999Z</time></trkpt><trkpt lat="45.65339802585743" lon="3.038698855506307"><ele>728.8</ele><time>2026-03-22T14:32:42.999Z</time></trkpt><trkpt lat="45.65349067412029" lon="3.0386068628750182"><ele>727.0</ele><time>2026-03-22T14:32:43.999Z</time></trkpt><trkpt lat="45.653583005770884" lon="3.0385163043874073"><ele>724.2</ele><time>2026-03-22T14:32:44.999Z</time></trkpt><trkpt lat="45.653673309491545" lon="3.0384245012030338"><ele>721.4000000000001</ele><time>2026-03-22T14:32:45.999Z</time></trkpt><trkpt lat="45.653758750584224" lon="3.0383367282612115"><ele>718.5999999999999</ele><time>2026-03-22T14:32:46.999Z</time></trkpt><trkpt lat="45.65383428696097" lon="3.038247614193119"><ele>715.8</ele><time>2026-03-22T14:32:47.999Z</time></trkpt><trkpt lat="45.65389575492313" lon="3.0381496941992734"><ele>713.0</ele><time>2026-03-22T14:32:48.999Z</time></trkpt><trkpt lat="45.65394097953916" lon="3.0380425543933693"><ele>712.1666666666666</ele><time>2026-03-22T14:32:49.999Z</time></trkpt><trkpt lat="45.65396507360899" lon="3.037923840463164"><ele>711.3333333333333</ele><time>2026-03-22T14:32:50.999Z</time></trkpt><trkpt lat="45.65396561484055" lon="3.0378060554075796"><ele>710.5</ele><time>2026-03-22T14:32:51.999Z</time></trkpt><trkpt lat="45.65394774230404" lon="3.0376923792887385"><ele>709.6666666666666</ele><time>2026-03-22T14:32:52.999Z</time></trkpt><trkpt lat="45.65390856704266" lon="3.037588543532429"><ele>708.8333333333334</ele><time>2026-03-22T14:32:53.999Z</time></trkpt><trkpt lat="45.653856015365406" lon="3.03749506171669"><ele>708.0</ele><time>2026-03-22T14:32:54.999Z</time></trkpt><trkpt lat="45.65379409170999" lon="3.0373978999171665"><ele>709.2</ele><time>2026-03-22T14:32:55.999Z</time></trkpt><trkpt lat="45.65372491204864" lon="3.037294829085506"><ele>710.4</ele><time>2026-03-22T14:32:56.999Z</time></trkpt><trkpt lat="45.65365079581385" lon="3.037185102620701"><ele>711.6</ele><time>2026-03-22T14:32:57.999Z</time></trkpt><trkpt lat="45.65357449353497" lon="3.0370706848703266"><ele>712.8000000000001</ele><time>2026-03-22T14:32:58.999Z</time></trkpt><trkpt lat="45.65349646543756" lon="3.0369528958430196"><ele>714.0</ele><time>2026-03-22T14:32:59.999Z</time></trkpt><trkpt lat="45.65341884130807" lon="3.0368333879719303"><ele>714.0</ele><time>2026-03-22T14:33:00.999Z</time></trkpt><trkpt lat="45.653340318303755" lon="3.036714132819266"><ele>714.0</ele><time>2026-03-22T14:33:01.999Z</time></trkpt><trkpt lat="45.653260186165575" lon="3.036596848888005"><ele>714.0</ele><time>2026-03-22T14:33:02.999Z</time></trkpt><trkpt lat="45.65318478945866" lon="3.0364792387437296"><ele>714.0</ele><time>2026-03-22T14:33:03.999Z</time></trkpt><trkpt lat="45.653117361914205" lon="3.036366568204824"><ele>714.0</ele><time>2026-03-22T14:33:04.999Z</time></trkpt><trkpt lat="45.65306112493966" lon="3.0362535489873794"><ele>713.4000000000001</ele><time>2026-03-22T14:33:05.999Z</time></trkpt><trkpt lat="45.65301967331211" lon="3.036132137944069"><ele>712.8</ele><time>2026-03-22T14:33:06.999Z</time></trkpt><trkpt lat="45.65299871297906" lon="3.0360020555598233"><ele>712.2</ele><time>2026-03-22T14:33:07.999Z</time></trkpt><trkpt lat="45.65300236653431" lon="3.0358692248273567"><ele>711.5999999999999</ele><time>2026-03-22T14:33:08.999Z</time></trkpt><trkpt lat="45.65302321447326" lon="3.035744089663765"><ele>711.0</ele><time>2026-03-22T14:33:09.999Z</time></trkpt><trkpt lat="45.65308245541136" lon="3.03564161287646"><ele>711.0</ele><time>2026-03-22T14:33:10.999Z</time></trkpt><trkpt lat="45.65316438862445" lon="3.0355705922826544"><ele>711.0</ele><time>2026-03-22T14:33:11.999Z</time></trkpt><trkpt lat="45.65325865347445" lon="3.0355605139339272"><ele>711.0</ele><time>2026-03-22T14:33:12.999Z</time></trkpt><trkpt lat="45.653362355117096" lon="3.035555131939483"><ele>711.0</ele><time>2026-03-22T14:33:13.999Z</time></trkpt><trkpt lat="45.65347359247286" lon="3.035556111662003"><ele>711.0</ele><time>2026-03-22T14:33:14.999Z</time></trkpt><trkpt lat="45.653593956829255" lon="3.0355380279184936"><ele>711.0</ele><time>2026-03-22T14:33:15.999Z</time></trkpt><trkpt lat="45.6537118527253" lon="3.035545840429244"><ele>711.0</ele><time>2026-03-22T14:33:16.999Z</time></trkpt><trkpt lat="45.6538274284117" lon="3.035553658369776"><ele>711.0</ele><time>2026-03-22T14:33:17.999Z</time></trkpt><trkpt lat="45.65393763928242" lon="3.035609745242176"><ele>711.0</ele><time>2026-03-22T14:33:18.999Z</time></trkpt><trkpt lat="45.65403965176457" lon="3.0356816242723568"><ele>711.0</ele><time>2026-03-22T14:33:19.999Z</time></trkpt><trkpt lat="45.65412905491281" lon="3.0357797780026687"><ele>711.0</ele><time>2026-03-22T14:33:20.999Z</time></trkpt><trkpt lat="45.65421965339342" lon="3.0358883772365384"><ele>711.0</ele><time>2026-03-22T14:33:21.999Z</time></trkpt><trkpt lat="45.65431006269923" lon="3.0360002791435816"><ele>711.0</ele><time>2026-03-22T14:33:22.999Z</time></trkpt><trkpt lat="45.654401181743125" lon="3.036113059587512"><ele>708.0</ele><time>2026-03-22T14:33:23.999Z</time></trkpt><trkpt lat="45.6544922832694" lon="3.0362219526610135"><ele>705.0</ele><time>2026-03-22T14:33:24.999Z</time></trkpt><trkpt lat="45.6545863270023" lon="3.036323244527459"><ele>702.0</ele><time>2026-03-22T14:33:25.999Z</time></trkpt><trkpt lat="45.65468848119996" lon="3.0364039713524633"><ele>699.0</ele><time>2026-03-22T14:33:26.999Z</time></trkpt><trkpt lat="45.65479115122889" lon="3.036472759215644"><ele>699.0</ele><time>2026-03-22T14:33:27.999Z</time></trkpt><trkpt lat="45.6548943339518" lon="3.0365350463844467"><ele>699.0</ele><time>2026-03-22T14:33:28.999Z</time></trkpt><trkpt lat="45.65499728018559" lon="3.0365912299148174"><ele>699.0</ele><time>2026-03-22T14:33:29.999Z</time></trkpt><trkpt lat="45.65509460942848" lon="3.0366443580667175"><ele>699.0</ele><time>2026-03-22T14:33:30.999Z</time></trkpt><trkpt lat="45.65518847732619" lon="3.0367075945986772"><ele>699.0</ele><time>2026-03-22T14:33:31.999Z</time></trkpt><trkpt lat="45.65527523938091" lon="3.036787045194856"><ele>698.8000000000001</ele><time>2026-03-22T14:33:32.999Z</time></trkpt><trkpt lat="45.655353905865354" lon="3.0368900986490113"><ele>698.6</ele><time>2026-03-22T14:33:33.999Z</time></trkpt><trkpt lat="45.65541890050787" lon="3.037011315285134"><ele>698.4</ele><time>2026-03-22T14:33:34.999Z</time></trkpt><trkpt lat="45.655480014873646" lon="3.037143703755831"><ele>698.2</ele><time>2026-03-22T14:33:36Z</time></trkpt><trkpt lat="45.655540331890144" lon="3.037283408275151"><ele>698.0</ele><time>2026-03-22T14:33:37Z</time></trkpt><trkpt lat="45.65559952942165" lon="3.0374245591363134"><ele>698.2</ele><time>2026-03-22T14:33:38Z</time></trkpt><trkpt lat="45.65565327347396" lon="3.037563891844448"><ele>698.4</ele><time>2026-03-22T14:33:39Z</time></trkpt><trkpt lat="45.6557158382952" lon="3.037693553806663"><ele>698.6</ele><time>2026-03-22T14:33:40Z</time></trkpt><trkpt lat="45.65578819615701" lon="3.0378124974095626"><ele>698.8000000000001</ele><time>2026-03-22T14:33:41Z</time></trkpt><trkpt lat="45.655876454395404" lon="3.0379150588008903"><ele>699.0</ele><time>2026-03-22T14:33:42Z</time></trkpt><trkpt lat="45.65598305739189" lon="3.0379954957833575"><ele>699.0</ele><time>2026-03-22T14:33:43Z</time></trkpt><trkpt lat="45.656090874691316" lon="3.038068463083205"><ele>699.0</ele><time>2026-03-22T14:33:44Z</time></trkpt><trkpt lat="45.65620215235715" lon="3.0381394102545394"><ele>699.0</ele><time>2026-03-22T14:33:45Z</time></trkpt><trkpt lat="45.65631306809115" lon="3.0382137267957856"><ele>699.0</ele><time>2026-03-22T14:33:46Z</time></trkpt><trkpt lat="45.656422809732554" lon="3.03828730569096"><ele>698.2</ele><time>2026-03-22T14:33:47Z</time></trkpt><trkpt lat="45.65653441664598" lon="3.038337973947237"><ele>697.4000000000001</ele><time>2026-03-22T14:33:48Z</time></trkpt><trkpt lat="45.656631964075565" lon="3.0384157835290373"><ele>696.6</ele><time>2026-03-22T14:33:49Z</time></trkpt><trkpt lat="45.65672770922149" lon="3.038477520086991"><ele>695.8</ele><time>2026-03-22T14:33:50Z</time></trkpt><trkpt lat="45.65682082045475" lon="3.0385164471106965"><ele>695.0</ele><time>2026-03-22T14:33:51Z</time></trkpt><trkpt lat="45.65691514836718" lon="3.03853009421868"><ele>694.2</ele><time>2026-03-22T14:33:52Z</time></trkpt><trkpt lat="45.65700503998715" lon="3.0385108759070345"><ele>693.4</ele><time>2026-03-22T14:33:53Z</time></trkpt><trkpt lat="45.65708571599799" lon="3.038457796729883"><ele>692.5999999999999</ele><time>2026-03-22T14:33:54Z</time></trkpt><trkpt lat="45.65715901301022" lon="3.038375064434428"><ele>691.8</ele><time>2026-03-22T14:33:55Z</time></trkpt><trkpt lat="45.65722714137621" lon="3.038275573888572"><ele>691.0</ele><time>2026-03-22T14:33:56Z</time></trkpt><trkpt lat="45.65729326960214" lon="3.0381712756658907"><ele>691.0</ele><time>2026-03-22T14:33:57Z</time></trkpt><trkpt lat="45.65735931565423" lon="3.0380730994580096"><ele>691.0</ele><time>2026-03-22T14:33:58Z</time></trkpt><trkpt lat="45.657429766505416" lon="3.0379817323605245"><ele>691.0</ele><time>2026-03-22T14:33:59Z</time></trkpt><trkpt lat="45.65750829089014" lon="3.037909574037896"><ele>691.0</ele><time>2026-03-22T14:34:00Z</time></trkpt><trkpt lat="45.65759091263839" lon="3.0378586965034553"><ele>691.0</ele><time>2026-03-22T14:34:01Z</time></trkpt><trkpt lat="45.657675405068495" lon="3.0378315672372302"><ele>691.0</ele><time>2026-03-22T14:34:02Z</time></trkpt><trkpt lat="45.657766707303324" lon="3.0378281675438177"><ele>691.0</ele><time>2026-03-22T14:34:03Z</time></trkpt><trkpt lat="45.65786049764712" lon="3.0378532382471573"><ele>691.0</ele><time>2026-03-22T14:34:04Z</time></trkpt><trkpt lat="45.65794941634761" lon="3.037892947066597"><ele>691.0</ele><time>2026-03-22T14:34:05Z</time></trkpt><trkpt lat="45.658030969825994" lon="3.037945406490497"><ele>691.0</ele><time>2026-03-22T14:34:06Z</time></trkpt><trkpt lat="45.65809914652805" lon="3.038021215913587"><ele>690.6666666666667</ele><time>2026-03-22T14:34:07Z</time></trkpt><trkpt lat="45.65817095447732" lon="3.0380819639495016"><ele>690.3333333333334</ele><time>2026-03-22T14:34:08Z</time></trkpt><trkpt lat="45.65825018049772" lon="3.0381238329746054"><ele>690.0</ele><time>2026-03-22T14:34:09Z</time></trkpt><trkpt lat="45.65832600440645" lon="3.038172536043991"><ele>689.6666666666666</ele><time>2026-03-22T14:34:10Z</time></trkpt><trkpt lat="45.658404589484256" lon="3.038213140882114"><ele>689.3333333333333</ele><time>2026-03-22T14:34:11Z</time></trkpt><trkpt lat="45.65848241400119" lon="3.0382555605537154"><ele>689.0</ele><time>2026-03-22T14:34:12Z</time></trkpt><trkpt lat="45.658567139854334" lon="3.0382884088262467"><ele>688.8000000000001</ele><time>2026-03-22T14:34:13Z</time></trkpt><trkpt lat="45.65864929423952" lon="3.0383327556729647"><ele>688.6</ele><time>2026-03-22T14:34:14Z</time></trkpt><trkpt lat="45.658722549374964" lon="3.0384141442817536"><ele>688.4</ele><time>2026-03-22T14:34:15Z</time></trkpt><trkpt lat="45.65878941581817" lon="3.0385171200247605"><ele>688.2</ele><time>2026-03-22T14:34:16Z</time></trkpt><trkpt lat="45.65885693739989" lon="3.038637088974243"><ele>688.0</ele><time>2026-03-22T14:34:17Z</time></trkpt><trkpt lat="45.65893538258625" lon="3.0387535077199406"><ele>688.0</ele><time>2026-03-22T14:34:18Z</time></trkpt><trkpt lat="45.65902951923248" lon="3.0388598357639114"><ele>688.0</ele><time>2026-03-22T14:34:19Z</time></trkpt><trkpt lat="45.65912552711894" lon="3.0389486848951646"><ele>688.0</ele><time>2026-03-22T14:34:20Z</time></trkpt><trkpt lat="45.65922159817167" lon="3.039022679195459"><ele>688.0</ele><time>2026-03-22T14:34:21Z</time></trkpt><trkpt lat="45.65931775659299" lon="3.0390838435086223"><ele>688.0</ele><time>2026-03-22T14:34:22Z</time></trkpt><trkpt lat="45.65941766514572" lon="3.039131474410811"><ele>687.2</ele><time>2026-03-22T14:34:23Z</time></trkpt><trkpt lat="45.65951808360443" lon="3.0391885606903766"><ele>686.4</ele><time>2026-03-22T14:34:24Z</time></trkpt><trkpt lat="45.65962721528373" lon="3.0392045015042997"><ele>685.6</ele><time>2026-03-22T14:34:25Z</time></trkpt><trkpt lat="45.65973349317896" lon="3.0391843711978757"><ele>684.8000000000001</ele><time>2026-03-22T14:34:26Z</time></trkpt><trkpt lat="45.65982862527005" lon="3.0391134658514503"><ele>684.0</ele><time>2026-03-22T14:34:27Z</time></trkpt><trkpt lat="45.6599279393562" lon="3.0390549474887454"><ele>684.0</ele><time>2026-03-22T14:34:27.999Z</time></trkpt><trkpt lat="45.66002576413278" lon="3.038986325295547"><ele>684.0</ele><time>2026-03-22T14:34:28.999Z</time></trkpt><trkpt lat="45.66012810923682" lon="3.038918682877549"><ele>684.0</ele><time>2026-03-22T14:34:29.999Z</time></trkpt><trkpt lat="45.660230550055104" lon="3.038860156137905"><ele>684.0</ele><time>2026-03-22T14:34:30.999Z</time></trkpt><trkpt lat="45.66032917333203" lon="3.0388051440863695"><ele>684.0</ele><time>2026-03-22T14:34:31.999Z</time></trkpt><trkpt lat="45.660424357450935" lon="3.0387600956152574"><ele>683.1666666666666</ele><time>2026-03-22T14:34:32.999Z</time></trkpt><trkpt lat="45.66051758780488" lon="3.0387231837635187"><ele>682.3333333333334</ele><time>2026-03-22T14:34:33.999Z</time></trkpt><trkpt lat="45.66061126549869" lon="3.038729877804802"><ele>681.5</ele><time>2026-03-22T14:34:34.999Z</time></trkpt><trkpt lat="45.66069652806315" lon="3.0387366340263973"><ele>680.6666666666667</ele><time>2026-03-22T14:34:35.999Z</time></trkpt><trkpt lat="45.660776168201934" lon="3.0387429703920423"><ele>679.8333333333334</ele><time>2026-03-22T14:34:36.999Z</time></trkpt><trkpt lat="45.66085040056646" lon="3.0387501169671856"><ele>679.0</ele><time>2026-03-22T14:34:37.999Z</time></trkpt><trkpt lat="45.66095368221038" lon="3.0387797278466087"><ele>679.0</ele><time>2026-03-22T14:34:39.999Z</time></trkpt><trkpt lat="45.661018445277385" lon="3.038810269895149"><ele>679.0</ele><time>2026-03-22T14:34:45.999Z</time></trkpt><trkpt lat="45.66108080545012" lon="3.0388405459923917"><ele>679.0</ele><time>2026-03-22T14:34:47.999Z</time></trkpt><trkpt lat="45.66114126459237" lon="3.0386766735191686"><ele>679.0</ele><time>2026-03-22T14:34:48.999Z</time></trkpt><trkpt lat="45.66117935174128" lon="3.038533863105448"><ele>679.0</ele><time>2026-03-22T14:34:50.999Z</time></trkpt><trkpt lat="45.66119782628068" lon="3.0383943121856913"><ele>679.8333333333334</ele><time>2026-03-22T14:34:52.999Z</time></trkpt><trkpt lat="45.66120675635721" lon="3.038303241703231"><ele>680.6666666666667</ele><time>2026-03-22T14:34:53.999Z</time></trkpt><trkpt lat="45.66121649266457" lon="3.038203218547656"><ele>681.5</ele><time>2026-03-22T14:34:54.999Z</time></trkpt><trkpt lat="45.66122675644133" lon="3.0380932986298737"><ele>682.3333333333334</ele><time>2026-03-22T14:34:55.999Z</time></trkpt><trkpt lat="45.661236504689676" lon="3.037980673075567"><ele>683.1666666666666</ele><time>2026-03-22T14:34:56.999Z</time></trkpt><trkpt lat="45.66125191234424" lon="3.0377600095483555"><ele>684.0</ele><time>2026-03-22T14:34:58.999Z</time></trkpt><trkpt lat="45.66125694426219" lon="3.0376680413094688"><ele>685.8333333333334</ele><time>2026-03-22T14:34:59.999Z</time></trkpt><trkpt lat="45.66126800214014" lon="3.037532314523058"><ele>687.6666666666666</ele><time>2026-03-22T14:35:01.999Z</time></trkpt><trkpt lat="45.661254318666145" lon="3.0374121307136352"><ele>689.5</ele><time>2026-03-22T14:35:04.999Z</time></trkpt><trkpt lat="45.66129727011261" lon="3.037329645870136"><ele>691.3333333333333</ele><time>2026-03-22T14:35:08.999Z</time></trkpt><trkpt lat="45.66129703738939" lon="3.0372207446051944"><ele>693.1666666666666</ele><time>2026-03-22T14:35:31.999Z</time></trkpt><trkpt lat="45.66119569495105" lon="3.0371642070785096"><ele>695.0</ele><time>2026-03-22T14:35:33.999Z</time></trkpt><trkpt lat="45.66116178863157" lon="3.0370549839449765"><ele>694.2</ele><time>2026-03-22T14:35:36.999Z</time></trkpt><trkpt lat="45.66111519556155" lon="3.0369581508559684"><ele>693.4</ele><time>2026-03-22T14:35:38.998Z</time></trkpt><trkpt lat="45.661066244697665" lon="3.0367971959387057"><ele>692.5999999999999</ele><time>2026-03-22T14:35:41Z</time></trkpt><trkpt lat="45.66100797392555" lon="3.0366714560194814"><ele>691.8</ele><time>2026-03-22T14:35:43Z</time></trkpt><trkpt lat="45.66094171430014" lon="3.0365494160813498"><ele>691.0</ele><time>2026-03-22T14:35:45Z</time></trkpt><trkpt lat="45.660898768521854" lon="3.03647797173354"><ele>692.3333333333334</ele><time>2026-03-22T14:35:46Z</time></trkpt><trkpt lat="45.66084902095788" lon="3.036402558827419"><ele>693.6666666666667</ele><time>2026-03-22T14:35:47Z</time></trkpt><trkpt lat="45.66079425736906" lon="3.0363205123265353"><ele>695.0</ele><time>2026-03-22T14:35:48Z</time></trkpt><trkpt lat="45.66073632823237" lon="3.0362317067455455"><ele>696.3333333333334</ele><time>2026-03-22T14:35:49Z</time></trkpt><trkpt lat="45.660676912239644" lon="3.0361376552706094"><ele>697.6666666666666</ele><time>2026-03-22T14:35:50Z</time></trkpt><trkpt lat="45.66061318886902" lon="3.0360421348280884"><ele>699.0</ele><time>2026-03-22T14:35:51Z</time></trkpt><trkpt lat="45.66054722881654" lon="3.035943341119844"><ele>699.0</ele><time>2026-03-22T14:35:52Z</time></trkpt><trkpt lat="45.66047866725266" lon="3.0358409689533654"><ele>699.0</ele><time>2026-03-22T14:35:53Z</time></trkpt><trkpt lat="45.66041140878106" lon="3.0357370266118084"><ele>699.0</ele><time>2026-03-22T14:35:54Z</time></trkpt><trkpt lat="45.66034478106177" lon="3.035630105993968"><ele>699.0</ele><time>2026-03-22T14:35:55Z</time></trkpt><trkpt lat="45.66028076570486" lon="3.035526878393665"><ele>699.0</ele><time>2026-03-22T14:35:56Z</time></trkpt><trkpt lat="45.66022043372992" lon="3.0354317483889384"><ele>699.0</ele><time>2026-03-22T14:35:57Z</time></trkpt><trkpt lat="45.66015661666152" lon="3.0353323506453744"><ele>699.0</ele><time>2026-03-22T14:35:58Z</time></trkpt><trkpt lat="45.66009109943295" lon="3.0352355334697716"><ele>699.0</ele><time>2026-03-22T14:35:59Z</time></trkpt><trkpt lat="45.66002505892923" lon="3.0351373844832246"><ele>699.0</ele><time>2026-03-22T14:36:00Z</time></trkpt><trkpt lat="45.659959714367005" lon="3.035033500982862"><ele>699.0</ele><time>2026-03-22T14:36:01Z</time></trkpt><trkpt lat="45.65989494551262" lon="3.0349251279431675"><ele>700.0</ele><time>2026-03-22T14:36:02Z</time></trkpt><trkpt lat="45.659831641172204" lon="3.03481064076403"><ele>701.0</ele><time>2026-03-22T14:36:03Z</time></trkpt><trkpt lat="45.65977174711519" lon="3.0346901360193304"><ele>702.0</ele><time>2026-03-22T14:36:04Z</time></trkpt><trkpt lat="45.65971394353621" lon="3.0345635981887744"><ele>703.0</ele><time>2026-03-22T14:36:05Z</time></trkpt><trkpt lat="45.65966092576949" lon="3.0344290798374063"><ele>704.0</ele><time>2026-03-22T14:36:06Z</time></trkpt><trkpt lat="45.659614640149606" lon="3.0342851387436895"><ele>704.25</ele><time>2026-03-22T14:36:07Z</time></trkpt><trkpt lat="45.65957263671319" lon="3.0341362399107554"><ele>704.5</ele><time>2026-03-22T14:36:08Z</time></trkpt><trkpt lat="45.65954125969009" lon="3.033978428736795"><ele>704.75</ele><time>2026-03-22T14:36:09Z</time></trkpt><trkpt lat="45.65951370246885" lon="3.0338176895022997"><ele>705.0</ele><time>2026-03-22T14:36:10Z</time></trkpt><trkpt lat="45.65949327090743" lon="3.0336517243644"><ele>705.0</ele><time>2026-03-22T14:36:11Z</time></trkpt><trkpt lat="45.65947948161994" lon="3.033483428375633"><ele>705.0</ele><time>2026-03-22T14:36:12Z</time></trkpt><trkpt lat="45.65947279758458" lon="3.0333113491732266"><ele>705.0</ele><time>2026-03-22T14:36:13Z</time></trkpt><trkpt lat="45.659476739390705" lon="3.033139477212709"><ele>705.0</ele><time>2026-03-22T14:36:14Z</time></trkpt><trkpt lat="45.6594864819169" lon="3.032965815532384"><ele>705.5</ele><time>2026-03-22T14:36:15Z</time></trkpt><trkpt lat="45.65950380461468" lon="3.0327910525875135"><ele>706.0</ele><time>2026-03-22T14:36:16Z</time></trkpt><trkpt lat="45.65952827853143" lon="3.0326168865308083"><ele>706.5</ele><time>2026-03-22T14:36:17Z</time></trkpt><trkpt lat="45.659561879390935" lon="3.032445399780379"><ele>707.0</ele><time>2026-03-22T14:36:18Z</time></trkpt><trkpt lat="45.65960579917588" lon="3.0322764371384916"><ele>707.25</ele><time>2026-03-22T14:36:19Z</time></trkpt><trkpt lat="45.65965910390073" lon="3.0321123876001455"><ele>707.5</ele><time>2026-03-22T14:36:20Z</time></trkpt><trkpt lat="45.659719342958724" lon="3.031951650356127"><ele>707.75</ele><time>2026-03-22T14:36:21Z</time></trkpt><trkpt lat="45.65978626546401" lon="3.0317950128510365"><ele>708.0</ele><time>2026-03-22T14:36:22Z</time></trkpt><trkpt lat="45.6598577987308" lon="3.03164139785959"><ele>708.5</ele><time>2026-03-22T14:36:23Z</time></trkpt><trkpt lat="45.65992913734366" lon="3.0314864772381656"><ele>709.0</ele><time>2026-03-22T14:36:24Z</time></trkpt><trkpt lat="45.659999389016036" lon="3.0313273599637514"><ele>709.5</ele><time>2026-03-22T14:36:25Z</time></trkpt><trkpt lat="45.66006822262503" lon="3.031166730908819"><ele>710.0</ele><time>2026-03-22T14:36:25.999Z</time></trkpt><trkpt lat="45.66013901933394" lon="3.0310057682781735"><ele>710.0</ele><time>2026-03-22T14:36:26.999Z</time></trkpt><trkpt lat="45.66021106158558" lon="3.0308454427190084"><ele>710.0</ele><time>2026-03-22T14:36:27.999Z</time></trkpt><trkpt lat="45.66028208731143" lon="3.0306837190732643"><ele>710.0</ele><time>2026-03-22T14:36:28.999Z</time></trkpt><trkpt lat="45.660352538577634" lon="3.0305214782385472"><ele>710.0</ele><time>2026-03-22T14:36:29.999Z</time></trkpt><trkpt lat="45.6604244683091" lon="3.030358917011326"><ele>711.75</ele><time>2026-03-22T14:36:30.999Z</time></trkpt><trkpt lat="45.660495475353" lon="3.0301963029883825"><ele>713.5</ele><time>2026-03-22T14:36:31.999Z</time></trkpt><trkpt lat="45.66056629146578" lon="3.0300356334107637"><ele>715.25</ele><time>2026-03-22T14:36:32.999Z</time></trkpt><trkpt lat="45.66063615429557" lon="3.029874811239045"><ele>717.0</ele><time>2026-03-22T14:36:33.999Z</time></trkpt><trkpt lat="45.66070506905445" lon="3.0297143250527334"><ele>717.0</ele><time>2026-03-22T14:36:34.999Z</time></trkpt><trkpt lat="45.66077576560035" lon="3.029554311782107"><ele>717.0</ele><time>2026-03-22T14:36:35.999Z</time></trkpt><trkpt lat="45.660856792780386" lon="3.0294026259828883"><ele>717.0</ele><time>2026-03-22T14:36:36.999Z</time></trkpt><trkpt lat="45.660946370539435" lon="3.0292600555401608"><ele>717.0</ele><time>2026-03-22T14:36:37.999Z</time></trkpt><trkpt lat="45.66104022170892" lon="3.029122196159384"><ele>719.0</ele><time>2026-03-22T14:36:38.999Z</time></trkpt><trkpt lat="45.66113497146529" lon="3.0289846469672397"><ele>721.0</ele><time>2026-03-22T14:36:39.999Z</time></trkpt><trkpt lat="45.66122748495002" lon="3.0288457219578357"><ele>723.0</ele><time>2026-03-22T14:36:40.999Z</time></trkpt><trkpt lat="45.661319717839454" lon="3.028707740134301"><ele>725.0</ele><time>2026-03-22T14:36:41.999Z</time></trkpt><trkpt lat="45.6614105919527" lon="3.0285704950472643"><ele>725.0</ele><time>2026-03-22T14:36:42.999Z</time></trkpt><trkpt lat="45.66149980374987" lon="3.0284327580265793"><ele>725.0</ele><time>2026-03-22T14:36:43.999Z</time></trkpt><trkpt lat="45.66159055041825" lon="3.0282964388258136"><ele>725.0</ele><time>2026-03-22T14:36:44.999Z</time></trkpt><trkpt lat="45.66168314985076" lon="3.02816273445168"><ele>725.0</ele><time>2026-03-22T14:36:45.999Z</time></trkpt><trkpt lat="45.66177738054267" lon="3.028032988401654"><ele>724.25</ele><time>2026-03-22T14:36:46.999Z</time></trkpt><trkpt lat="45.661874669653805" lon="3.027908145125872"><ele>723.5</ele><time>2026-03-22T14:36:47.999Z</time></trkpt><trkpt lat="45.66197289871661" lon="3.0277864767447547"><ele>722.75</ele><time>2026-03-22T14:36:48.999Z</time></trkpt><trkpt lat="45.662070507238504" lon="3.0276671589069606"><ele>722.0</ele><time>2026-03-22T14:36:49.999Z</time></trkpt><trkpt lat="45.66216823550809" lon="3.027549648467587"><ele>724.5</ele><time>2026-03-22T14:36:50.999Z</time></trkpt><trkpt lat="45.66226453058735" lon="3.0274351144039575"><ele>727.0</ele><time>2026-03-22T14:36:51.999Z</time></trkpt><trkpt lat="45.66235458570764" lon="3.027316273848631"><ele>729.5</ele><time>2026-03-22T14:36:52.999Z</time></trkpt><trkpt lat="45.66243891073668" lon="3.0271920207701455"><ele>732.0</ele><time>2026-03-22T14:36:53.999Z</time></trkpt><trkpt lat="45.66252018804786" lon="3.027065795942556"><ele>732.0</ele><time>2026-03-22T14:36:54.999Z</time></trkpt><trkpt lat="45.6625980892826" lon="3.0269398204810174"><ele>732.0</ele><time>2026-03-22T14:36:55.999Z</time></trkpt><trkpt lat="45.662676752015734" lon="3.026816148469808"><ele>732.0</ele><time>2026-03-22T14:36:56.999Z</time></trkpt><trkpt lat="45.66275069872233" lon="3.0266919053829584"><ele>732.0</ele><time>2026-03-22T14:36:57.999Z</time></trkpt><trkpt lat="45.66281473651968" lon="3.0265745819629823"><ele>733.3333333333334</ele><time>2026-03-22T14:36:58.999Z</time></trkpt><trkpt lat="45.66287360349304" lon="3.0264609067056143"><ele>734.6666666666666</ele><time>2026-03-22T14:36:59.999Z</time></trkpt><trkpt lat="45.66292389652593" lon="3.0263443158346672"><ele>736.0</ele><time>2026-03-22T14:37:00.999Z</time></trkpt><trkpt lat="45.662961245751845" lon="3.0262275960838005"><ele>737.3333333333333</ele><time>2026-03-22T14:37:01.999Z</time></trkpt><trkpt lat="45.66298464146397" lon="3.0261197666972546"><ele>738.6666666666666</ele><time>2026-03-22T14:37:02.999Z</time></trkpt><trkpt lat="45.66299530547691" lon="3.0260149285061964"><ele>740.0</ele><time>2026-03-22T14:37:03.999Z</time></trkpt><trkpt lat="45.66299544681456" lon="3.0259103038076747"><ele>740.25</ele><time>2026-03-22T14:37:04.999Z</time></trkpt><trkpt lat="45.66297739065042" lon="3.0257349927165698"><ele>740.5</ele><time>2026-03-22T14:37:06.999Z</time></trkpt><trkpt lat="45.66295016497818" lon="3.0255811735153544"><ele>740.75</ele><time>2026-03-22T14:37:08.999Z</time></trkpt><trkpt lat="45.66292933675127" lon="3.0254596901636157"><ele>741.0</ele><time>2026-03-22T14:37:10.999Z</time></trkpt><trkpt lat="45.6628568263334" lon="3.025202139824483"><ele>741.0</ele><time>2026-03-22T14:37:12.999Z</time></trkpt><trkpt lat="45.662999961720935" lon="3.025382420502377"><ele>741.0</ele><time>2026-03-22T14:37:13.999Z</time></trkpt><trkpt lat="45.66301027901763" lon="3.025474983472158"><ele>741.0</ele><time>2026-03-22T14:37:15.999Z</time></trkpt><trkpt lat="45.66306357762362" lon="3.025594152536954"><ele>741.0</ele><time>2026-03-22T14:37:18.999Z</time></trkpt><trkpt lat="45.66311055123836" lon="3.0256879996914625"><ele>741.0</ele><time>2026-03-22T14:37:20.999Z</time></trkpt><trkpt lat="45.66316968112947" lon="3.0257837859037324"><ele>740.8333333333334</ele><time>2026-03-22T14:37:22.999Z</time></trkpt><trkpt lat="45.66322214451679" lon="3.0258690557469663"><ele>740.6666666666666</ele><time>2026-03-22T14:37:24.999Z</time></trkpt><trkpt lat="45.66325765578723" lon="3.0259573635199963"><ele>740.5</ele><time>2026-03-22T14:37:26.999Z</time></trkpt><trkpt lat="45.663275369383705" lon="3.026073758432083"><ele>740.3333333333333</ele><time>2026-03-22T14:37:28.999Z</time></trkpt><trkpt lat="45.663282813630175" lon="3.0262074854910845"><ele>740.1666666666666</ele><time>2026-03-22T14:37:30.999Z</time></trkpt><trkpt lat="45.66329201012423" lon="3.0263396335547124"><ele>740.0</ele><time>2026-03-22T14:37:32.999Z</time></trkpt><trkpt lat="45.6632983331686" lon="3.026430495466125"><ele>740.0</ele><time>2026-03-22T14:37:34.999Z</time></trkpt><trkpt lat="45.663308202228315" lon="3.02654386346175"><ele>740.0</ele><time>2026-03-22T14:37:38.998Z</time></trkpt><trkpt lat="45.66328365047347" lon="3.02663595822663"><ele>740.0</ele><time>2026-03-22T14:37:40.998Z</time></trkpt><trkpt lat="45.66325329150212" lon="3.0267364592037604"><ele>740.0</ele><time>2026-03-22T14:37:42.998Z</time></trkpt><trkpt lat="45.663222953229" lon="3.026836218698049"><ele>740.0</ele><time>2026-03-22T14:37:44.998Z</time></trkpt><trkpt lat="45.66320496320108" lon="3.0269441700062765"><ele>740.0</ele><time>2026-03-22T14:37:47Z</time></trkpt><trkpt lat="45.66318384695188" lon="3.0270527272915717"><ele>740.7142857142857</ele><time>2026-03-22T14:37:49Z</time></trkpt><trkpt lat="45.66316609518835" lon="3.0271475198583824"><ele>741.4285714285714</ele><time>2026-03-22T14:37:51Z</time></trkpt><trkpt lat="45.66313390388182" lon="3.0272396704842013"><ele>742.1428571428571</ele><time>2026-03-22T14:38:00Z</time></trkpt><trkpt lat="45.66308535019051" lon="3.0272977877454395"><ele>742.8571428571429</ele><time>2026-03-22T14:38:03Z</time></trkpt><trkpt lat="45.663009490702976" lon="3.0273689039695704"><ele>743.5714285714286</ele><time>2026-03-22T14:38:06Z</time></trkpt><trkpt lat="45.66295360571869" lon="3.0274131504406006"><ele>744.2857142857142</ele><time>2026-03-22T14:38:08Z</time></trkpt><trkpt lat="45.66288422991884" lon="3.0274423884680566"><ele>745.0</ele><time>2026-03-22T14:38:10Z</time></trkpt><trkpt lat="45.662813576667524" lon="3.0274712897851757"><ele>743.6666666666667</ele><time>2026-03-22T14:38:12Z</time></trkpt><trkpt lat="45.66274582059458" lon="3.027510440743338"><ele>742.3333333333334</ele><time>2026-03-22T14:38:14Z</time></trkpt><trkpt lat="45.662683013427504" lon="3.027575550882173"><ele>741.0</ele><time>2026-03-22T14:38:16Z</time></trkpt><trkpt lat="45.66265285048321" lon="3.027674111258434"><ele>739.6666666666666</ele><time>2026-03-22T14:38:18Z</time></trkpt><trkpt lat="45.66267285723928" lon="3.027783535206555"><ele>738.3333333333333</ele><time>2026-03-22T14:38:20Z</time></trkpt><trkpt lat="45.662710773480505" lon="3.027889848149972"><ele>737.0</ele><time>2026-03-22T14:38:22Z</time></trkpt><trkpt lat="45.662732456635204" lon="3.0279769209879666"><ele>737.0</ele><time>2026-03-22T14:38:24Z</time></trkpt><trkpt lat="45.66273130518787" lon="3.0280881487001343"><ele>737.0</ele><time>2026-03-22T14:38:26Z</time></trkpt><trkpt lat="45.662726474901724" lon="3.028194151510307"><ele>737.0</ele><time>2026-03-22T14:38:27.999Z</time></trkpt><trkpt lat="45.66271802898665" lon="3.028294761781919"><ele>737.0</ele><time>2026-03-22T14:38:29.999Z</time></trkpt><trkpt lat="45.66271255474649" lon="3.0284030403131403"><ele>737.0</ele><time>2026-03-22T14:38:31.999Z</time></trkpt><trkpt lat="45.66272045227822" lon="3.0285272015380595"><ele>737.0</ele><time>2026-03-22T14:38:33.999Z</time></trkpt><trkpt lat="45.662748958629365" lon="3.028642158090633"><ele>737.5</ele><time>2026-03-22T14:38:35.999Z</time></trkpt><trkpt lat="45.66276889690662" lon="3.028752793535744"><ele>738.0</ele><time>2026-03-22T14:38:37.999Z</time></trkpt><trkpt lat="45.662780921342936" lon="3.0288698015046887"><ele>738.5</ele><time>2026-03-22T14:38:39.999Z</time></trkpt><trkpt lat="45.662790461349594" lon="3.0289927459233152"><ele>739.0</ele><time>2026-03-22T14:38:41.999Z</time></trkpt><trkpt lat="45.662797564069216" lon="3.0291034924668887"><ele>739.5</ele><time>2026-03-22T14:38:43.999Z</time></trkpt><trkpt lat="45.66281744357631" lon="3.0292000270410027"><ele>740.0</ele><time>2026-03-22T14:38:45.999Z</time></trkpt><trkpt lat="45.6628612350989" lon="3.0292884030477945"><ele>741.1428571428571</ele><time>2026-03-22T14:38:47.999Z</time></trkpt><trkpt lat="45.662913363358804" lon="3.029370960084001"><ele>742.2857142857142</ele><time>2026-03-22T14:38:49.999Z</time></trkpt><trkpt lat="45.66294006187604" lon="3.02946937850172"><ele>743.4285714285713</ele><time>2026-03-22T14:38:51.999Z</time></trkpt><trkpt lat="45.662937941057486" lon="3.0295726580742577"><ele>744.5714285714286</ele><time>2026-03-22T14:38:53.999Z</time></trkpt><trkpt lat="45.66293574337996" lon="3.029675958019796"><ele>745.7142857142858</ele><time>2026-03-22T14:38:55.999Z</time></trkpt><trkpt lat="45.66293913336053" lon="3.0297683467161605"><ele>746.8571428571428</ele><time>2026-03-22T14:38:57.999Z</time></trkpt><trkpt lat="45.662953040852514" lon="3.0298909712098574"><ele>748.0</ele><time>2026-03-22T14:39:00.999Z</time></trkpt><trkpt lat="45.66300176575026" lon="3.0299858246781937"><ele>748.0</ele><time>2026-03-22T14:39:03.999Z</time></trkpt><trkpt lat="45.66304606994562" lon="3.0300573861959914"><ele>748.0</ele><time>2026-03-22T14:39:05.999Z</time></trkpt><trkpt lat="45.66309317221775" lon="3.0301451223266884"><ele>748.0</ele><time>2026-03-22T14:39:07.999Z</time></trkpt><trkpt lat="45.66313631778288" lon="3.030240083152952"><ele>748.0</ele><time>2026-03-22T14:39:09.999Z</time></trkpt><trkpt lat="45.66316689663138" lon="3.0303467916270077"><ele>748.0</ele><time>2026-03-22T14:39:11.999Z</time></trkpt><trkpt lat="45.663186556725464" lon="3.0304573032786455"><ele>748.0</ele><time>2026-03-22T14:39:13.999Z</time></trkpt><trkpt lat="45.66320600123524" lon="3.0305621273771384"><ele>748.0</ele><time>2026-03-22T14:39:15.999Z</time></trkpt><trkpt lat="45.66324242975913" lon="3.0306542680202435"><ele>748.0</ele><time>2026-03-22T14:39:17.999Z</time></trkpt><trkpt lat="45.66329193400615" lon="3.0307421407713275"><ele>748.0</ele><time>2026-03-22T14:39:19.999Z</time></trkpt><trkpt lat="45.66333991619894" lon="3.0308426888182165"><ele>748.0</ele><time>2026-03-22T14:39:21.999Z</time></trkpt><trkpt lat="45.66336736733038" lon="3.030957250825168"><ele>748.0</ele><time>2026-03-22T14:39:23.999Z</time></trkpt><trkpt lat="45.663371083795674" lon="3.031082620514973"><ele>748.0</ele><time>2026-03-22T14:39:25.999Z</time></trkpt><trkpt lat="45.66336067714652" lon="3.0312113327643924"><ele>747.1666666666667</ele><time>2026-03-22T14:39:27.999Z</time></trkpt><trkpt lat="45.663359479367756" lon="3.0313240989034917"><ele>746.3333333333334</ele><time>2026-03-22T14:39:29.999Z</time></trkpt><trkpt lat="45.66337965359028" lon="3.03142753669962"><ele>745.5</ele><time>2026-03-22T14:39:31.999Z</time></trkpt><trkpt lat="45.663411802456295" lon="3.0315286532414705"><ele>744.6666666666666</ele><time>2026-03-22T14:39:33.999Z</time></trkpt><trkpt lat="45.663446725594284" lon="3.0316383988363014"><ele>743.8333333333333</ele><time>2026-03-22T14:39:35.999Z</time></trkpt><trkpt lat="45.66347751522789" lon="3.0317522763865394"><ele>743.0</ele><time>2026-03-22T14:39:37.998Z</time></trkpt><trkpt lat="45.66351644134964" lon="3.0318581055138174"><ele>742.5714285714286</ele><time>2026-03-22T14:39:39.998Z</time></trkpt><trkpt lat="45.663569385745035" lon="3.031934758499195"><ele>742.1428571428571</ele><time>2026-03-22T14:39:41.998Z</time></trkpt><trkpt lat="45.66362630671883" lon="3.032003034415584"><ele>741.7142857142857</ele><time>2026-03-22T14:39:43.998Z</time></trkpt><trkpt lat="45.663666062869964" lon="3.032084471238459"><ele>741.2857142857142</ele><time>2026-03-22T14:39:45.998Z</time></trkpt><trkpt lat="45.663683500337996" lon="3.032183381363767"><ele>740.8571428571429</ele><time>2026-03-22T14:39:47.998Z</time></trkpt><trkpt lat="45.66368610680346" lon="3.032290879679418"><ele>740.4285714285713</ele><time>2026-03-22T14:39:49.998Z</time></trkpt><trkpt lat="45.663660658994665" lon="3.0323874942543445"><ele>740.0</ele><time>2026-03-22T14:39:52Z</time></trkpt><trkpt lat="45.66363034597762" lon="3.032468593219619"><ele>741.4285714285713</ele><time>2026-03-22T14:39:54Z</time></trkpt><trkpt lat="45.66362410512055" lon="3.0325591415954207"><ele>742.8571428571429</ele><time>2026-03-22T14:39:56Z</time></trkpt><trkpt lat="45.66365693131506" lon="3.032654435713597"><ele>744.2857142857142</ele><time>2026-03-22T14:39:58Z</time></trkpt><trkpt lat="45.663717375449586" lon="3.03272873770417"><ele>745.7142857142857</ele><time>2026-03-22T14:40:00Z</time></trkpt><trkpt lat="45.663779964962224" lon="3.0327991594370403"><ele>747.1428571428571</ele><time>2026-03-22T14:40:02Z</time></trkpt><trkpt lat="45.663826272475596" lon="3.0328684499863257"><ele>748.5714285714286</ele><time>2026-03-22T14:40:04Z</time></trkpt><trkpt lat="45.663874655121525" lon="3.0329557444478876"><ele>750.0</ele><time>2026-03-22T14:40:06Z</time></trkpt><trkpt lat="45.66391598694129" lon="3.03304597849149"><ele>750.0</ele><time>2026-03-22T14:40:08Z</time></trkpt><trkpt lat="45.66396507917168" lon="3.0331297469043723"><ele>750.0</ele><time>2026-03-22T14:40:10Z</time></trkpt><trkpt lat="45.663994922502894" lon="3.0332416786309992"><ele>750.0</ele><time>2026-03-22T14:40:12Z</time></trkpt><trkpt lat="45.663996721229964" lon="3.0333476516737403"><ele>750.0</ele><time>2026-03-22T14:40:14Z</time></trkpt><trkpt lat="45.66397854004927" lon="3.033452140942378"><ele>750.0</ele><time>2026-03-22T14:40:16Z</time></trkpt><trkpt lat="45.663956815578366" lon="3.0335621016983314"><ele>750.0</ele><time>2026-03-22T14:40:18Z</time></trkpt><trkpt lat="45.6639447080858" lon="3.0336785909028237"><ele>749.6666666666666</ele><time>2026-03-22T14:40:20Z</time></trkpt><trkpt lat="45.663944434594285" lon="3.0337887446629312"><ele>749.3333333333334</ele><time>2026-03-22T14:40:22Z</time></trkpt><trkpt lat="45.66393653056507" lon="3.0339032225223557"><ele>749.0</ele><time>2026-03-22T14:40:24Z</time></trkpt><trkpt lat="45.66390529824015" lon="3.0340062574314204"><ele>748.6666666666667</ele><time>2026-03-22T14:40:26Z</time></trkpt><trkpt lat="45.66387320623107" lon="3.0341055494143316"><ele>748.3333333333334</ele><time>2026-03-22T14:40:27.999Z</time></trkpt><trkpt lat="45.66384230699208" lon="3.034215683273269"><ele>748.0</ele><time>2026-03-22T14:40:29.999Z</time></trkpt><trkpt lat="45.66380420667047" lon="3.0343258806116498"><ele>747.8333333333334</ele><time>2026-03-22T14:40:31.999Z</time></trkpt><trkpt lat="45.66376754144374" lon="3.034429496292046"><ele>747.6666666666667</ele><time>2026-03-22T14:40:33.999Z</time></trkpt><trkpt lat="45.66373589330104" lon="3.0345206694393507"><ele>747.5</ele><time>2026-03-22T14:40:35.999Z</time></trkpt><trkpt lat="45.66369938958386" lon="3.0346295070624474"><ele>747.3333333333334</ele><time>2026-03-22T14:40:38.999Z</time></trkpt><trkpt lat="45.66366664649557" lon="3.03474605611045"><ele>747.1666666666666</ele><time>2026-03-22T14:40:41.999Z</time></trkpt><trkpt lat="45.66367275727878" lon="3.0348672193570003"><ele>747.0</ele><time>2026-03-22T14:40:44.999Z</time></trkpt><trkpt lat="45.66373475283446" lon="3.0349677888364845"><ele>746.6666666666666</ele><time>2026-03-22T14:40:47.999Z</time></trkpt><trkpt lat="45.66378736948102" lon="3.0350351827260376"><ele>746.3333333333334</ele><time>2026-03-22T14:40:49.999Z</time></trkpt><trkpt lat="45.663846501554985" lon="3.0350841448702472"><ele>746.0</ele><time>2026-03-22T14:40:51.999Z</time></trkpt><trkpt lat="45.66390927213652" lon="3.0351741477264196"><ele>745.6666666666667</ele><time>2026-03-22T14:40:54.999Z</time></trkpt><trkpt lat="45.663940683462435" lon="3.0352677715999774"><ele>745.3333333333334</ele><time>2026-03-22T14:40:57.999Z</time></trkpt><trkpt lat="45.663983958284064" lon="3.035360846353113"><ele>745.0</ele><time>2026-03-22T14:41:00.999Z</time></trkpt><trkpt lat="45.66404116720586" lon="3.0354642418170568"><ele>745.0</ele><time>2026-03-22T14:41:03.999Z</time></trkpt><trkpt lat="45.66407272155386" lon="3.035548298279031"><ele>745.0</ele><time>2026-03-22T14:41:05.999Z</time></trkpt><trkpt lat="45.66410354966926" lon="3.035648684484667"><ele>745.0</ele><time>2026-03-22T14:41:08.999Z</time></trkpt><trkpt lat="45.66412329092251" lon="3.035744509915538"><ele>745.0</ele><time>2026-03-22T14:41:11.999Z</time></trkpt><trkpt lat="45.66413920123757" lon="3.035832127933135"><ele>745.0</ele><time>2026-03-22T14:41:14.999Z</time></trkpt><trkpt lat="45.66415383204223" lon="3.0359475311066113"><ele>745.0</ele><time>2026-03-22T14:41:17.999Z</time></trkpt><trkpt lat="45.664156028887994" lon="3.0360410687650266"><ele>745.0</ele><time>2026-03-22T14:41:19.999Z</time></trkpt><trkpt lat="45.66416678765816" lon="3.0361356875349212"><ele>744.0</ele><time>2026-03-22T14:41:21.999Z</time></trkpt><trkpt lat="45.66418924686506" lon="3.03622213724232"><ele>743.0</ele><time>2026-03-22T14:41:23.999Z</time></trkpt><trkpt lat="45.66422654268917" lon="3.036295047291426"><ele>742.0</ele><time>2026-03-22T14:41:25.999Z</time></trkpt><trkpt lat="45.66429204587026" lon="3.0363774146305205"><ele>741.0</ele><time>2026-03-22T14:41:28.999Z</time></trkpt><trkpt lat="45.664319145900535" lon="3.0365052857235875"><ele>740.0</ele><time>2026-03-22T14:41:31.999Z</time></trkpt><trkpt lat="45.664349210654144" lon="3.0366156227212877"><ele>739.0</ele><time>2026-03-22T14:41:33.999Z</time></trkpt><trkpt lat="45.66438484447004" lon="3.036720208668155"><ele>738.0</ele><time>2026-03-22T14:41:35.999Z</time></trkpt><trkpt lat="45.66443446471861" lon="3.0368119893510523"><ele>737.0</ele><time>2026-03-22T14:41:37.998Z</time></trkpt><trkpt lat="45.66449074048645" lon="3.0369062694132714"><ele>736.0</ele><time>2026-03-22T14:41:39.998Z</time></trkpt><trkpt lat="45.664544606112365" lon="3.036998651522537"><ele>735.0</ele><time>2026-03-22T14:41:41.998Z</time></trkpt><trkpt lat="45.6645953426279" lon="3.0370922793896895"><ele>734.0</ele><time>2026-03-22T14:41:43.998Z</time></trkpt><trkpt lat="45.66464368588699" lon="3.037192087182869"><ele>733.0</ele><time>2026-03-22T14:41:45.998Z</time></trkpt><trkpt lat="45.66468022545665" lon="3.037303601494085"><ele>735.3333333333334</ele><time>2026-03-22T14:41:47.998Z</time></trkpt><trkpt lat="45.664714652237826" lon="3.037418097237579"><ele>737.6666666666667</ele><time>2026-03-22T14:41:49.998Z</time></trkpt><trkpt lat="45.664740967420585" lon="3.0375207621872056"><ele>740.0</ele><time>2026-03-22T14:41:51.998Z</time></trkpt><trkpt lat="45.66476279703619" lon="3.037645000342932"><ele>742.3333333333334</ele><time>2026-03-22T14:41:54.998Z</time></trkpt><trkpt lat="45.664754991627156" lon="3.037741749359409"><ele>744.6666666666666</ele><time>2026-03-22T14:41:56.998Z</time></trkpt><trkpt lat="45.664745589311444" lon="3.0378577873873422"><ele>747.0</ele><time>2026-03-22T14:41:59Z</time></trkpt><trkpt lat="45.6647395121013" lon="3.037979137862662"><ele>747.0</ele><time>2026-03-22T14:42:01Z</time></trkpt><trkpt lat="45.66472532476086" lon="3.0380985114054107"><ele>747.0</ele><time>2026-03-22T14:42:03Z</time></trkpt><trkpt lat="45.66470048128621" lon="3.0382071746061396"><ele>747.0</ele><time>2026-03-22T14:42:05Z</time></trkpt><trkpt lat="45.664665520514845" lon="3.038304781120602"><ele>747.0</ele><time>2026-03-22T14:42:07Z</time></trkpt><trkpt lat="45.6646197626497" lon="3.0383985616122637"><ele>747.0</ele><time>2026-03-22T14:42:09Z</time></trkpt><trkpt lat="45.664562652859914" lon="3.038475209301005"><ele>747.0</ele><time>2026-03-22T14:42:11Z</time></trkpt><trkpt lat="45.66450140650529" lon="3.0385350861551736"><ele>746.1428571428571</ele><time>2026-03-22T14:42:13Z</time></trkpt><trkpt lat="45.66444787585808" lon="3.0385919470357785"><ele>745.2857142857142</ele><time>2026-03-22T14:42:15Z</time></trkpt><trkpt lat="45.66440781085601" lon="3.0387062364037627"><ele>744.4285714285713</ele><time>2026-03-22T14:42:18Z</time></trkpt><trkpt lat="45.66440713930358" lon="3.038798693559716"><ele>743.5714285714286</ele><time>2026-03-22T14:42:20Z</time></trkpt><trkpt lat="45.66441354007097" lon="3.0389075547573237"><ele>742.7142857142858</ele><time>2026-03-22T14:42:23Z</time></trkpt><trkpt lat="45.66442695450157" lon="3.039001386675474"><ele>741.8571428571428</ele><time>2026-03-22T14:42:26Z</time></trkpt><trkpt lat="45.66446253288496" lon="3.0391091046842593"><ele>741.0</ele><time>2026-03-22T14:42:29.999Z</time></trkpt><trkpt lat="45.664503043391846" lon="3.0391822112380527"><ele>740.1428571428571</ele><time>2026-03-22T14:42:32.999Z</time></trkpt><trkpt lat="45.664551880118935" lon="3.039268361514551"><ele>739.2857142857143</ele><time>2026-03-22T14:42:36.999Z</time></trkpt><trkpt lat="45.66460075288054" lon="3.0393407049511136"><ele>738.4285714285714</ele><time>2026-03-22T14:42:42.999Z</time></trkpt><trkpt lat="45.664645463049105" lon="3.0394045504949356"><ele>737.5714285714286</ele><time>2026-03-22T14:42:47.999Z</time></trkpt><trkpt lat="45.66470183154075" lon="3.0394752735835056"><ele>736.7142857142858</ele><time>2026-03-22T14:42:52.999Z</time></trkpt><trkpt lat="45.664763195654494" lon="3.0395450288013075"><ele>735.8571428571429</ele><time>2026-03-22T14:42:58.999Z</time></trkpt><trkpt lat="45.664833399783355" lon="3.0396049883782297"><ele>735.0</ele><time>2026-03-22T14:43:03.999Z</time></trkpt><trkpt lat="45.6648964794154" lon="3.0396752946812655"><ele>735.0</ele><time>2026-03-22T14:43:07.999Z</time></trkpt><trkpt lat="45.664959385982215" lon="3.0397327178154785"><ele>735.0</ele><time>2026-03-22T14:43:11.999Z</time></trkpt><trkpt lat="45.665032425640206" lon="3.0397884124557724"><ele>735.0</ele><time>2026-03-22T14:43:15.999Z</time></trkpt><trkpt lat="45.66509569441491" lon="3.039856908765167"><ele>735.0</ele><time>2026-03-22T14:43:19.999Z</time></trkpt><trkpt lat="45.66515514184106" lon="3.0399195664886487"><ele>735.0</ele><time>2026-03-22T14:43:23.999Z</time></trkpt><trkpt lat="45.66521752902306" lon="3.0399921584845995"><ele>735.0</ele><time>2026-03-22T14:43:27.999Z</time></trkpt><trkpt lat="45.66528921002905" lon="3.0400490522046426"><ele>732.7142857142857</ele><time>2026-03-22T14:43:31.999Z</time></trkpt><trkpt lat="45.66535139688157" lon="3.040063652737379"><ele>730.4285714285714</ele><time>2026-03-22T14:43:34.999Z</time></trkpt><trkpt lat="45.665414847947886" lon="3.0401030688078343"><ele>728.1428571428571</ele><time>2026-03-22T14:43:38.998Z</time></trkpt><trkpt lat="45.66543295026748" lon="3.0402074800923033"><ele>725.8571428571429</ele><time>2026-03-22T14:43:42.998Z</time></trkpt><trkpt lat="45.66541592901225" lon="3.0402972716565047"><ele>723.5714285714286</ele><time>2026-03-22T14:43:45.998Z</time></trkpt><trkpt lat="45.665397934424135" lon="3.040390526703842"><ele>721.2857142857142</ele><time>2026-03-22T14:43:48.998Z</time></trkpt><trkpt lat="45.665379188323676" lon="3.040483554101172"><ele>719.0</ele><time>2026-03-22T14:43:51.998Z</time></trkpt><trkpt lat="45.66536705683652" lon="3.040579359719591"><ele>718.9999999999999</ele><time>2026-03-22T14:43:54.998Z</time></trkpt><trkpt lat="45.66536501758478" lon="3.0406858101323806"><ele>719.0</ele><time>2026-03-22T14:43:57.998Z</time></trkpt><trkpt lat="45.665338547104874" lon="3.040776371441714"><ele>719.0</ele><time>2026-03-22T14:44:00.998Z</time></trkpt><trkpt lat="45.66530252796879" lon="3.0408574744522125"><ele>719.0</ele><time>2026-03-22T14:44:04Z</time></trkpt><trkpt lat="45.665271984366186" lon="3.0409560097789474"><ele>719.0</ele><time>2026-03-22T14:44:07Z</time></trkpt><trkpt lat="45.665244842693376" lon="3.0410635136149993"><ele>718.9999999999999</ele><time>2026-03-22T14:44:10Z</time></trkpt><trkpt lat="45.66522717076192" lon="3.0411753339527214"><ele>719.0</ele><time>2026-03-22T14:44:13Z</time></trkpt><trkpt lat="45.66520699554491" lon="3.041295068918526"><ele>718.1666666666666</ele><time>2026-03-22T14:44:16Z</time></trkpt><trkpt lat="45.6652037790675" lon="3.0413944798405277"><ele>717.3333333333333</ele><time>2026-03-22T14:44:19Z</time></trkpt><trkpt lat="45.66519422452293" lon="3.041499449880827"><ele>716.5</ele><time>2026-03-22T14:44:22Z</time></trkpt><trkpt lat="45.66515499703422" lon="3.0416102403882688"><ele>715.6666666666666</ele><time>2026-03-22T14:44:25Z</time></trkpt><trkpt lat="45.66511877125826" lon="3.041718573379174"><ele>714.8333333333334</ele><time>2026-03-22T14:44:27.999Z</time></trkpt><trkpt lat="45.66509545495344" lon="3.0418248963971926"><ele>714.0</ele><time>2026-03-22T14:44:30.999Z</time></trkpt><trkpt lat="45.6650583273448" lon="3.041925410129514"><ele>712.5</ele><time>2026-03-22T14:44:33.999Z</time></trkpt><trkpt lat="45.665037028748195" lon="3.042021443185414"><ele>711.0</ele><time>2026-03-22T14:44:36.999Z</time></trkpt><trkpt lat="45.66503035001146" lon="3.0421276547808582"><ele>709.5</ele><time>2026-03-22T14:44:39.999Z</time></trkpt><trkpt lat="45.665018082192866" lon="3.042236030926853"><ele>708.0</ele><time>2026-03-22T14:44:42.999Z</time></trkpt><trkpt lat="45.66500272421575" lon="3.0423488526952998"><ele>706.5</ele><time>2026-03-22T14:44:45.999Z</time></trkpt><trkpt lat="45.6650035015852" lon="3.0424604252853547"><ele>705.0</ele><time>2026-03-22T14:44:48.999Z</time></trkpt><trkpt lat="45.66501029809831" lon="3.04259652225004"><ele>703.6666666666666</ele><time>2026-03-22T14:44:51.999Z</time></trkpt><trkpt lat="45.665018227727806" lon="3.0426977832480464"><ele>702.3333333333334</ele><time>2026-03-22T14:44:53.999Z</time></trkpt><trkpt lat="45.66502388180915" lon="3.042805810906764"><ele>701.0</ele><time>2026-03-22T14:44:55.999Z</time></trkpt><trkpt lat="45.6650273880037" lon="3.042918869821466"><ele>699.6666666666667</ele><time>2026-03-22T14:44:57.999Z</time></trkpt><trkpt lat="45.66503942317791" lon="3.0430253606829205"><ele>698.3333333333334</ele><time>2026-03-22T14:44:59.999Z</time></trkpt><trkpt lat="45.66506822079178" lon="3.0431228015497562"><ele>697.0</ele><time>2026-03-22T14:45:01.999Z</time></trkpt><trkpt lat="45.66511588802072" lon="3.0432225298102398"><ele>696.8333333333334</ele><time>2026-03-22T14:45:04.999Z</time></trkpt><trkpt lat="45.665165326002885" lon="3.043316612905003"><ele>696.6666666666667</ele><time>2026-03-22T14:45:07.999Z</time></trkpt><trkpt lat="45.66520866694733" lon="3.043410203166303"><ele>696.5</ele><time>2026-03-22T14:45:10.999Z</time></trkpt><trkpt lat="45.66524033526044" lon="3.0435275937240664"><ele>696.3333333333334</ele><time>2026-03-22T14:45:13.999Z</time></trkpt><trkpt lat="45.66526529829904" lon="3.043624909257819"><ele>696.1666666666666</ele><time>2026-03-22T14:45:15.999Z</time></trkpt><trkpt lat="45.66530319492022" lon="3.0437202464073794"><ele>696.0</ele><time>2026-03-22T14:45:17.999Z</time></trkpt><trkpt lat="45.665333938629885" lon="3.0438141979736013"><ele>693.5714285714286</ele><time>2026-03-22T14:45:19.999Z</time></trkpt><trkpt lat="45.66536079144519" lon="3.043895983681331"><ele>691.1428571428571</ele><time>2026-03-22T14:45:21.999Z</time></trkpt><trkpt lat="45.665403529845086" lon="3.044013097410805"><ele>688.7142857142858</ele><time>2026-03-22T14:45:24.999Z</time></trkpt><trkpt lat="45.665432840729636" lon="3.044094648862217"><ele>686.2857142857142</ele><time>2026-03-22T14:45:26.999Z</time></trkpt><trkpt lat="45.66545945362145" lon="3.0441845067952364"><ele>683.8571428571429</ele><time>2026-03-22T14:45:28.999Z</time></trkpt><trkpt lat="45.665483349764855" lon="3.0442812114589737"><ele>681.4285714285714</ele><time>2026-03-22T14:45:30.999Z</time></trkpt><trkpt lat="45.66551996842578" lon="3.0443934883695745"><ele>679.0</ele><time>2026-03-22T14:45:33.999Z</time></trkpt><trkpt lat="45.665552825874315" lon="3.0445027710570196"><ele>679.0</ele><time>2026-03-22T14:45:36.999Z</time></trkpt><trkpt lat="45.66560353400407" lon="3.0445834422111275"><ele>679.0</ele><time>2026-03-22T14:45:39.998Z</time></trkpt><trkpt lat="45.66562226218789" lon="3.0446796912036755"><ele>679.0</ele><time>2026-03-22T14:45:43.998Z</time></trkpt><trkpt lat="45.66561865348396" lon="3.0447754711145567"><ele>679.0</ele><time>2026-03-22T14:45:47.998Z</time></trkpt><trkpt lat="45.66563253412622" lon="3.044886956935643"><ele>679.0</ele><time>2026-03-22T14:45:50.998Z</time></trkpt><trkpt lat="45.66564243929006" lon="3.045011922903552"><ele>679.0</ele><time>2026-03-22T14:45:53.998Z</time></trkpt><trkpt lat="45.66562376101108" lon="3.0451128353172745"><ele>679.2857142857143</ele><time>2026-03-22T14:45:55.998Z</time></trkpt><trkpt lat="45.665602382839126" lon="3.045211305808179"><ele>679.5714285714286</ele><time>2026-03-22T14:45:57.998Z</time></trkpt><trkpt lat="45.66558569008793" lon="3.045305637443136"><ele>679.8571428571429</ele><time>2026-03-22T14:45:59.998Z</time></trkpt><trkpt lat="45.66556946063695" lon="3.04540580147996"><ele>680.1428571428571</ele><time>2026-03-22T14:46:01.998Z</time></trkpt><trkpt lat="45.665554154518844" lon="3.0455047944770786"><ele>680.4285714285714</ele><time>2026-03-22T14:46:03.998Z</time></trkpt><trkpt lat="45.66554058962286" lon="3.045604213713735"><ele>680.7142857142858</ele><time>2026-03-22T14:46:05.998Z</time></trkpt><trkpt lat="45.66553034665744" lon="3.0457008258576086"><ele>681.0</ele><time>2026-03-22T14:46:07.998Z</time></trkpt><trkpt lat="45.66551052813774" lon="3.0457956094515555"><ele>680.0</ele><time>2026-03-22T14:46:10Z</time></trkpt><trkpt lat="45.66549130153046" lon="3.0458817491946526"><ele>679.0</ele><time>2026-03-22T14:46:12Z</time></trkpt><trkpt lat="45.66547360681003" lon="3.046010419780772"><ele>678.0</ele><time>2026-03-22T14:46:15Z</time></trkpt><trkpt lat="45.66547169631223" lon="3.0461425982824792"><ele>677.0</ele><time>2026-03-22T14:46:18Z</time></trkpt><trkpt lat="45.6654423275831" lon="3.046263235550157"><ele>676.0</ele><time>2026-03-22T14:46:21Z</time></trkpt><trkpt lat="45.66540268314967" lon="3.0463665277032317"><ele>675.0</ele><time>2026-03-22T14:46:24Z</time></trkpt><trkpt lat="45.66537821140216" lon="3.0464865036395756"><ele>675.0</ele><time>2026-03-22T14:46:26.999Z</time></trkpt><trkpt lat="45.665371982971834" lon="3.046576250574561"><ele>675.0</ele><time>2026-03-22T14:46:28.999Z</time></trkpt><trkpt lat="45.66536324050037" lon="3.0467016217862226"><ele>675.0</ele><time>2026-03-22T14:46:31.999Z</time></trkpt><trkpt lat="45.6653462070209" lon="3.046796729921709"><ele>675.0</ele><time>2026-03-22T14:46:34.999Z</time></trkpt><trkpt lat="45.665321358820705" lon="3.0468863668402504"><ele>675.0</ele><time>2026-03-22T14:46:39.999Z</time></trkpt><trkpt lat="45.665299520599426" lon="3.0469710590685652"><ele>675.0</ele><time>2026-03-22T14:46:44.999Z</time></trkpt><trkpt lat="45.665271983694836" lon="3.0470593441603615"><ele>675.0</ele><time>2026-03-22T14:46:49.999Z</time></trkpt><trkpt lat="45.6652463140161" lon="3.0471437758436375"><ele>673.6666666666666</ele><time>2026-03-22T14:46:57.999Z</time></trkpt><trkpt lat="45.66522370086983" lon="3.0472450901918133"><ele>672.3333333333334</ele><time>2026-03-22T14:47:04.999Z</time></trkpt><trkpt lat="45.665222963617055" lon="3.0473364838261636"><ele>671.0</ele><time>2026-03-22T14:47:08.999Z</time></trkpt><trkpt lat="45.66525176150303" lon="3.0474530827061"><ele>669.6666666666667</ele><time>2026-03-22T14:47:11.999Z</time></trkpt><trkpt lat="45.665289402106474" lon="3.047547946185627"><ele>668.3333333333334</ele><time>2026-03-22T14:47:13.999Z</time></trkpt><trkpt lat="45.66532782576474" lon="3.047648062733889"><ele>667.0</ele><time>2026-03-22T14:47:15.999Z</time></trkpt><trkpt lat="45.66536855557771" lon="3.0477502013057745"><ele>666.4285714285714</ele><time>2026-03-22T14:47:17.999Z</time></trkpt><trkpt lat="45.66540551724232" lon="3.047847706378817"><ele>665.8571428571429</ele><time>2026-03-22T14:47:19.999Z</time></trkpt><trkpt lat="45.6654404186154" lon="3.0479489702730564"><ele>665.2857142857142</ele><time>2026-03-22T14:47:21.999Z</time></trkpt><trkpt lat="45.6654767067401" lon="3.048054207378371"><ele>664.7142857142858</ele><time>2026-03-22T14:47:23.999Z</time></trkpt><trkpt lat="45.66550961785815" lon="3.0481472530149025"><ele>664.1428571428571</ele><time>2026-03-22T14:47:25.999Z</time></trkpt><trkpt lat="45.665539410840466" lon="3.048241669741994"><ele>663.5714285714286</ele><time>2026-03-22T14:47:27.999Z</time></trkpt><trkpt lat="45.66555616713908" lon="3.0483321495196574"><ele>663.0</ele><time>2026-03-22T14:47:29.999Z</time></trkpt><trkpt lat="45.66558090726883" lon="3.048425822854128"><ele>662.7142857142857</ele><time>2026-03-22T14:47:31.999Z</time></trkpt><trkpt lat="45.66560613640063" lon="3.0485217625317147"><ele>662.4285714285714</ele><time>2026-03-22T14:47:34.999Z</time></trkpt><trkpt lat="45.66564536277941" lon="3.048627226289173"><ele>662.1428571428571</ele><time>2026-03-22T14:47:37.998Z</time></trkpt><trkpt lat="45.66568129860775" lon="3.0487494786776277"><ele>661.8571428571429</ele><time>2026-03-22T14:47:40.998Z</time></trkpt><trkpt lat="45.6657142561703" lon="3.0488329165599235"><ele>661.5714285714286</ele><time>2026-03-22T14:47:42.998Z</time></trkpt><trkpt lat="45.66574124950756" lon="3.0489170733980813"><ele>661.2857142857142</ele><time>2026-03-22T14:47:44.998Z</time></trkpt><trkpt lat="45.665767868338605" lon="3.049001960226539"><ele>661.0</ele><time>2026-03-22T14:47:46.998Z</time></trkpt><trkpt lat="45.66579199402777" lon="3.049092489783153"><ele>661.3333333333334</ele><time>2026-03-22T14:47:48.998Z</time></trkpt><trkpt lat="45.66581707342144" lon="3.049180138963697"><ele>661.6666666666667</ele><time>2026-03-22T14:47:50.998Z</time></trkpt><trkpt lat="45.66584944746449" lon="3.0492598217738"><ele>662.0</ele><time>2026-03-22T14:47:52.998Z</time></trkpt><trkpt lat="45.66590131655462" lon="3.0493692018690424"><ele>662.3333333333334</ele><time>2026-03-22T14:47:55.998Z</time></trkpt><trkpt lat="45.66592419467221" lon="3.0494978129860977"><ele>662.6666666666666</ele><time>2026-03-22T14:47:58.998Z</time></trkpt><trkpt lat="45.66592219336349" lon="3.04962505052776"><ele>663.0</ele><time>2026-03-22T14:48:01.999Z</time></trkpt><trkpt lat="45.665945037846036" lon="3.0497566064518735"><ele>662.9999999999999</ele><time>2026-03-22T14:48:04.999Z</time></trkpt><trkpt lat="45.66596083788335" lon="3.049851081821265"><ele>663.0</ele><time>2026-03-22T14:48:06.999Z</time></trkpt><trkpt lat="45.66598248990787" lon="3.0499792892029114"><ele>663.0</ele><time>2026-03-22T14:48:09.999Z</time></trkpt><trkpt lat="45.66600346525771" lon="3.0500715629555373"><ele>663.0</ele><time>2026-03-22T14:48:11.999Z</time></trkpt><trkpt lat="45.666024173947505" lon="3.0501689009050104"><ele>663.0</ele><time>2026-03-22T14:48:13.999Z</time></trkpt><trkpt lat="45.6660562009173" lon="3.050259675761584"><ele>662.9999999999999</ele><time>2026-03-22T14:48:16Z</time></trkpt><trkpt lat="45.666097887401094" lon="3.05034480628636"><ele>663.0</ele><time>2026-03-22T14:48:18Z</time></trkpt><trkpt lat="45.666139370963336" lon="3.0504330148669427"><ele>660.5714285714286</ele><time>2026-03-22T14:48:20Z</time></trkpt><trkpt lat="45.66617313570427" lon="3.050519218132427"><ele>658.1428571428571</ele><time>2026-03-22T14:48:22Z</time></trkpt><trkpt lat="45.66620637564585" lon="3.0505988256833865"><ele>655.7142857142858</ele><time>2026-03-22T14:48:24Z</time></trkpt><trkpt lat="45.66624180279963" lon="3.050684206978795"><ele>653.2857142857142</ele><time>2026-03-22T14:48:26Z</time></trkpt><trkpt lat="45.66627625426076" lon="3.0507687002693875"><ele>650.8571428571429</ele><time>2026-03-22T14:48:28Z</time></trkpt><trkpt lat="45.66630885283392" lon="3.0508484749176894"><ele>648.4285714285714</ele><time>2026-03-22T14:48:30Z</time></trkpt><trkpt lat="45.66633477730909" lon="3.050933477480033"><ele>646.0</ele><time>2026-03-22T14:48:32Z</time></trkpt><trkpt lat="45.666375707034724" lon="3.0510406571759394"><ele>646.0</ele><time>2026-03-22T14:48:35Z</time></trkpt><trkpt lat="45.66642819527203" lon="3.051153871641773"><ele>646.0</ele><time>2026-03-22T14:48:38Z</time></trkpt><trkpt lat="45.66645997735689" lon="3.051236468910473"><ele>646.0</ele><time>2026-03-22T14:48:40Z</time></trkpt><trkpt lat="45.66648967509935" lon="3.0513197511458903"><ele>646.0</ele><time>2026-03-22T14:48:42Z</time></trkpt><trkpt lat="45.666525898202025" lon="3.0513944138342457"><ele>646.0</ele><time>2026-03-22T14:48:44Z</time></trkpt><trkpt lat="45.66658051990914" lon="3.051506050804461"><ele>646.0</ele><time>2026-03-22T14:48:47Z</time></trkpt><trkpt lat="45.66660932547702" lon="3.0515923896632686"><ele>645.1428571428572</ele><time>2026-03-22T14:48:49Z</time></trkpt><trkpt lat="45.66663200073794" lon="3.0516808710088195"><ele>644.2857142857143</ele><time>2026-03-22T14:48:51Z</time></trkpt><trkpt lat="45.66665124302022" lon="3.051778997775428"><ele>643.4285714285714</ele><time>2026-03-22T14:48:53Z</time></trkpt><trkpt lat="45.66667063805611" lon="3.051883333666352"><ele>642.5714285714287</ele><time>2026-03-22T14:48:55Z</time></trkpt><trkpt lat="45.66668791022361" lon="3.0519839791928782"><ele>641.7142857142858</ele><time>2026-03-22T14:48:57Z</time></trkpt><trkpt lat="45.666700669805145" lon="3.0520810237699862"><ele>640.8571428571429</ele><time>2026-03-22T14:48:59Z</time></trkpt><trkpt lat="45.66671656937755" lon="3.0521724829621686"><ele>640.0</ele><time>2026-03-22T14:49:01Z</time></trkpt><trkpt lat="45.66672750283746" lon="3.052262539481212"><ele>640.0</ele><time>2026-03-22T14:49:03Z</time></trkpt><trkpt lat="45.66673214432901" lon="3.052356870679087"><ele>640.0</ele><time>2026-03-22T14:49:05Z</time></trkpt><trkpt lat="45.66673966572889" lon="3.052485033939897"><ele>640.0</ele><time>2026-03-22T14:49:08Z</time></trkpt><trkpt lat="45.66675255670266" lon="3.0525776149475385"><ele>640.0</ele><time>2026-03-22T14:49:10Z</time></trkpt><trkpt lat="45.66676550222298" lon="3.0526782718357848"><ele>640.0</ele><time>2026-03-22T14:49:12Z</time></trkpt><trkpt lat="45.6667764442088" lon="3.052779356732995"><ele>640.0</ele><time>2026-03-22T14:49:14Z</time></trkpt><trkpt lat="45.66678054987237" lon="3.052879884184579"><ele>640.0</ele><time>2026-03-22T14:49:16Z</time></trkpt><trkpt lat="45.666788879681754" lon="3.0529703443042266"><ele>638.8333333333334</ele><time>2026-03-22T14:49:18Z</time></trkpt><trkpt lat="45.666797012636366" lon="3.0530941676908565"><ele>637.6666666666667</ele><time>2026-03-22T14:49:21Z</time></trkpt><trkpt lat="45.66679957378162" lon="3.053205909629277"><ele>636.5</ele><time>2026-03-22T14:49:24Z</time></trkpt><trkpt lat="45.666806706075604" lon="3.053328503354087"><ele>635.3333333333334</ele><time>2026-03-22T14:49:27Z</time></trkpt><trkpt lat="45.666823702500096" lon="3.053436347457191"><ele>634.1666666666666</ele><time>2026-03-22T14:49:29.999Z</time></trkpt><trkpt lat="45.666861622618924" lon="3.0535441085974258"><ele>633.0</ele><time>2026-03-22T14:49:33.999Z</time></trkpt><trkpt lat="45.66692895343946" lon="3.0536420933032726"><ele>630.5714285714286</ele><time>2026-03-22T14:49:36.999Z</time></trkpt><trkpt lat="45.66698002991057" lon="3.0537166257314063"><ele>628.1428571428571</ele><time>2026-03-22T14:49:38.999Z</time></trkpt><trkpt lat="45.66702499003666" lon="3.0537902730523596"><ele>625.7142857142858</ele><time>2026-03-22T14:49:40.999Z</time></trkpt><trkpt lat="45.6670731370896" lon="3.0538715880960168"><ele>623.2857142857142</ele><time>2026-03-22T14:49:42.999Z</time></trkpt><trkpt lat="45.6671221268611" lon="3.0539528615872484"><ele>620.8571428571429</ele><time>2026-03-22T14:49:44.999Z</time></trkpt><trkpt lat="45.66717037250837" lon="3.0540200861660063"><ele>618.4285714285714</ele><time>2026-03-22T14:49:46.999Z</time></trkpt><trkpt lat="45.66721268109496" lon="3.0540912342273683"><ele>616.0</ele><time>2026-03-22T14:49:48.999Z</time></trkpt><trkpt lat="45.66725541280742" lon="3.0541772012235135"><ele>615.5</ele><time>2026-03-22T14:49:50.999Z</time></trkpt><trkpt lat="45.66729678650582" lon="3.054274366390162"><ele>615.0</ele><time>2026-03-22T14:49:52.999Z</time></trkpt><trkpt lat="45.66734606060489" lon="3.054345016560947"><ele>614.5</ele><time>2026-03-22T14:49:54.999Z</time></trkpt><trkpt lat="45.6674189749595" lon="3.0543895994162713"><ele>614.0</ele><time>2026-03-22T14:49:57.999Z</time></trkpt><trkpt lat="45.66749739734953" lon="3.054425964180927"><ele>613.5</ele><time>2026-03-22T14:50:01.999Z</time></trkpt><trkpt lat="45.66756973056171" lon="3.0544866234623225"><ele>613.0</ele><time>2026-03-22T14:50:05.999Z</time></trkpt><trkpt lat="45.66764570007125" lon="3.0545390461699977"><ele>613.0</ele><time>2026-03-22T14:50:09.999Z</time></trkpt><trkpt lat="45.66771426278264" lon="3.0545768020601556"><ele>613.0</ele><time>2026-03-22T14:50:12.999Z</time></trkpt><trkpt lat="45.6677887597351" lon="3.0546149947818364"><ele>613.0</ele><time>2026-03-22T14:50:15.999Z</time></trkpt><trkpt lat="45.66785629768044" lon="3.054657152156601"><ele>613.0</ele><time>2026-03-22T14:50:18.999Z</time></trkpt><trkpt lat="45.6679459072138" lon="3.0546928800921096"><ele>613.0</ele><time>2026-03-22T14:50:22Z</time></trkpt><trkpt lat="45.668013296793255" lon="3.0547264098420364"><ele>613.0</ele><time>2026-03-22T14:50:24Z</time></trkpt><trkpt lat="45.6680759471781" lon="3.0547632310585606"><ele>612.1428571428571</ele><time>2026-03-22T14:50:26Z</time></trkpt><trkpt lat="45.668134385996005" lon="3.0547993729946197"><ele>611.2857142857142</ele><time>2026-03-22T14:50:28Z</time></trkpt><trkpt lat="45.66819465166679" lon="3.0548316925310823"><ele>610.4285714285713</ele><time>2026-03-22T14:50:30Z</time></trkpt><trkpt lat="45.66826358792622" lon="3.0548436552047717"><ele>609.5714285714286</ele><time>2026-03-22T14:50:32Z</time></trkpt><trkpt lat="45.668335424768294" lon="3.054841114150308"><ele>608.7142857142857</ele><time>2026-03-22T14:50:34Z</time></trkpt><trkpt lat="45.66840508323771" lon="3.0548290043629023"><ele>607.8571428571428</ele><time>2026-03-22T14:50:36Z</time></trkpt><trkpt lat="45.668479120162445" lon="3.054829930444777"><ele>607.0</ele><time>2026-03-22T14:50:38Z</time></trkpt><trkpt lat="45.668556160770954" lon="3.0548526655255523"><ele>606.7142857142857</ele><time>2026-03-22T14:50:40Z</time></trkpt><trkpt lat="45.66862584844792" lon="3.054886180365429"><ele>606.4285714285714</ele><time>2026-03-22T14:50:42Z</time></trkpt><trkpt lat="45.668693955290216" lon="3.0549255869491234"><ele>606.1428571428571</ele><time>2026-03-22T14:50:44Z</time></trkpt><trkpt lat="45.66876507524453" lon="3.054951021545292"><ele>605.8571428571429</ele><time>2026-03-22T14:50:46Z</time></trkpt><trkpt lat="45.6688395643766" lon="3.054945184000751"><ele>605.5714285714286</ele><time>2026-03-22T14:50:48Z</time></trkpt><trkpt lat="45.668915920884764" lon="3.0549371790779873"><ele>605.2857142857142</ele><time>2026-03-22T14:50:50Z</time></trkpt><trkpt lat="45.668992081892135" lon="3.0549577417630736"><ele>605.0</ele><time>2026-03-22T14:50:52Z</time></trkpt><trkpt lat="45.669056912520006" lon="3.0550152648074147"><ele>604.6</ele><time>2026-03-22T14:50:54Z</time></trkpt><trkpt lat="45.66910684859504" lon="3.055114320546803"><ele>604.2</ele><time>2026-03-22T14:50:56Z</time></trkpt><trkpt lat="45.66913943869069" lon="3.0552221959017363"><ele>603.8</ele><time>2026-03-22T14:50:58Z</time></trkpt><trkpt lat="45.66917409369562" lon="3.055343898940075"><ele>603.4</ele><time>2026-03-22T14:51:00Z</time></trkpt><trkpt lat="45.66921024288886" lon="3.0554851382581143"><ele>603.0</ele><time>2026-03-22T14:51:02Z</time></trkpt><trkpt lat="45.66924884032519" lon="3.055631432944032"><ele>603.0</ele><time>2026-03-22T14:51:04Z</time></trkpt><trkpt lat="45.66928388633212" lon="3.0557806988434435"><ele>603.0</ele><time>2026-03-22T14:51:06Z</time></trkpt><trkpt lat="45.669316549363344" lon="3.055931866236013"><ele>603.0</ele><time>2026-03-22T14:51:08Z</time></trkpt><trkpt lat="45.66933210755742" lon="3.0560697368662333"><ele>603.0</ele><time>2026-03-22T14:51:10Z</time></trkpt><trkpt lat="45.6693405799822" lon="3.0561827454162867"><ele>603.0</ele><time>2026-03-22T14:51:12Z</time></trkpt><trkpt lat="45.66938713383246" lon="3.056283559741683"><ele>602.8333333333334</ele><time>2026-03-22T14:51:14Z</time></trkpt><trkpt lat="45.66943393664964" lon="3.0563856081213063"><ele>602.6666666666666</ele><time>2026-03-22T14:51:16Z</time></trkpt><trkpt lat="45.669480728329845" lon="3.056479795659975"><ele>602.5</ele><time>2026-03-22T14:51:18Z</time></trkpt><trkpt lat="45.66952648617857" lon="3.0565811999862875"><ele>602.3333333333333</ele><time>2026-03-22T14:51:20Z</time></trkpt><trkpt lat="45.66957038751134" lon="3.056683230313908"><ele>602.1666666666666</ele><time>2026-03-22T14:51:22Z</time></trkpt><trkpt lat="45.66961668834753" lon="3.0567929265453953"><ele>602.0</ele><time>2026-03-22T14:51:24Z</time></trkpt><trkpt lat="45.66967239793414" lon="3.0569019095636074"><ele>602.3333333333333</ele><time>2026-03-22T14:51:26Z</time></trkpt><trkpt lat="45.66974504652195" lon="3.0569872459376253"><ele>602.6666666666666</ele><time>2026-03-22T14:51:28Z</time></trkpt><trkpt lat="45.66982105578019" lon="3.0570546859857504"><ele>603.0</ele><time>2026-03-22T14:51:30Z</time></trkpt><trkpt lat="45.66989436143183" lon="3.057109369167873"><ele>603.3333333333334</ele><time>2026-03-22T14:51:32Z</time></trkpt><trkpt lat="45.669966570272216" lon="3.057161130907641"><ele>603.6666666666667</ele><time>2026-03-22T14:51:34Z</time></trkpt><trkpt lat="45.67003379318913" lon="3.0572172223234526"><ele>604.0</ele><time>2026-03-22T14:51:36Z</time></trkpt><trkpt lat="45.67008956110623" lon="3.0572646450368004"><ele>604.0000000000001</ele><time>2026-03-22T14:53:27Z</time></trkpt><trkpt lat="45.67014486529262" lon="3.057333229280101"><ele>604.0</ele><time>2026-03-22T14:53:31.999Z</time></trkpt><trkpt lat="45.67020437552653" lon="3.0573850275257963"><ele>604.0</ele><time>2026-03-22T14:53:36.999Z</time></trkpt><trkpt lat="45.670266553383634" lon="3.057436690407869"><ele>604.0</ele><time>2026-03-22T14:53:41.999Z</time></trkpt><trkpt lat="45.670324065805474" lon="3.0574992952768953"><ele>604.0</ele><time>2026-03-22T14:53:45.999Z</time></trkpt><trkpt lat="45.6703866921507" lon="3.057554213363628"><ele>604.0000000000001</ele><time>2026-03-22T14:53:48.999Z</time></trkpt><trkpt lat="45.670456138185834" lon="3.0575985047874856"><ele>604.0</ele><time>2026-03-22T14:53:52.999Z</time></trkpt><trkpt lat="45.670522217435185" lon="3.0576453813413327"><ele>603.7142857142858</ele><time>2026-03-22T14:53:55.999Z</time></trkpt><trkpt lat="45.67059165566299" lon="3.057696811161784"><ele>603.4285714285714</ele><time>2026-03-22T14:53:59.999Z</time></trkpt><trkpt lat="45.67064991029495" lon="3.0577375575413135"><ele>603.1428571428571</ele><time>2026-03-22T14:54:02.999Z</time></trkpt><trkpt lat="45.67072013295814" lon="3.057784684500419"><ele>602.8571428571429</ele><time>2026-03-22T14:54:05.999Z</time></trkpt><trkpt lat="45.67078580378573" lon="3.057807359141564"><ele>602.5714285714286</ele><time>2026-03-22T14:54:07.999Z</time></trkpt><trkpt lat="45.67086114586708" lon="3.0578247655852375"><ele>602.2857142857143</ele><time>2026-03-22T14:54:09.999Z</time></trkpt><trkpt lat="45.67093338645274" lon="3.057850075626905"><ele>602.0</ele><time>2026-03-22T14:54:11.999Z</time></trkpt><trkpt lat="45.6710045647172" lon="3.057880323667725"><ele>602.0</ele><time>2026-03-22T14:54:13.999Z</time></trkpt><trkpt lat="45.67107579148858" lon="3.0579179900737214"><ele>602.0</ele><time>2026-03-22T14:54:15.999Z</time></trkpt><trkpt lat="45.6711468480364" lon="3.0579674332045133"><ele>602.0</ele><time>2026-03-22T14:54:17.999Z</time></trkpt><trkpt lat="45.67121318576074" lon="3.0580277184553593"><ele>602.0</ele><time>2026-03-22T14:54:19.999Z</time></trkpt><trkpt lat="45.67127503823874" lon="3.058090409879504"><ele>602.0</ele><time>2026-03-22T14:54:21.999Z</time></trkpt><trkpt lat="45.67133005569092" lon="3.0581622614775723"><ele>602.0</ele><time>2026-03-22T14:54:23.999Z</time></trkpt><trkpt lat="45.671385354969054" lon="3.058219378023412"><ele>602.7142857142857</ele><time>2026-03-22T14:54:25.999Z</time></trkpt><trkpt lat="45.67145405385956" lon="3.058249794746695"><ele>603.4285714285714</ele><time>2026-03-22T14:54:27.999Z</time></trkpt><trkpt lat="45.671529702032785" lon="3.058286207351324"><ele>604.1428571428571</ele><time>2026-03-22T14:54:29.999Z</time></trkpt><trkpt lat="45.671605854995796" lon="3.058317518168517"><ele>604.8571428571429</ele><time>2026-03-22T14:54:31.999Z</time></trkpt><trkpt lat="45.67167338396026" lon="3.0583551615605806"><ele>605.5714285714286</ele><time>2026-03-22T14:54:34Z</time></trkpt><trkpt lat="45.671738435235774" lon="3.0583886513306253"><ele>606.2857142857142</ele><time>2026-03-22T14:54:36Z</time></trkpt><trkpt lat="45.67180307131248" lon="3.058412006785255"><ele>607.0</ele><time>2026-03-22T14:54:38Z</time></trkpt><trkpt lat="45.671865099912104" lon="3.0584383288351744"><ele>606.9999999999999</ele><time>2026-03-22T14:54:40Z</time></trkpt><trkpt lat="45.671926140051276" lon="3.0584644928937803"><ele>607.0</ele><time>2026-03-22T14:54:42Z</time></trkpt><trkpt lat="45.67201175712058" lon="3.058502470990352"><ele>607.0</ele><time>2026-03-22T14:54:45Z</time></trkpt><trkpt lat="45.67210114742081" lon="3.058548444432418"><ele>607.0</ele><time>2026-03-22T14:54:48Z</time></trkpt><trkpt lat="45.672163772043554" lon="3.0585823242132437"><ele>607.0</ele><time>2026-03-22T14:54:50Z</time></trkpt><trkpt lat="45.67222643446724" lon="3.0586113861751736"><ele>606.9999999999999</ele><time>2026-03-22T14:54:52Z</time></trkpt><trkpt lat="45.672293577470334" lon="3.0586247063921053"><ele>607.0</ele><time>2026-03-22T14:54:54Z</time></trkpt><trkpt lat="45.6723622634593" lon="3.0586383063326172"><ele>607.8571428571428</ele><time>2026-03-22T14:54:56Z</time></trkpt><trkpt lat="45.67244018634652" lon="3.058655334618301"><ele>608.7142857142857</ele><time>2026-03-22T14:54:58Z</time></trkpt><trkpt lat="45.672515713971436" lon="3.058665156204085"><ele>609.5714285714286</ele><time>2026-03-22T14:55:00Z</time></trkpt><trkpt lat="45.6725905354574" lon="3.0586608364908523"><ele>610.4285714285713</ele><time>2026-03-22T14:55:02Z</time></trkpt><trkpt lat="45.67266381620054" lon="3.0586464359597954"><ele>611.2857142857142</ele><time>2026-03-22T14:55:04Z</time></trkpt><trkpt lat="45.67273222027919" lon="3.0586303616345685"><ele>612.1428571428571</ele><time>2026-03-22T14:55:06Z</time></trkpt><trkpt lat="45.67279762226841" lon="3.058614565833404"><ele>613.0</ele><time>2026-03-22T14:55:08Z</time></trkpt><trkpt lat="45.672864678063135" lon="3.0585953306743847"><ele>614.5714285714286</ele><time>2026-03-22T14:55:10Z</time></trkpt><trkpt lat="45.67293247745668" lon="3.05857438089613"><ele>616.1428571428571</ele><time>2026-03-22T14:55:12Z</time></trkpt><trkpt lat="45.67300320464674" lon="3.0585531915206072"><ele>617.7142857142858</ele><time>2026-03-22T14:55:14Z</time></trkpt><trkpt lat="45.67307428051438" lon="3.058536580340634"><ele>619.2857142857142</ele><time>2026-03-22T14:55:16Z</time></trkpt><trkpt lat="45.67314667699376" lon="3.058515506754626"><ele>620.8571428571428</ele><time>2026-03-22T14:55:18Z</time></trkpt><trkpt lat="45.67321643230301" lon="3.0584946972774243"><ele>622.4285714285714</ele><time>2026-03-22T14:55:20Z</time></trkpt><trkpt lat="45.67328377117956" lon="3.0584719248992935"><ele>624.0</ele><time>2026-03-22T14:55:22Z</time></trkpt><trkpt lat="45.67334698259013" lon="3.058444738799972"><ele>624.0</ele><time>2026-03-22T14:55:24Z</time></trkpt><trkpt lat="45.673424372819966" lon="3.058433101704705"><ele>624.0</ele><time>2026-03-22T14:55:27Z</time></trkpt><trkpt lat="45.673479463356635" lon="3.0585258678354075"><ele>624.0</ele><time>2026-03-22T14:55:30Z</time></trkpt><trkpt lat="45.6734857838003" lon="3.0586226119130875"><ele>624.0</ele><time>2026-03-22T14:55:32Z</time></trkpt><trkpt lat="45.67349957121058" lon="3.0587574200954912"><ele>624.0</ele><time>2026-03-22T14:55:34.999Z</time></trkpt><trkpt lat="45.67350929140758" lon="3.0588552047550635"><ele>624.0</ele><time>2026-03-22T14:55:36.999Z</time></trkpt><trkpt lat="45.67352054444586" lon="3.058962363848817"><ele>624.0</ele><time>2026-03-22T14:55:38.999Z</time></trkpt><trkpt lat="45.673528382129426" lon="3.0590762331586396"><ele>624.0</ele><time>2026-03-22T14:55:40.999Z</time></trkpt><trkpt lat="45.67353567729008" lon="3.0591897117709745"><ele>624.0</ele><time>2026-03-22T14:55:42.999Z</time></trkpt><trkpt lat="45.67354550430545" lon="3.0593246759126034"><ele>624.0</ele><time>2026-03-22T14:55:44.999Z</time></trkpt><trkpt lat="45.67355108668848" lon="3.059444222962563"><ele>624.0</ele><time>2026-03-22T14:55:46.999Z</time></trkpt><trkpt lat="45.673553342084354" lon="3.0595653793305675"><ele>624.0</ele><time>2026-03-22T14:55:48.999Z</time></trkpt><trkpt lat="45.673564025453956" lon="3.0596790688738276"><ele>624.3333333333334</ele><time>2026-03-22T14:55:50.999Z</time></trkpt><trkpt lat="45.673586756457645" lon="3.05977795273776"><ele>624.6666666666666</ele><time>2026-03-22T14:55:52.999Z</time></trkpt><trkpt lat="45.67364763247256" lon="3.0598789083017466"><ele>625.0</ele><time>2026-03-22T14:55:55.999Z</time></trkpt><trkpt lat="45.67370411718643" lon="3.0599447506089246"><ele>625.3333333333333</ele><time>2026-03-22T14:55:57.999Z</time></trkpt><trkpt lat="45.67377317693113" lon="3.0600057485084693"><ele>625.6666666666666</ele><time>2026-03-22T14:55:59.999Z</time></trkpt><trkpt lat="45.67385349633075" lon="3.0600665156627103"><ele>626.0</ele><time>2026-03-22T14:56:01.999Z</time></trkpt><trkpt lat="45.673932463275264" lon="3.060136277416025"><ele>628.0</ele><time>2026-03-22T14:56:03.999Z</time></trkpt><trkpt lat="45.67399812513284" lon="3.060202404126368"><ele>630.0</ele><time>2026-03-22T14:56:05.999Z</time></trkpt><trkpt lat="45.67406201911352" lon="3.0602667992097605"><ele>632.0</ele><time>2026-03-22T14:56:07.999Z</time></trkpt><trkpt lat="45.6741307084148" lon="3.0603296679376437"><ele>634.0</ele><time>2026-03-22T14:56:09.999Z</time></trkpt><trkpt lat="45.67420350086467" lon="3.060391396666971"><ele>636.0</ele><time>2026-03-22T14:56:11.999Z</time></trkpt><trkpt lat="45.674289544137345" lon="3.060442744711929"><ele>638.0</ele><time>2026-03-22T14:56:13.999Z</time></trkpt><trkpt lat="45.67437852059451" lon="3.0604929649324206"><ele>639.4</ele><time>2026-03-22T14:56:15.999Z</time></trkpt><trkpt lat="45.67447196624605" lon="3.0605527601819067"><ele>640.8</ele><time>2026-03-22T14:56:17.999Z</time></trkpt><trkpt lat="45.674535492829406" lon="3.0606720817016373"><ele>642.2</ele><time>2026-03-22T14:56:19.999Z</time></trkpt><trkpt lat="45.67460603835581" lon="3.060751540117866"><ele>643.6</ele><time>2026-03-22T14:56:21.999Z</time></trkpt><trkpt lat="45.674665043067336" lon="3.0608363848474136"><ele>645.0</ele><time>2026-03-22T14:56:23.999Z</time></trkpt><trkpt lat="45.67472312321508" lon="3.060937271005104"><ele>645.0</ele><time>2026-03-22T14:56:25.999Z</time></trkpt><trkpt lat="45.67477415732865" lon="3.06104308034499"><ele>645.0</ele><time>2026-03-22T14:56:27.999Z</time></trkpt><trkpt lat="45.674824334305356" lon="3.0611600120852036"><ele>645.0</ele><time>2026-03-22T14:56:29.999Z</time></trkpt><trkpt lat="45.674867772738125" lon="3.061277139145349"><ele>645.0</ele><time>2026-03-22T14:56:31.999Z</time></trkpt><trkpt lat="45.674909128941074" lon="3.061403848022465"><ele>645.0</ele><time>2026-03-22T14:56:33.999Z</time></trkpt><trkpt lat="45.67494517015887" lon="3.061531680524736"><ele>644.8</ele><time>2026-03-22T14:56:35.999Z</time></trkpt><trkpt lat="45.67498977947546" lon="3.0616450394812813"><ele>644.6</ele><time>2026-03-22T14:56:37.999Z</time></trkpt><trkpt lat="45.67500863149075" lon="3.0617756004277963"><ele>644.4000000000001</ele><time>2026-03-22T14:56:40Z</time></trkpt><trkpt lat="45.67505621948817" lon="3.061904412462713"><ele>644.2</ele><time>2026-03-22T14:56:42Z</time></trkpt><trkpt lat="45.67509776732829" lon="3.0620488701348427"><ele>644.0</ele><time>2026-03-22T14:56:44Z</time></trkpt><trkpt lat="45.67512643504881" lon="3.062208603912937"><ele>644.0</ele><time>2026-03-22T14:56:46Z</time></trkpt><trkpt lat="45.67516981947165" lon="3.0623601372951046"><ele>644.0</ele><time>2026-03-22T14:56:48Z</time></trkpt><trkpt lat="45.675212742143046" lon="3.062510057873042"><ele>644.0</ele><time>2026-03-22T14:56:50Z</time></trkpt><trkpt lat="45.67525009557574" lon="3.062650612573228"><ele>644.0</ele><time>2026-03-22T14:56:52Z</time></trkpt><trkpt lat="45.675281430820405" lon="3.0627994034452093"><ele>644.0</ele><time>2026-03-22T14:56:54Z</time></trkpt><trkpt lat="45.675322452781096" lon="3.0629721090780397"><ele>645.1666666666666</ele><time>2026-03-22T14:56:56Z</time></trkpt><trkpt lat="45.675326934336404" lon="3.0630738866302893"><ele>646.3333333333333</ele><time>2026-03-22T14:56:57Z</time></trkpt><trkpt lat="45.67532086411729" lon="3.0631777571694334"><ele>647.5</ele><time>2026-03-22T14:56:58Z</time></trkpt><trkpt lat="45.67532020288278" lon="3.063277353163809"><ele>648.6666666666666</ele><time>2026-03-22T14:56:59Z</time></trkpt><trkpt lat="45.67531804834028" lon="3.063377766291702"><ele>649.8333333333334</ele><time>2026-03-22T14:57:00Z</time></trkpt><trkpt lat="45.675332736329935" lon="3.0634775641452814"><ele>651.0</ele><time>2026-03-22T14:57:01Z</time></trkpt><trkpt lat="45.675329089938685" lon="3.0636691248036603"><ele>651.0</ele><time>2026-03-22T14:57:03Z</time></trkpt><trkpt lat="45.67533113246719" lon="3.063765778395507"><ele>651.0</ele><time>2026-03-22T14:57:04Z</time></trkpt><trkpt lat="45.67535672507538" lon="3.0638643776857704"><ele>651.0</ele><time>2026-03-22T14:57:05Z</time></trkpt><trkpt lat="45.67538692158492" lon="3.0639590014824467"><ele>651.0</ele><time>2026-03-22T14:57:06Z</time></trkpt><trkpt lat="45.675412568605054" lon="3.064054896820767"><ele>651.0</ele><time>2026-03-22T14:57:07Z</time></trkpt><trkpt lat="45.675424558506734" lon="3.0641581134436455"><ele>651.0</ele><time>2026-03-22T14:57:08Z</time></trkpt><trkpt lat="45.67544797417017" lon="3.064247143506947"><ele>651.0</ele><time>2026-03-22T14:57:09Z</time></trkpt><trkpt lat="45.675487504689386" lon="3.0643281621202973"><ele>651.5</ele><time>2026-03-22T14:57:10Z</time></trkpt><trkpt lat="45.67551627825147" lon="3.064412451214366"><ele>652.0</ele><time>2026-03-22T14:57:11Z</time></trkpt><trkpt lat="45.675542758501024" lon="3.0644960230719676"><ele>652.5</ele><time>2026-03-22T14:57:12Z</time></trkpt><trkpt lat="45.675598849800714" lon="3.0646552252295596"><ele>653.0</ele><time>2026-03-22T14:57:14Z</time></trkpt><trkpt lat="45.67565542765365" lon="3.0648134564436527"><ele>653.5</ele><time>2026-03-22T14:57:16Z</time></trkpt><trkpt lat="45.675667725840505" lon="3.06490437108554"><ele>654.0</ele><time>2026-03-22T14:57:17Z</time></trkpt><trkpt lat="45.675711531087444" lon="3.06506974511986"><ele>655.0</ele><time>2026-03-22T14:57:19Z</time></trkpt><trkpt lat="45.675758362046764" lon="3.0652389412187317"><ele>656.0</ele><time>2026-03-22T14:57:21Z</time></trkpt><trkpt lat="45.67577239642008" lon="3.0653268428878033"><ele>657.0</ele><time>2026-03-22T14:57:22Z</time></trkpt><trkpt lat="45.675795192894626" lon="3.0654943912033246"><ele>658.0</ele><time>2026-03-22T14:57:24Z</time></trkpt><trkpt lat="45.675792244335604" lon="3.0655858007333854"><ele>659.0</ele><time>2026-03-22T14:57:25Z</time></trkpt><trkpt lat="45.67581238111618" lon="3.0657553667469064"><ele>659.6666666666666</ele><time>2026-03-22T14:57:27Z</time></trkpt><trkpt lat="45.6758334300091" lon="3.0659326134376887"><ele>660.3333333333333</ele><time>2026-03-22T14:57:29Z</time></trkpt><trkpt lat="45.67586823134039" lon="3.066102703044752"><ele>661.0</ele><time>2026-03-22T14:57:31Z</time></trkpt><trkpt lat="45.67587748928349" lon="3.0661945658288006"><ele>661.6666666666666</ele><time>2026-03-22T14:57:32Z</time></trkpt><trkpt lat="45.675877216863285" lon="3.0662902370885456"><ele>662.3333333333334</ele><time>2026-03-22T14:57:33Z</time></trkpt><trkpt lat="45.675888963864494" lon="3.0663843669967132"><ele>663.0</ele><time>2026-03-22T14:57:34Z</time></trkpt><trkpt lat="45.67590056125146" lon="3.0664772980669532"><ele>663.0</ele><time>2026-03-22T14:57:35Z</time></trkpt><trkpt lat="45.67591230837534" lon="3.0665695500360184"><ele>663.0</ele><time>2026-03-22T14:57:36Z</time></trkpt><trkpt lat="45.675923973194166" lon="3.0666605549803396"><ele>663.0</ele><time>2026-03-22T14:57:37Z</time></trkpt><trkpt lat="45.675935603838674" lon="3.0667512933678815"><ele>663.0</ele><time>2026-03-22T14:57:37.999Z</time></trkpt><trkpt lat="45.67594697471564" lon="3.0668400051129483"><ele>663.0</ele><time>2026-03-22T14:57:38.999Z</time></trkpt><trkpt lat="45.67596893222462" lon="3.0670094493730744"><ele>663.0</ele><time>2026-03-22T14:57:40.999Z</time></trkpt><trkpt lat="45.67599155154739" lon="3.0671782532484335"><ele>663.5</ele><time>2026-03-22T14:57:42.999Z</time></trkpt><trkpt lat="45.6760303013176" lon="3.067346257493321"><ele>664.0</ele><time>2026-03-22T14:57:44.999Z</time></trkpt><trkpt lat="45.676048057123865" lon="3.0675164082495923"><ele>664.5</ele><time>2026-03-22T14:57:46.999Z</time></trkpt><trkpt lat="45.67607370250609" lon="3.0676763250605807"><ele>665.0</ele><time>2026-03-22T14:57:48.999Z</time></trkpt><trkpt lat="45.67609244166" lon="3.0678235385185784"><ele>667.0</ele><time>2026-03-22T14:57:50.999Z</time></trkpt><trkpt lat="45.67610830765815" lon="3.0679735044855128"><ele>669.0</ele><time>2026-03-22T14:57:52.999Z</time></trkpt><trkpt lat="45.67611604266737" lon="3.0681326295096785"><ele>671.0</ele><time>2026-03-22T14:57:54.999Z</time></trkpt><trkpt lat="45.67611930226987" lon="3.068297332906723"><ele>673.0</ele><time>2026-03-22T14:57:56.999Z</time></trkpt><trkpt lat="45.676121082458394" lon="3.0684551585404187"><ele>675.0</ele><time>2026-03-22T14:57:58.999Z</time></trkpt><trkpt lat="45.67612756546546" lon="3.068586108668832"><ele>675.0</ele><time>2026-03-22T14:58:00.999Z</time></trkpt><trkpt lat="45.67611414821357" lon="3.068687212971022"><ele>675.0</ele><time>2026-03-22T14:58:02.999Z</time></trkpt><trkpt lat="45.67622934065805" lon="3.0687395436241345"><ele>675.0</ele><time>2026-03-22T14:58:04.999Z</time></trkpt><trkpt lat="45.67633538645474" lon="3.0687465888595598"><ele>675.0</ele><time>2026-03-22T14:58:06.999Z</time></trkpt><trkpt lat="45.676452084145275" lon="3.0687343408671532"><ele>675.0</ele><time>2026-03-22T14:58:08.999Z</time></trkpt><trkpt lat="45.676569454698374" lon="3.068697220368969"><ele>675.0</ele><time>2026-03-22T14:58:10.999Z</time></trkpt><trkpt lat="45.67669103884054" lon="3.0686806142999163"><ele>675.0</ele><time>2026-03-22T14:58:12.999Z</time></trkpt><trkpt lat="45.67681083320668" lon="3.0686528137464983"><ele>675.0</ele><time>2026-03-22T14:58:14.999Z</time></trkpt><trkpt lat="45.67692841386046" lon="3.068621135000459"><ele>675.0</ele><time>2026-03-22T14:58:16.999Z</time></trkpt><trkpt lat="45.67704689850453" lon="3.0685984824183845"><ele>675.0</ele><time>2026-03-22T14:58:18.999Z</time></trkpt><trkpt lat="45.67716645932959" lon="3.068559185372811"><ele>675.0</ele><time>2026-03-22T14:58:20.999Z</time></trkpt><trkpt lat="45.677227694581624" lon="3.068535180727704"><ele>675.0</ele><time>2026-03-22T14:58:21.999Z</time></trkpt><trkpt lat="45.67729185125422" lon="3.0685102823288046"><ele>675.0</ele><time>2026-03-22T14:58:22.999Z</time></trkpt><trkpt lat="45.67735619056407" lon="3.0684885445332846"><ele>675.0</ele><time>2026-03-22T14:58:23.999Z</time></trkpt><trkpt lat="45.677423663499425" lon="3.0684912256111714"><ele>675.0</ele><time>2026-03-22T14:58:24.999Z</time></trkpt><trkpt lat="45.67748798198707" lon="3.0684619860576077"><ele>675.0</ele><time>2026-03-22T14:58:25.999Z</time></trkpt><trkpt lat="45.677551771205174" lon="3.0684502013743837"><ele>675.0</ele><time>2026-03-22T14:58:26.999Z</time></trkpt><trkpt lat="45.67761465596834" lon="3.0684648588363563"><ele>675.0</ele><time>2026-03-22T14:58:27.999Z</time></trkpt><trkpt lat="45.67773325283205" lon="3.068450134430076"><ele>675.0</ele><time>2026-03-22T14:58:29.999Z</time></trkpt><trkpt lat="45.67783067788204" lon="3.06843803861486"><ele>675.0</ele><time>2026-03-22T14:58:31.999Z</time></trkpt><trkpt lat="45.677924024308865" lon="3.0684051646985497"><ele>675.0</ele><time>2026-03-22T14:58:33.999Z</time></trkpt><trkpt lat="45.67802371681688" lon="3.0683899170594375"><ele>674.8</ele><time>2026-03-22T14:58:35.999Z</time></trkpt><trkpt lat="45.67812583667101" lon="3.068371098059807"><ele>674.6</ele><time>2026-03-22T14:58:37.999Z</time></trkpt><trkpt lat="45.6782298856819" lon="3.0683740102136032"><ele>674.4000000000001</ele><time>2026-03-22T14:58:39.999Z</time></trkpt><trkpt lat="45.67832920176593" lon="3.0683594573866984"><ele>674.2</ele><time>2026-03-22T14:58:41.999Z</time></trkpt><trkpt lat="45.678417025738106" lon="3.068329556180645"><ele>674.0</ele><time>2026-03-22T14:58:43.999Z</time></trkpt><trkpt lat="45.678517566721354" lon="3.068320327056421"><ele>675.0</ele><time>2026-03-22T14:58:46Z</time></trkpt><trkpt lat="45.67863350069851" lon="3.0683146324092347"><ele>676.0</ele><time>2026-03-22T14:58:48Z</time></trkpt><trkpt lat="45.67874925903084" lon="3.0683185653007277"><ele>677.0</ele><time>2026-03-22T14:58:50Z</time></trkpt><trkpt lat="45.67886244875933" lon="3.06834920222729"><ele>678.0</ele><time>2026-03-22T14:58:52Z</time></trkpt><trkpt lat="45.67897987877081" lon="3.068342382269314"><ele>678.0</ele><time>2026-03-22T14:58:54Z</time></trkpt><trkpt lat="45.67909461617376" lon="3.068399624897608"><ele>678.0</ele><time>2026-03-22T14:58:56Z</time></trkpt><trkpt lat="45.679197139751565" lon="3.0684443686138936"><ele>678.0</ele><time>2026-03-22T14:58:58Z</time></trkpt><trkpt lat="45.67926116526194" lon="3.0684782689805035"><ele>678.0</ele><time>2026-03-22T14:59:00Z</time></trkpt><trkpt lat="45.679338902687476" lon="3.06849349625689"><ele>678.0</ele><time>2026-03-22T14:59:02Z</time></trkpt><trkpt lat="45.679423476849585" lon="3.068537637912806"><ele>679.1666666666666</ele><time>2026-03-22T14:59:04Z</time></trkpt><trkpt lat="45.67951743206095" lon="3.0685729688157597"><ele>680.3333333333334</ele><time>2026-03-22T14:59:06Z</time></trkpt><trkpt lat="45.67960395238054" lon="3.068615425223515"><ele>681.5</ele><time>2026-03-22T14:59:08Z</time></trkpt><trkpt lat="45.679688460841135" lon="3.068613910287065"><ele>682.6666666666667</ele><time>2026-03-22T14:59:10Z</time></trkpt><trkpt lat="45.679769368130316" lon="3.068656209123099"><ele>683.8333333333334</ele><time>2026-03-22T14:59:12Z</time></trkpt><trkpt lat="45.679855537464086" lon="3.0686524718916166"><ele>685.0</ele><time>2026-03-22T14:59:14Z</time></trkpt><trkpt lat="45.67992292288784" lon="3.068670384503902"><ele>685.0</ele><time>2026-03-22T14:59:16Z</time></trkpt><trkpt lat="45.67999169072199" lon="3.0686856385782826"><ele>685.0</ele><time>2026-03-22T14:59:19Z</time></trkpt><trkpt lat="45.68006815442227" lon="3.0686923637114525"><ele>685.0</ele><time>2026-03-22T14:59:22Z</time></trkpt><trkpt lat="45.68013277822288" lon="3.068698907692004"><ele>685.0</ele><time>2026-03-22T14:59:24Z</time></trkpt><trkpt lat="45.680199571580616" lon="3.0687023739837986"><ele>685.0</ele><time>2026-03-22T14:59:26Z</time></trkpt><trkpt lat="45.68028820778419" lon="3.068701065575988"><ele>685.0</ele><time>2026-03-22T14:59:29Z</time></trkpt><trkpt lat="45.680357242155985" lon="3.0686885985446417"><ele>685.0</ele><time>2026-03-22T14:59:32Z</time></trkpt><trkpt lat="45.68042178577067" lon="3.068688549214488"><ele>686.4285714285714</ele><time>2026-03-22T14:59:35Z</time></trkpt><trkpt lat="45.6804904308494" lon="3.0686809698098028"><ele>687.8571428571429</ele><time>2026-03-22T14:59:38Z</time></trkpt><trkpt lat="45.68055457077428" lon="3.0686653825670476"><ele>689.2857142857143</ele><time>2026-03-22T14:59:41Z</time></trkpt><trkpt lat="45.68063399277983" lon="3.0686918731649557"><ele>690.7142857142858</ele><time>2026-03-22T14:59:45Z</time></trkpt><trkpt lat="45.68071485744227" lon="3.0687023387864794"><ele>692.1428571428571</ele><time>2026-03-22T14:59:49Z</time></trkpt><trkpt lat="45.680779124399066" lon="3.0687235844751575"><ele>693.5714285714287</ele><time>2026-03-22T14:59:51.999Z</time></trkpt><trkpt lat="45.68084439116177" lon="3.0687445762115555"><ele>695.0</ele><time>2026-03-22T14:59:54.999Z</time></trkpt><trkpt lat="45.68091222163698" lon="3.0687312514801985"><ele>695.0000000000001</ele><time>2026-03-22T14:59:57.999Z</time></trkpt><trkpt lat="45.68098178410536" lon="3.068726203269851"><ele>695.0</ele><time>2026-03-22T15:00:01.999Z</time></trkpt><trkpt lat="45.68105373010697" lon="3.0687072276824043"><ele>695.0</ele><time>2026-03-22T15:00:09.999Z</time></trkpt><trkpt lat="45.681121841617156" lon="3.068702116421035"><ele>695.0</ele><time>2026-03-22T15:00:15.999Z</time></trkpt><trkpt lat="45.68119123011005" lon="3.0687027457562515"><ele>695.0</ele><time>2026-03-22T15:00:20.999Z</time></trkpt><trkpt lat="45.681259744009395" lon="3.0687245108864745"><ele>695.0000000000001</ele><time>2026-03-22T15:00:25.999Z</time></trkpt><trkpt lat="45.681332037689096" lon="3.0687054213338913"><ele>695.0</ele><time>2026-03-22T15:00:30.999Z</time></trkpt><trkpt lat="45.68139516570477" lon="3.0687365564236067"><ele>696.8571428571429</ele><time>2026-03-22T15:00:35.999Z</time></trkpt><trkpt lat="45.68145940341613" lon="3.068746626675621"><ele>698.7142857142858</ele><time>2026-03-22T15:00:40.999Z</time></trkpt><trkpt lat="45.68152246053149" lon="3.0687594288694497"><ele>700.5714285714287</ele><time>2026-03-22T15:00:45.999Z</time></trkpt><trkpt lat="45.68159589780609" lon="3.068776306938268"><ele>702.4285714285714</ele><time>2026-03-22T15:00:52Z</time></trkpt><trkpt lat="45.681662678076954" lon="3.068793679230994"><ele>704.2857142857142</ele><time>2026-03-22T15:00:57Z</time></trkpt><trkpt lat="45.68172570585849" lon="3.068815472389069"><ele>706.1428571428572</ele><time>2026-03-22T15:01:02Z</time></trkpt><trkpt lat="45.68179216788213" lon="3.0688605884264457"><ele>708.0</ele><time>2026-03-22T15:01:08Z</time></trkpt><trkpt lat="45.681849274496926" lon="3.068911483531276"><ele>708.0</ele><time>2026-03-22T15:01:13Z</time></trkpt><trkpt lat="45.68191371603825" lon="3.0689489187264622"><ele>708.0</ele><time>2026-03-22T15:01:19Z</time></trkpt><trkpt lat="45.6819799403466" lon="3.068992307617348"><ele>708.0</ele><time>2026-03-22T15:01:25Z</time></trkpt><trkpt lat="45.68203676729245" lon="3.069041870979442"><ele>708.0</ele><time>2026-03-22T15:01:32Z</time></trkpt><trkpt lat="45.682095405570365" lon="3.0690952646640173"><ele>708.0</ele><time>2026-03-22T15:01:39Z</time></trkpt><trkpt lat="45.68215393590186" lon="3.069140797596397"><ele>708.0</ele><time>2026-03-22T15:01:45Z</time></trkpt><trkpt lat="45.68221429845136" lon="3.0691761499901755"><ele>708.0</ele><time>2026-03-22T15:01:51Z</time></trkpt><trkpt lat="45.68227732117023" lon="3.0692081806053686"><ele>709.5714285714286</ele><time>2026-03-22T15:01:56.999Z</time></trkpt><trkpt lat="45.68234515717478" lon="3.0692426035679703"><ele>711.1428571428571</ele><time>2026-03-22T15:02:02.999Z</time></trkpt><trkpt lat="45.68241280019132" lon="3.069278246501952"><ele>712.7142857142857</ele><time>2026-03-22T15:02:08.999Z</time></trkpt><trkpt lat="45.68247615749251" lon="3.0693126936655335"><ele>714.2857142857142</ele><time>2026-03-22T15:02:13.999Z</time></trkpt><trkpt lat="45.68254201607824" lon="3.0693485007380965"><ele>715.8571428571429</ele><time>2026-03-22T15:02:18.999Z</time></trkpt><trkpt lat="45.682609432519385" lon="3.0693851548179243"><ele>717.4285714285713</ele><time>2026-03-22T15:02:23.999Z</time></trkpt><trkpt lat="45.68267428408111" lon="3.0694209504266126"><ele>719.0</ele><time>2026-03-22T15:02:28.999Z</time></trkpt><trkpt lat="45.68274278979748" lon="3.0694594544176246"><ele>720.9999999999999</ele><time>2026-03-22T15:02:34.999Z</time></trkpt><trkpt lat="45.68280185246792" lon="3.069494014691904"><ele>723.0</ele><time>2026-03-22T15:02:40.999Z</time></trkpt><trkpt lat="45.682871892994534" lon="3.069513311476792"><ele>725.0</ele><time>2026-03-22T15:02:46.999Z</time></trkpt><trkpt lat="45.68293078508074" lon="3.069553611004259"><ele>727.0</ele><time>2026-03-22T15:02:51.999Z</time></trkpt><trkpt lat="45.68299082032949" lon="3.0695921832751427"><ele>729.0</ele><time>2026-03-22T15:02:58Z</time></trkpt><trkpt lat="45.68304054558838" lon="3.0696489460585963"><ele>730.9999999999999</ele><time>2026-03-22T15:03:03Z</time></trkpt><trkpt lat="45.683107498417435" lon="3.069696033711524"><ele>733.0</ele><time>2026-03-22T15:03:08Z</time></trkpt><trkpt lat="45.68316847817372" lon="3.0697404035278337"><ele>733.0</ele><time>2026-03-22T15:03:13Z</time></trkpt><trkpt lat="45.68323594414165" lon="3.0697914479664106"><ele>733.0</ele><time>2026-03-22T15:03:19Z</time></trkpt><trkpt lat="45.68329441092786" lon="3.0698414738178483"><ele>733.0</ele><time>2026-03-22T15:03:24Z</time></trkpt><trkpt lat="45.683355538437574" lon="3.0698913413138413"><ele>733.0</ele><time>2026-03-22T15:03:29Z</time></trkpt><trkpt lat="45.683422601033044" lon="3.069953586422896"><ele>733.0</ele><time>2026-03-22T15:03:33Z</time></trkpt><trkpt lat="45.683487429503586" lon="3.070044078699365"><ele>733.0</ele><time>2026-03-22T15:03:37Z</time></trkpt><trkpt lat="45.68356333012227" lon="3.0700428031048403"><ele>733.3333333333334</ele><time>2026-03-22T15:03:39Z</time></trkpt><trkpt lat="45.68364161502578" lon="3.070055169269225"><ele>733.6666666666667</ele><time>2026-03-22T15:03:42Z</time></trkpt><trkpt lat="45.68372863746195" lon="3.0700399942709318"><ele>734.0</ele><time>2026-03-22T15:03:45Z</time></trkpt><trkpt lat="45.683789604601685" lon="3.0699864343601546"><ele>734.3333333333334</ele><time>2026-03-22T15:03:47Z</time></trkpt><trkpt lat="45.68385158822784" lon="3.0700367340302814"><ele>734.6666666666666</ele><time>2026-03-22T15:03:49Z</time></trkpt><trkpt lat="45.68392982014707" lon="3.070081808741297"><ele>735.0</ele><time>2026-03-22T15:03:52Z</time></trkpt><trkpt lat="45.683983326751985" lon="3.070143447125151"><ele>735.0</ele><time>2026-03-22T15:03:56Z</time></trkpt><trkpt lat="45.6839194923935" lon="3.070617075358675"><ele>735.0</ele><time>2026-03-22T15:03:58.999Z</time></trkpt><trkpt lat="45.683922572735604" lon="3.0707936854549116"><ele>734.6666666666666</ele><time>2026-03-22T15:04:00.999Z</time></trkpt><trkpt lat="45.68392110910216" lon="3.0708854862621173"><ele>734.3333333333334</ele><time>2026-03-22T15:04:01.999Z</time></trkpt><trkpt lat="45.68391896490222" lon="3.0709770272204886"><ele>734.0</ele><time>2026-03-22T15:04:02.999Z</time></trkpt><trkpt lat="45.68391496948327" lon="3.0710692628458314"><ele>733.6666666666667</ele><time>2026-03-22T15:04:03.999Z</time></trkpt><trkpt lat="45.683914972345825" lon="3.0711598998023653"><ele>733.3333333333334</ele><time>2026-03-22T15:04:04.999Z</time></trkpt><trkpt lat="45.68390905808527" lon="3.071333293018272"><ele>733.0</ele><time>2026-03-22T15:04:06.999Z</time></trkpt><trkpt lat="45.68390470211623" lon="3.0714934944475654"><ele>732.4</ele><time>2026-03-22T15:04:08.999Z</time></trkpt><trkpt lat="45.6839036090177" lon="3.071644661508319"><ele>731.8</ele><time>2026-03-22T15:04:10.999Z</time></trkpt><trkpt lat="45.68389851451896" lon="3.07177393888909"><ele>731.2</ele><time>2026-03-22T15:04:12.999Z</time></trkpt><trkpt lat="45.68388797138075" lon="3.0718924981332596"><ele>730.6</ele><time>2026-03-22T15:04:14.999Z</time></trkpt><trkpt lat="45.683880613970494" lon="3.072024952679237"><ele>730.0</ele><time>2026-03-22T15:04:16.999Z</time></trkpt><trkpt lat="45.683890248055675" lon="3.072165120564234"><ele>730.0</ele><time>2026-03-22T15:04:18.999Z</time></trkpt><trkpt lat="45.68392815103019" lon="3.0722884658362273"><ele>730.0</ele><time>2026-03-22T15:04:20.999Z</time></trkpt><trkpt lat="45.683974333078616" lon="3.0723998412277163"><ele>730.0</ele><time>2026-03-22T15:04:22.999Z</time></trkpt><trkpt lat="45.68402307294947" lon="3.072525111541054"><ele>730.0</ele><time>2026-03-22T15:04:24.999Z</time></trkpt><trkpt lat="45.6840650951622" lon="3.0726714001096327"><ele>730.0</ele><time>2026-03-22T15:04:26.999Z</time></trkpt><trkpt lat="45.68409338406907" lon="3.0728247139120395"><ele>729.8</ele><time>2026-03-22T15:04:28.999Z</time></trkpt><trkpt lat="45.68410751926715" lon="3.0729809827854173"><ele>729.6</ele><time>2026-03-22T15:04:30.999Z</time></trkpt><trkpt lat="45.684120138304756" lon="3.0731342620021587"><ele>729.4000000000001</ele><time>2026-03-22T15:04:32.999Z</time></trkpt><trkpt lat="45.68413956584135" lon="3.0732896260737372"><ele>729.2</ele><time>2026-03-22T15:04:34.999Z</time></trkpt><trkpt lat="45.68416700162764" lon="3.0734492749981333"><ele>729.0</ele><time>2026-03-22T15:04:36.999Z</time></trkpt><trkpt lat="45.68417645792157" lon="3.0736126561148245"><ele>728.6666666666666</ele><time>2026-03-22T15:04:38.999Z</time></trkpt><trkpt lat="45.68417064990005" lon="3.07377218303438"><ele>728.3333333333334</ele><time>2026-03-22T15:04:40.999Z</time></trkpt><trkpt lat="45.684158482565785" lon="3.073894363307346"><ele>728.0</ele><time>2026-03-22T15:04:42.999Z</time></trkpt><trkpt lat="45.684147717656955" lon="3.073990841149554"><ele>727.6666666666667</ele><time>2026-03-22T15:04:44.999Z</time></trkpt><trkpt lat="45.68413160456817" lon="3.0740931522288637"><ele>727.3333333333334</ele><time>2026-03-22T15:04:46.999Z</time></trkpt><trkpt lat="45.68412037085734" lon="3.074189591797062"><ele>727.0</ele><time>2026-03-22T15:04:48.999Z</time></trkpt><trkpt lat="45.68411019008283" lon="3.0742917537322447"><ele>726.5</ele><time>2026-03-22T15:04:50.999Z</time></trkpt><trkpt lat="45.68410392219558" lon="3.0744003710812415"><ele>726.0</ele><time>2026-03-22T15:04:52.999Z</time></trkpt><trkpt lat="45.684100815177366" lon="3.0745085988720975"><ele>725.5</ele><time>2026-03-22T15:04:54.999Z</time></trkpt><trkpt lat="45.68410506593087" lon="3.074615635106321"><ele>725.0</ele><time>2026-03-22T15:04:56.999Z</time></trkpt><trkpt lat="45.68410080337341" lon="3.0747233963147376"><ele>724.5</ele><time>2026-03-22T15:04:58.999Z</time></trkpt><trkpt lat="45.684077247732375" lon="3.074839310856346"><ele>724.0</ele><time>2026-03-22T15:05:00.999Z</time></trkpt><trkpt lat="45.684058027478116" lon="3.0749601654935925"><ele>723.5</ele><time>2026-03-22T15:05:03Z</time></trkpt><trkpt lat="45.68403582275412" lon="3.075080418840481"><ele>723.0</ele><time>2026-03-22T15:05:05Z</time></trkpt><trkpt lat="45.684012293004116" lon="3.0751822658160424"><ele>722.5</ele><time>2026-03-22T15:05:07Z</time></trkpt><trkpt lat="45.68399400680263" lon="3.0752866835117576"><ele>722.0</ele><time>2026-03-22T15:05:09Z</time></trkpt><trkpt lat="45.68397620249634" lon="3.0753991772196443"><ele>721.5</ele><time>2026-03-22T15:05:11Z</time></trkpt><trkpt lat="45.6839619193944" lon="3.075522849759124"><ele>721.0</ele><time>2026-03-22T15:05:13Z</time></trkpt><trkpt lat="45.68394610504425" lon="3.0756321465749563"><ele>721.0</ele><time>2026-03-22T15:05:15Z</time></trkpt><trkpt lat="45.68393442510295" lon="3.075736647565675"><ele>721.0</ele><time>2026-03-22T15:05:17Z</time></trkpt><trkpt lat="45.68391349294847" lon="3.075843193168688"><ele>721.0</ele><time>2026-03-22T15:05:19Z</time></trkpt><trkpt lat="45.68389235151452" lon="3.0759412439885647"><ele>721.0</ele><time>2026-03-22T15:05:21Z</time></trkpt><trkpt lat="45.68387956838889" lon="3.0760356701346137"><ele>721.0</ele><time>2026-03-22T15:05:23Z</time></trkpt><trkpt lat="45.683958081807674" lon="3.076114965095281"><ele>721.0</ele><time>2026-03-22T15:05:26Z</time></trkpt><trkpt lat="45.68403524709552" lon="3.0761342810821355"><ele>720.8333333333334</ele><time>2026-03-22T15:05:28Z</time></trkpt><trkpt lat="45.6841050835356" lon="3.0761590186679095"><ele>720.6666666666667</ele><time>2026-03-22T15:05:30Z</time></trkpt><trkpt lat="45.68419180908303" lon="3.0761749597195798"><ele>720.5</ele><time>2026-03-22T15:05:33Z</time></trkpt><trkpt lat="45.68425729190463" lon="3.076175442736184"><ele>720.3333333333334</ele><time>2026-03-22T15:05:36Z</time></trkpt><trkpt lat="45.684337618561464" lon="3.076198309146579"><ele>720.1666666666666</ele><time>2026-03-22T15:05:40Z</time></trkpt><trkpt lat="45.68441512750486" lon="3.0762089367084458"><ele>720.0</ele><time>2026-03-22T15:05:43Z</time></trkpt><trkpt lat="45.684494214673435" lon="3.07622167487527"><ele>718.3333333333334</ele><time>2026-03-22T15:05:46Z</time></trkpt><trkpt lat="45.68457572572569" lon="3.0762378430355266"><ele>716.6666666666666</ele><time>2026-03-22T15:05:49Z</time></trkpt><trkpt lat="45.68464804952285" lon="3.076260335016615"><ele>715.0</ele><time>2026-03-22T15:05:51.999Z</time></trkpt><trkpt lat="45.68472648006833" lon="3.076287381495425"><ele>713.3333333333333</ele><time>2026-03-22T15:05:54.999Z</time></trkpt><trkpt lat="45.68480685115736" lon="3.0763161943291557"><ele>711.6666666666666</ele><time>2026-03-22T15:05:57.999Z</time></trkpt><trkpt lat="45.6848856609571" lon="3.0763253561026263"><ele>710.0</ele><time>2026-03-22T15:06:00.999Z</time></trkpt><trkpt lat="45.68495601588135" lon="3.076338066279436"><ele>710.0</ele><time>2026-03-22T15:06:03.999Z</time></trkpt><trkpt lat="45.68502986690688" lon="3.0763530420339036"><ele>710.0</ele><time>2026-03-22T15:06:06.999Z</time></trkpt><trkpt lat="45.68510268756034" lon="3.076373488543696"><ele>710.0</ele><time>2026-03-22T15:06:09.999Z</time></trkpt><trkpt lat="45.68517717753698" lon="3.076405646578258"><ele>710.0</ele><time>2026-03-22T15:06:12.999Z</time></trkpt><trkpt lat="45.68523931499088" lon="3.0763793750823534"><ele>710.0</ele><time>2026-03-22T15:06:15.999Z</time></trkpt><trkpt lat="45.68527483133044" lon="3.0762963471140656"><ele>710.0</ele><time>2026-03-22T15:06:18.999Z</time></trkpt><trkpt lat="45.6853155413603" lon="3.076226568579019"><ele>710.0</ele><time>2026-03-22T15:06:21.999Z</time></trkpt><trkpt lat="45.685354915375875" lon="3.076145619926409"><ele>708.4285714285714</ele><time>2026-03-22T15:06:25.999Z</time></trkpt><trkpt lat="45.68539701901216" lon="3.076067956032322"><ele>706.8571428571429</ele><time>2026-03-22T15:06:29.999Z</time></trkpt><trkpt lat="45.68544114172942" lon="3.0759880928429153"><ele>705.2857142857142</ele><time>2026-03-22T15:06:33.999Z</time></trkpt><trkpt lat="45.68547227389025" lon="3.075896371258662"><ele>703.7142857142858</ele><time>2026-03-22T15:06:37.999Z</time></trkpt><trkpt lat="45.68551508131391" lon="3.0757986104151067"><ele>702.1428571428572</ele><time>2026-03-22T15:06:42.999Z</time></trkpt><trkpt lat="45.68555995475285" lon="3.0757240604172082"><ele>700.5714285714286</ele><time>2026-03-22T15:06:46.999Z</time></trkpt><trkpt lat="45.68559912234602" lon="3.0756451278493837"><ele>699.0</ele><time>2026-03-22T15:06:50.999Z</time></trkpt><trkpt lat="45.68564857815728" lon="3.075572418842348"><ele>699.0</ele><time>2026-03-22T15:06:54.999Z</time></trkpt><trkpt lat="45.685702366934386" lon="3.0755249480746105"><ele>699.0</ele><time>2026-03-22T15:06:57.999Z</time></trkpt><trkpt lat="45.68574829091744" lon="3.0754537136960893"><ele>699.0</ele><time>2026-03-22T15:07:00.999Z</time></trkpt><trkpt lat="45.68580841900095" lon="3.0753715291898613"><ele>699.0</ele><time>2026-03-22T15:07:04.999Z</time></trkpt><trkpt lat="45.68584893335467" lon="3.0752569520730084"><ele>699.0</ele><time>2026-03-22T15:07:07.999Z</time></trkpt><trkpt lat="45.68586767665812" lon="3.0751615310002136"><ele>699.0</ele><time>2026-03-22T15:07:27Z</time></trkpt><trkpt lat="45.68587823695982" lon="3.075066941512507"><ele>699.0</ele><time>2026-03-22T15:07:30Z</time></trkpt><trkpt lat="45.685876165650484" lon="3.0749539121048457"><ele>699.8333333333334</ele><time>2026-03-22T15:07:34Z</time></trkpt><trkpt lat="45.68585227314217" lon="3.0748510048702817"><ele>700.6666666666666</ele><time>2026-03-22T15:07:37Z</time></trkpt><trkpt lat="45.685852874340135" lon="3.074739960353436"><ele>701.5</ele><time>2026-03-22T15:07:41Z</time></trkpt><trkpt lat="45.685852044016116" lon="3.074617945093021"><ele>702.3333333333333</ele><time>2026-03-22T15:07:44Z</time></trkpt><trkpt lat="45.68584534496856" lon="3.0745077488868273"><ele>703.1666666666666</ele><time>2026-03-22T15:07:47Z</time></trkpt><trkpt lat="45.68582413454556" lon="3.074415886660466"><ele>704.0</ele><time>2026-03-22T15:07:50Z</time></trkpt><trkpt lat="45.6858215425969" lon="3.074309372165543"><ele>704.0</ele><time>2026-03-22T15:07:52.999Z</time></trkpt><trkpt lat="45.6858256359437" lon="3.07418521121182"><ele>704.0</ele><time>2026-03-22T15:07:56.999Z</time></trkpt><trkpt lat="45.68583867277682" lon="3.0740850011758623"><ele>704.0</ele><time>2026-03-22T15:07:59.999Z</time></trkpt><trkpt lat="45.68585125786292" lon="3.073976498363173"><ele>704.0</ele><time>2026-03-22T15:08:02.999Z</time></trkpt><trkpt lat="45.68586142531231" lon="3.073886336048035"><ele>704.0</ele><time>2026-03-22T15:08:05.999Z</time></trkpt><trkpt lat="45.68587993038046" lon="3.073750564590127"><ele>704.0</ele><time>2026-03-22T15:08:07.999Z</time></trkpt><trkpt lat="45.68589890236096" lon="3.073645384993636"><ele>705.0</ele><time>2026-03-22T15:08:09.999Z</time></trkpt><trkpt lat="45.68592315796937" lon="3.0735122425646955"><ele>706.0</ele><time>2026-03-22T15:08:12.999Z</time></trkpt><trkpt lat="45.68594305822795" lon="3.0734046423444235"><ele>707.0</ele><time>2026-03-22T15:08:14.999Z</time></trkpt><trkpt lat="45.685960098681065" lon="3.073312505010755"><ele>708.0</ele><time>2026-03-22T15:08:16.999Z</time></trkpt><trkpt lat="45.68600446069462" lon="3.073103962177634"><ele>709.0</ele><time>2026-03-22T15:08:18.999Z</time></trkpt><trkpt lat="45.68606292917235" lon="3.073013871370757"><ele>708.7142857142858</ele><time>2026-03-22T15:08:20.999Z</time></trkpt><trkpt lat="45.68612618614202" lon="3.0729698641319154"><ele>708.4285714285714</ele><time>2026-03-22T15:08:22.999Z</time></trkpt><trkpt lat="45.68618795354196" lon="3.0729178990913115"><ele>708.1428571428571</ele><time>2026-03-22T15:08:24.999Z</time></trkpt><trkpt lat="45.68624094088474" lon="3.07285905685723"><ele>707.8571428571429</ele><time>2026-03-22T15:08:26.999Z</time></trkpt><trkpt lat="45.68628808833052" lon="3.0727724872658277"><ele>707.5714285714286</ele><time>2026-03-22T15:08:29.999Z</time></trkpt><trkpt lat="45.68632472909628" lon="3.0726972026272668"><ele>707.2857142857143</ele><time>2026-03-22T15:08:32.999Z</time></trkpt><trkpt lat="45.68636930911087" lon="3.0726005465280957"><ele>707.0</ele><time>2026-03-22T15:08:35.999Z</time></trkpt><trkpt lat="45.686423686419815" lon="3.072482648430229"><ele>708.3333333333333</ele><time>2026-03-22T15:08:38.999Z</time></trkpt><trkpt lat="45.68645492778927" lon="3.0723971876352407"><ele>709.6666666666666</ele><time>2026-03-22T15:08:40.999Z</time></trkpt><trkpt lat="45.686496530888725" lon="3.072283384943281"><ele>711.0</ele><time>2026-03-22T15:08:43.999Z</time></trkpt><trkpt lat="45.68654113400544" lon="3.072176636468506"><ele>712.3333333333334</ele><time>2026-03-22T15:08:45.999Z</time></trkpt><trkpt lat="45.686592924931844" lon="3.072064689946035"><ele>713.6666666666667</ele><time>2026-03-22T15:08:47.999Z</time></trkpt><trkpt lat="45.68664932365455" lon="3.071957912554437"><ele>715.0</ele><time>2026-03-22T15:08:49.999Z</time></trkpt><trkpt lat="45.68670612584755" lon="3.07185037133693"><ele>715.0</ele><time>2026-03-22T15:08:51.999Z</time></trkpt><trkpt lat="45.68677245461012" lon="3.0717385207413"><ele>715.0</ele><time>2026-03-22T15:08:53.999Z</time></trkpt><trkpt lat="45.68684303211702" lon="3.0716225281880236"><ele>715.0</ele><time>2026-03-22T15:08:55.999Z</time></trkpt><trkpt lat="45.6869144489642" lon="3.071505156127228"><ele>715.0</ele><time>2026-03-22T15:08:57.999Z</time></trkpt><trkpt lat="45.686980286456475" lon="3.0713975594001837"><ele>715.0</ele><time>2026-03-22T15:08:59.999Z</time></trkpt><trkpt lat="45.6870304803885" lon="3.071318132790705"><ele>715.0</ele><time>2026-03-22T15:09:01.999Z</time></trkpt><trkpt lat="45.687080094258064" lon="3.0712404681756222"><ele>715.0</ele><time>2026-03-22T15:09:04.999Z</time></trkpt><trkpt lat="45.68713098226139" lon="3.0711607059065904"><ele>715.0</ele><time>2026-03-22T15:09:08.998Z</time></trkpt><trkpt lat="45.6871757521782" lon="3.07107320029494"><ele>715.0</ele><time>2026-03-22T15:09:12.998Z</time></trkpt><trkpt lat="45.68721921882775" lon="3.0709932854887265"><ele>715.0</ele><time>2026-03-22T15:09:16Z</time></trkpt><trkpt lat="45.68727144576073" lon="3.070897438722482"><ele>715.0</ele><time>2026-03-22T15:09:19Z</time></trkpt><trkpt lat="45.687311980743466" lon="3.0708230490117945"><ele>715.0</ele><time>2026-03-22T15:09:22Z</time></trkpt><trkpt lat="45.68736867088188" lon="3.070768748339619"><ele>715.0</ele><time>2026-03-22T15:09:25Z</time></trkpt><trkpt lat="45.68740570583922" lon="3.0706812806674297"><ele>715.0</ele><time>2026-03-22T15:09:28Z</time></trkpt><trkpt lat="45.68743536273087" lon="3.070597736251316"><ele>715.0</ele><time>2026-03-22T15:09:30Z</time></trkpt><trkpt lat="45.68750460696905" lon="3.0705408332553987"><ele>715.0</ele><time>2026-03-22T15:09:32Z</time></trkpt><trkpt lat="45.68756502221412" lon="3.070501029023036"><ele>715.0</ele><time>2026-03-22T15:09:34Z</time></trkpt><trkpt lat="45.68763127515923" lon="3.070463454129739"><ele>715.0</ele><time>2026-03-22T15:09:36Z</time></trkpt><trkpt lat="45.68770395648229" lon="3.07042780503091"><ele>715.0</ele><time>2026-03-22T15:09:38Z</time></trkpt><trkpt lat="45.68777466905507" lon="3.0703962198464194"><ele>712.0</ele><time>2026-03-22T15:09:40Z</time></trkpt><trkpt lat="45.687828709689676" lon="3.0703112732546156"><ele>709.0</ele><time>2026-03-22T15:09:42Z</time></trkpt><trkpt lat="45.6878706130694" lon="3.0702125944655148"><ele>706.0</ele><time>2026-03-22T15:09:44Z</time></trkpt><trkpt lat="45.68789662385847" lon="3.0701177331416183"><ele>703.0</ele><time>2026-03-22T15:09:46Z</time></trkpt><trkpt lat="45.68795497436501" lon="3.0700596143675964"><ele>700.0</ele><time>2026-03-22T15:09:47Z</time></trkpt><trkpt lat="45.687979839463836" lon="3.0699486008434205"><ele>697.0</ele><time>2026-03-22T15:09:49Z</time></trkpt><trkpt lat="45.688008156327854" lon="3.0698155572965455"><ele>697.0</ele><time>2026-03-22T15:09:51Z</time></trkpt><trkpt lat="45.68803961118633" lon="3.0696843253524744"><ele>697.0</ele><time>2026-03-22T15:09:53Z</time></trkpt><trkpt lat="45.68803266370363" lon="3.069594140871567"><ele>697.0</ele><time>2026-03-22T15:09:54.999Z</time></trkpt><trkpt lat="45.68806683466994" lon="3.069513358983216"><ele>697.0</ele><time>2026-03-22T15:09:56.999Z</time></trkpt><trkpt lat="45.68810328476509" lon="3.0694304981300893"><ele>697.0</ele><time>2026-03-22T15:09:57.999Z</time></trkpt><trkpt lat="45.68816324352545" lon="3.069331722153008"><ele>697.0</ele><time>2026-03-22T15:09:59.999Z</time></trkpt><trkpt lat="45.68819308283536" lon="3.0692512813287363"><ele>697.0</ele><time>2026-03-22T15:10:01.999Z</time></trkpt><trkpt lat="45.68822634127346" lon="3.06912133631411"><ele>697.0</ele><time>2026-03-22T15:10:03.999Z</time></trkpt><trkpt lat="45.68824783304637" lon="3.069035893196759"><ele>697.0</ele><time>2026-03-22T15:10:05.999Z</time></trkpt><trkpt lat="45.68830021223603" lon="3.068862834203943"><ele>697.0</ele><time>2026-03-22T15:10:07.999Z</time></trkpt><trkpt lat="45.68836200592271" lon="3.068755964428063"><ele>697.0</ele><time>2026-03-22T15:10:08.999Z</time></trkpt><trkpt lat="45.68842586168152" lon="3.0686445318308557"><ele>697.6666666666667</ele><time>2026-03-22T15:10:10.999Z</time></trkpt><trkpt lat="45.68846970433331" lon="3.068563652696994"><ele>698.3333333333334</ele><time>2026-03-22T15:10:12.999Z</time></trkpt><trkpt lat="45.68851045206286" lon="3.068458223209513"><ele>699.0</ele><time>2026-03-22T15:10:14.999Z</time></trkpt><trkpt lat="45.688551734134506" lon="3.0683628398118032"><ele>699.6666666666666</ele><time>2026-03-22T15:10:16.999Z</time></trkpt><trkpt lat="45.68858472459844" lon="3.068267328014295"><ele>700.3333333333333</ele><time>2026-03-22T15:10:18.999Z</time></trkpt><trkpt lat="45.688624144649566" lon="3.0681609695101035"><ele>701.0</ele><time>2026-03-22T15:10:20.999Z</time></trkpt><trkpt lat="45.68867536295274" lon="3.068043498124068"><ele>699.0</ele><time>2026-03-22T15:10:22.999Z</time></trkpt><trkpt lat="45.68873113173216" lon="3.067924081617453"><ele>697.0</ele><time>2026-03-22T15:10:24.999Z</time></trkpt><trkpt lat="45.68879582728936" lon="3.0678176011013356"><ele>695.0</ele><time>2026-03-22T15:10:26.999Z</time></trkpt><trkpt lat="45.688851974345646" lon="3.0676765680025304"><ele>693.0</ele><time>2026-03-22T15:10:28.999Z</time></trkpt><trkpt lat="45.688939777799376" lon="3.0675467273612367"><ele>691.0</ele><time>2026-03-22T15:10:30.999Z</time></trkpt><trkpt lat="45.6889937643393" lon="3.06748547017179"><ele>691.5</ele><time>2026-03-22T15:10:31.999Z</time></trkpt><trkpt lat="45.68908667923758" lon="3.06736234285701"><ele>692.0</ele><time>2026-03-22T15:10:33.999Z</time></trkpt><trkpt lat="45.68917137744336" lon="3.067245430583276"><ele>692.5</ele><time>2026-03-22T15:10:35.999Z</time></trkpt><trkpt lat="45.689243511768346" lon="3.0671247857257398"><ele>693.0</ele><time>2026-03-22T15:10:37.999Z</time></trkpt><trkpt lat="45.68930139091288" lon="3.0670078295106573"><ele>693.0</ele><time>2026-03-22T15:10:39.999Z</time></trkpt><trkpt lat="45.68934301366834" lon="3.06694012884308"><ele>693.0</ele><time>2026-03-22T15:10:40.999Z</time></trkpt><trkpt lat="45.68942726533972" lon="3.066831886645922"><ele>693.0</ele><time>2026-03-22T15:10:42.999Z</time></trkpt><trkpt lat="45.68950224728213" lon="3.066720878705155"><ele>693.0</ele><time>2026-03-22T15:10:44.999Z</time></trkpt><trkpt lat="45.689560302851824" lon="3.06662560947789"><ele>693.0</ele><time>2026-03-22T15:10:46.999Z</time></trkpt><trkpt lat="45.68962026841869" lon="3.0665407119489174"><ele>691.3333333333334</ele><time>2026-03-22T15:10:48.999Z</time></trkpt><trkpt lat="45.68969971519965" lon="3.0664689687916566"><ele>689.6666666666666</ele><time>2026-03-22T15:10:50.999Z</time></trkpt><trkpt lat="45.6897649089342" lon="3.066412098149992"><ele>688.0</ele><time>2026-03-22T15:10:52.999Z</time></trkpt><trkpt lat="45.68982566261616" lon="3.0663619099276764"><ele>686.3333333333333</ele><time>2026-03-22T15:10:54.999Z</time></trkpt><trkpt lat="45.68988605431248" lon="3.06632456423457"><ele>684.6666666666666</ele><time>2026-03-22T15:10:56.999Z</time></trkpt><trkpt lat="45.68995745058359" lon="3.066348178543296"><ele>683.0</ele><time>2026-03-22T15:10:59.999Z</time></trkpt><trkpt lat="45.69001680690866" lon="3.066411257814241"><ele>683.0</ele><time>2026-03-22T15:11:02.999Z</time></trkpt><trkpt lat="45.69006670779959" lon="3.066474096451611"><ele>683.0</ele><time>2026-03-22T15:11:04.999Z</time></trkpt><trkpt lat="45.69011705957511" lon="3.066539070933395"><ele>683.0</ele><time>2026-03-22T15:11:06.999Z</time></trkpt><trkpt lat="45.69017956689388" lon="3.066590009983739"><ele>683.0</ele><time>2026-03-22T15:11:08.999Z</time></trkpt><trkpt lat="45.69022532024339" lon="3.0666743843755673"><ele>683.0</ele><time>2026-03-22T15:11:10.999Z</time></trkpt><trkpt lat="45.69036637369032" lon="3.0668652559390055"><ele>681.5</ele><time>2026-03-22T15:11:11.998Z</time></trkpt><trkpt lat="45.690359994461076" lon="3.0669859347381734"><ele>680.0</ele><time>2026-03-22T15:11:13.998Z</time></trkpt><trkpt lat="45.690352575576505" lon="3.0670798383367663"><ele>678.5</ele><time>2026-03-22T15:11:15.998Z</time></trkpt><trkpt lat="45.69032412059359" lon="3.067179181935237"><ele>677.0</ele><time>2026-03-22T15:11:17.998Z</time></trkpt><trkpt lat="45.690294622012225" lon="3.0672978162032565"><ele>675.5</ele><time>2026-03-22T15:11:19.998Z</time></trkpt><trkpt lat="45.690278213261585" lon="3.067417245607977"><ele>674.0</ele><time>2026-03-22T15:11:22Z</time></trkpt><trkpt lat="45.69025674472763" lon="3.067511329128827"><ele>674.0</ele><time>2026-03-22T15:11:24Z</time></trkpt><trkpt lat="45.69023424585071" lon="3.0676050324794772"><ele>674.0</ele><time>2026-03-22T15:11:26Z</time></trkpt><trkpt lat="45.69021385647837" lon="3.0677079068515316"><ele>674.0</ele><time>2026-03-22T15:11:28Z</time></trkpt><trkpt lat="45.69018862352116" lon="3.067822645646721"><ele>674.0</ele><time>2026-03-22T15:11:30Z</time></trkpt><trkpt lat="45.690163608052835" lon="3.06791255994515"><ele>674.0</ele><time>2026-03-22T15:11:33Z</time></trkpt><trkpt lat="45.69013845499171" lon="3.0680038075558267"><ele>674.0</ele><time>2026-03-22T15:11:35Z</time></trkpt><trkpt lat="45.6901099296647" lon="3.0681265586003357"><ele>674.0</ele><time>2026-03-22T15:11:38Z</time></trkpt><trkpt lat="45.69008151095477" lon="3.0682625207257987"><ele>674.0</ele><time>2026-03-22T15:11:41Z</time></trkpt><trkpt lat="45.69005602417992" lon="3.0683862003319105"><ele>674.0</ele><time>2026-03-22T15:11:44Z</time></trkpt><trkpt lat="45.69003735763719" lon="3.0684765049571063"><ele>674.0</ele><time>2026-03-22T15:11:46Z</time></trkpt><trkpt lat="45.69000179521458" lon="3.0686485480926757"><ele>674.0</ele><time>2026-03-22T15:11:47Z</time></trkpt><trkpt lat="45.68997532828169" lon="3.0687765893303993"><ele>672.3333333333333</ele><time>2026-03-22T15:11:49Z</time></trkpt><trkpt lat="45.689949008714535" lon="3.0689069932293997"><ele>670.6666666666666</ele><time>2026-03-22T15:11:51Z</time></trkpt><trkpt lat="45.68992779962999" lon="3.068994822573278"><ele>669.0</ele><time>2026-03-22T15:11:54Z</time></trkpt><trkpt lat="45.689909355948515" lon="3.069088955188673"><ele>667.3333333333334</ele><time>2026-03-22T15:11:57Z</time></trkpt><trkpt lat="45.689876790068595" lon="3.0692205828991845"><ele>665.6666666666667</ele><time>2026-03-22T15:11:59.999Z</time></trkpt><trkpt lat="45.689850065769015" lon="3.069354429579939"><ele>664.0</ele><time>2026-03-22T15:12:01.999Z</time></trkpt><trkpt lat="45.68983115285747" lon="3.0694491818580136"><ele>661.5</ele><time>2026-03-22T15:12:02.999Z</time></trkpt><trkpt lat="45.68978364899664" lon="3.069687208090816"><ele>659.0</ele><time>2026-03-22T15:12:04.999Z</time></trkpt><trkpt lat="45.689755584631136" lon="3.069827829439418"><ele>656.5</ele><time>2026-03-22T15:12:06.999Z</time></trkpt><trkpt lat="45.68973418134052" lon="3.0699594379610926"><ele>654.0</ele><time>2026-03-22T15:12:08.999Z</time></trkpt><trkpt lat="45.68971306132677" lon="3.070097720135963"><ele>651.4000000000001</ele><time>2026-03-22T15:12:10.999Z</time></trkpt><trkpt lat="45.68969186707317" lon="3.0702364882963993"><ele>648.8</ele><time>2026-03-22T15:12:12.999Z</time></trkpt><trkpt lat="45.68967979523214" lon="3.070375813238342"><ele>646.2</ele><time>2026-03-22T15:12:14.999Z</time></trkpt><trkpt lat="45.68966044427093" lon="3.070502512644598"><ele>643.5999999999999</ele><time>2026-03-22T15:12:16.999Z</time></trkpt><trkpt lat="45.68964419117412" lon="3.070642174789722"><ele>641.0</ele><time>2026-03-22T15:12:18.999Z</time></trkpt><trkpt lat="45.68963563976385" lon="3.0707544082439644"><ele>640.0</ele><time>2026-03-22T15:12:21.999Z</time></trkpt><trkpt lat="45.6896266743901" lon="3.0708720748186207"><ele>639.0</ele><time>2026-03-22T15:12:24.999Z</time></trkpt><trkpt lat="45.68961584589225" lon="3.070966127890015"><ele>638.0</ele><time>2026-03-22T15:12:27.999Z</time></trkpt><trkpt lat="45.689592291094606" lon="3.0710603863440546"><ele>637.0</ele><time>2026-03-22T15:12:29.999Z</time></trkpt><trkpt lat="45.68956403371064" lon="3.0711734630356613"><ele>636.0</ele><time>2026-03-22T15:12:32.999Z</time></trkpt><trkpt lat="45.68952515325805" lon="3.0713118165869875"><ele>635.0</ele><time>2026-03-22T15:12:34.999Z</time></trkpt><trkpt lat="45.6894966209343" lon="3.0714122401879096"><ele>635.0</ele><time>2026-03-22T15:12:35.999Z</time></trkpt><trkpt lat="45.68945305724044" lon="3.0715655688977574"><ele>635.0</ele><time>2026-03-22T15:12:37.999Z</time></trkpt><trkpt lat="45.6894098722683" lon="3.0717182695641574"><ele>635.0</ele><time>2026-03-22T15:12:39.999Z</time></trkpt><trkpt lat="45.689372140968665" lon="3.0718527223195813"><ele>635.0</ele><time>2026-03-22T15:12:41.999Z</time></trkpt><trkpt lat="45.68933675446498" lon="3.0719788195633546"><ele>635.0</ele><time>2026-03-22T15:12:43.999Z</time></trkpt><trkpt lat="45.68929968752383" lon="3.072110904933157"><ele>636.4</ele><time>2026-03-22T15:12:45.999Z</time></trkpt><trkpt lat="45.689322902115634" lon="3.072203965452697"><ele>637.8</ele><time>2026-03-22T15:12:46.999Z</time></trkpt><trkpt lat="45.6892837308347" lon="3.0723457984078695"><ele>639.2</ele><time>2026-03-22T15:12:48.999Z</time></trkpt><trkpt lat="45.689235310639404" lon="3.072490289925653"><ele>640.6</ele><time>2026-03-22T15:12:50.999Z</time></trkpt><trkpt lat="45.689194683507345" lon="3.072628077180635"><ele>642.0</ele><time>2026-03-22T15:12:52.999Z</time></trkpt><trkpt lat="45.68915434628032" lon="3.0727933353848904"><ele>642.0</ele><time>2026-03-22T15:12:54.999Z</time></trkpt><trkpt lat="45.689118345578606" lon="3.072872470487349"><ele>642.0</ele><time>2026-03-22T15:12:55.999Z</time></trkpt><trkpt lat="45.689072228241876" lon="3.0729964063185884"><ele>642.0</ele><time>2026-03-22T15:12:57.999Z</time></trkpt><trkpt lat="45.689052584058636" lon="3.073084498996223"><ele>642.0</ele><time>2026-03-22T15:12:59.999Z</time></trkpt><trkpt lat="45.6890209820844" lon="3.0732515025161478"><ele>642.0</ele><time>2026-03-22T15:13:01.999Z</time></trkpt><trkpt lat="45.68899045059813" lon="3.0733690608452724"><ele>642.0</ele><time>2026-03-22T15:13:04.999Z</time></trkpt><trkpt lat="45.688952680675726" lon="3.073453002676854"><ele>641.3333333333334</ele><time>2026-03-22T15:13:06.999Z</time></trkpt><trkpt lat="45.68890669274485" lon="3.073544956440258"><ele>640.6666666666666</ele><time>2026-03-22T15:13:08.999Z</time></trkpt><trkpt lat="45.688852179326396" lon="3.0736070505410007"><ele>640.0</ele><time>2026-03-22T15:13:10.999Z</time></trkpt><trkpt lat="45.68878281662546" lon="3.0736721208371836"><ele>639.3333333333333</ele><time>2026-03-22T15:13:12.998Z</time></trkpt><trkpt lat="45.68871182505044" lon="3.0737497198902446"><ele>638.6666666666666</ele><time>2026-03-22T15:13:14.998Z</time></trkpt><trkpt lat="45.68864133285627" lon="3.073825400358135"><ele>638.0</ele><time>2026-03-22T15:13:16.998Z</time></trkpt><trkpt lat="45.688579119640224" lon="3.0738837269063697"><ele>638.8333333333333</ele><time>2026-03-22T15:13:18.998Z</time></trkpt><trkpt lat="45.688519667212226" lon="3.073941818346299"><ele>639.6666666666666</ele><time>2026-03-22T15:13:20.998Z</time></trkpt><trkpt lat="45.68845598953596" lon="3.0739882224140045"><ele>640.5</ele><time>2026-03-22T15:13:22.998Z</time></trkpt><trkpt lat="45.68838689339328" lon="3.0740535584757294"><ele>641.3333333333334</ele><time>2026-03-22T15:13:25.998Z</time></trkpt><trkpt lat="45.68832663280555" lon="3.07412564630434"><ele>642.1666666666667</ele><time>2026-03-22T15:13:28Z</time></trkpt><trkpt lat="45.688265420128566" lon="3.074198914463111"><ele>643.0</ele><time>2026-03-22T15:13:30Z</time></trkpt><trkpt lat="45.688204394645616" lon="3.074280898352127"><ele>643.0</ele><time>2026-03-22T15:13:33Z</time></trkpt><trkpt lat="45.68813464245117" lon="3.0743514775846363"><ele>643.0</ele><time>2026-03-22T15:13:36Z</time></trkpt><trkpt lat="45.68807285816649" lon="3.0744136403544373"><ele>643.0</ele><time>2026-03-22T15:13:39Z</time></trkpt><trkpt lat="45.688019417305874" lon="3.0744725603505283"><ele>643.0</ele><time>2026-03-22T15:13:42Z</time></trkpt><trkpt lat="45.68796723080733" lon="3.0745430839968053"><ele>643.0</ele><time>2026-03-22T15:13:44Z</time></trkpt><trkpt lat="45.68791302840479" lon="3.0746019619844707"><ele>643.0</ele><time>2026-03-22T15:13:46Z</time></trkpt><trkpt lat="45.68785996317165" lon="3.0746707891967584"><ele>643.0</ele><time>2026-03-22T15:13:48Z</time></trkpt><trkpt lat="45.68779655436886" lon="3.0747651653134405"><ele>643.5</ele><time>2026-03-22T15:13:52Z</time></trkpt><trkpt lat="45.68774223581155" lon="3.0748676942032165"><ele>644.0</ele><time>2026-03-22T15:13:55Z</time></trkpt><trkpt lat="45.687698182961526" lon="3.074986186761827"><ele>644.5</ele><time>2026-03-22T15:13:57Z</time></trkpt><trkpt lat="45.68765282102962" lon="3.075081586671996"><ele>645.0</ele><time>2026-03-22T15:13:59Z</time></trkpt><trkpt lat="45.687619045771314" lon="3.075162905987516"><ele>645.5</ele><time>2026-03-22T15:14:01Z</time></trkpt><trkpt lat="45.687559805951224" lon="3.07523217380669"><ele>646.0</ele><time>2026-03-22T15:14:04Z</time></trkpt><trkpt lat="45.68750442361558" lon="3.0753135469752126"><ele>646.0000000000001</ele><time>2026-03-22T15:14:06.999Z</time></trkpt><trkpt lat="45.68745249910477" lon="3.0753784752454205"><ele>646.0</ele><time>2026-03-22T15:14:09.999Z</time></trkpt><trkpt lat="45.68740073417574" lon="3.0754677335696474"><ele>646.0</ele><time>2026-03-22T15:14:13.999Z</time></trkpt><trkpt lat="45.68736346031022" lon="3.075541065817373"><ele>646.0</ele><time>2026-03-22T15:14:16.999Z</time></trkpt><trkpt lat="45.68731941010794" lon="3.07562453698942"><ele>646.0</ele><time>2026-03-22T15:14:20.999Z</time></trkpt><trkpt lat="45.687267022513176" lon="3.075707305058834"><ele>646.0000000000001</ele><time>2026-03-22T15:14:25.999Z</time></trkpt><trkpt lat="45.68720657329778" lon="3.075767424047662"><ele>646.0</ele><time>2026-03-22T15:14:48.999Z</time></trkpt><trkpt lat="45.687272698944966" lon="3.075822656453188"><ele>646.1999999999999</ele><time>2026-03-22T15:14:53.999Z</time></trkpt><trkpt lat="45.68736978854027" lon="3.0760166862970877"><ele>646.4</ele><time>2026-03-22T15:14:56.999Z</time></trkpt><trkpt lat="45.68741921701865" lon="3.0760851835564136"><ele>646.6</ele><time>2026-03-22T15:14:59.999Z</time></trkpt><trkpt lat="45.68747150128747" lon="3.0761850637508057"><ele>646.8</ele><time>2026-03-22T15:15:03.999Z</time></trkpt><trkpt lat="45.68751746427369" lon="3.0762706731831804"><ele>647.0</ele><time>2026-03-22T15:15:07.999Z</time></trkpt><trkpt lat="45.68756007242104" lon="3.076350033970518"><ele>647.0</ele><time>2026-03-22T15:15:11.999Z</time></trkpt><trkpt lat="45.687607427105696" lon="3.076442974985199"><ele>647.0</ele><time>2026-03-22T15:15:14.999Z</time></trkpt><trkpt lat="45.68764038788727" lon="3.076540064428076"><ele>647.0</ele><time>2026-03-22T15:15:19.999Z</time></trkpt><trkpt lat="45.687686501592985" lon="3.076601509316422"><ele>647.0</ele><time>2026-03-22T15:15:26.998Z</time></trkpt><trkpt lat="45.687566168957545" lon="3.076483218831741"><ele>647.0</ele><time>2026-03-22T15:16:15.999Z</time></trkpt><trkpt lat="45.68750560013292" lon="3.076412221622146"><ele>647.0</ele><time>2026-03-22T15:16:19.999Z</time></trkpt><trkpt lat="45.68748671079295" lon="3.076323101935563"><ele>647.0</ele><time>2026-03-22T15:16:23.999Z</time></trkpt><trkpt lat="45.687471013742076" lon="3.0762286694672873"><ele>647.0</ele><time>2026-03-22T15:16:26.999Z</time></trkpt><trkpt lat="45.68746211655403" lon="3.076136950369576"><ele>647.0</ele><time>2026-03-22T15:16:29.999Z</time></trkpt><trkpt lat="45.68741221494882" lon="3.076050111910362"><ele>647.0</ele><time>2026-03-22T15:16:33.999Z</time></trkpt><trkpt lat="45.68734908668538" lon="3.07597005317205"><ele>647.0</ele><time>2026-03-22T15:16:37.999Z</time></trkpt><trkpt lat="45.68728846643228" lon="3.075873838873433"><ele>647.0</ele><time>2026-03-22T15:16:40.999Z</time></trkpt><trkpt lat="45.68720584048387" lon="3.0758318947527723"><ele>647.0</ele><time>2026-03-22T15:16:42.999Z</time></trkpt><trkpt lat="45.68714824318476" lon="3.075916634979318"><ele>647.0</ele><time>2026-03-22T15:16:44.999Z</time></trkpt><trkpt lat="45.68715444460181" lon="3.076019037728684"><ele>647.0</ele><time>2026-03-22T15:16:47Z</time></trkpt><trkpt lat="45.68715706577211" lon="3.07612860172782"><ele>647.0</ele><time>2026-03-22T15:16:50Z</time></trkpt><trkpt lat="45.6871928213607" lon="3.076240215416793"><ele>647.0</ele><time>2026-03-22T15:16:53Z</time></trkpt><trkpt lat="45.687194640177935" lon="3.0763686402879684"><ele>647.0</ele><time>2026-03-22T15:16:56Z</time></trkpt><trkpt lat="45.68718899303557" lon="3.076458433656431"><ele>647.0</ele><time>2026-03-22T15:16:58Z</time></trkpt><trkpt lat="45.687159063213116" lon="3.076553817099345"><ele>647.0</ele><time>2026-03-22T15:17:01Z</time></trkpt><trkpt lat="45.68711779582732" lon="3.076664090294314"><ele>647.0</ele><time>2026-03-22T15:17:04Z</time></trkpt><trkpt lat="45.68706655639712" lon="3.0767741863083176"><ele>647.0</ele><time>2026-03-22T15:17:06Z</time></trkpt><trkpt lat="45.687027314665706" lon="3.0768916520360845"><ele>647.0</ele><time>2026-03-22T15:17:09Z</time></trkpt><trkpt lat="45.687009685477236" lon="3.0770201247640756"><ele>647.0</ele><time>2026-03-22T15:17:11.999Z</time></trkpt><trkpt lat="45.68698776250334" lon="3.077127319960605"><ele>647.5</ele><time>2026-03-22T15:17:14.999Z</time></trkpt><trkpt lat="45.686949428936465" lon="3.077220812933317"><ele>648.0</ele><time>2026-03-22T15:17:17.999Z</time></trkpt><trkpt lat="45.68691159107632" lon="3.0772969800730543"><ele>648.5</ele><time>2026-03-22T15:17:20.999Z</time></trkpt><trkpt lat="45.68685356732309" lon="3.077423610277005"><ele>649.0</ele><time>2026-03-22T15:17:23.999Z</time></trkpt><trkpt lat="45.68682436289204" lon="3.0775297954629477"><ele>649.5</ele><time>2026-03-22T15:17:26.999Z</time></trkpt><trkpt lat="45.68680692973849" lon="3.077664137271727"><ele>650.0</ele><time>2026-03-22T15:17:28.999Z</time></trkpt><trkpt lat="45.68680244702917" lon="3.0777733321227165"><ele>653.8333333333333</ele><time>2026-03-22T15:17:31.999Z</time></trkpt><trkpt lat="45.6868031840199" lon="3.0778667969119087"><ele>657.6666666666666</ele><time>2026-03-22T15:17:33.999Z</time></trkpt><trkpt lat="45.68680751306848" lon="3.077991456394329"><ele>661.5</ele><time>2026-03-22T15:17:37.001Z</time></trkpt><trkpt lat="45.68681323233446" lon="3.0780833966905026"><ele>665.3333333333334</ele><time>2026-03-22T15:17:39.001Z</time></trkpt><trkpt lat="45.68682383392297" lon="3.0781879115745463"><ele>669.1666666666667</ele><time>2026-03-22T15:17:41.001Z</time></trkpt><trkpt lat="45.6868386104153" lon="3.0783151021298827"><ele>673.0</ele><time>2026-03-22T15:17:43.001Z</time></trkpt><trkpt lat="45.68684907365492" lon="3.078466760056241"><ele>673.0</ele><time>2026-03-22T15:17:46.001Z</time></trkpt><trkpt lat="45.68687594113153" lon="3.078616823509886"><ele>673.0</ele><time>2026-03-22T15:17:48.001Z</time></trkpt><trkpt lat="45.686890493127514" lon="3.0787356953109493"><ele>673.0</ele><time>2026-03-22T15:17:50.001Z</time></trkpt><trkpt lat="45.68690211904465" lon="3.0788562948039524"><ele>673.0</ele><time>2026-03-22T15:17:52.001Z</time></trkpt><trkpt lat="45.68691014563059" lon="3.0789491194095997"><ele>673.0</ele><time>2026-03-22T15:17:54.001Z</time></trkpt><trkpt lat="45.68691695512609" lon="3.0790745048224246"><ele>673.0</ele><time>2026-03-22T15:17:56.001Z</time></trkpt><trkpt lat="45.686921870078066" lon="3.079213706103284"><ele>672.6666666666667</ele><time>2026-03-22T15:17:58Z</time></trkpt><trkpt lat="45.68692627767182" lon="3.079351653290602"><ele>672.3333333333334</ele><time>2026-03-22T15:18:00Z</time></trkpt><trkpt lat="45.68693137162682" lon="3.0794705910784588"><ele>672.0</ele><time>2026-03-22T15:18:03Z</time></trkpt><trkpt lat="45.686940118848774" lon="3.079598179990315"><ele>671.6666666666666</ele><time>2026-03-22T15:18:06Z</time></trkpt><trkpt lat="45.68695454993014" lon="3.079737434081565"><ele>671.3333333333333</ele><time>2026-03-22T15:18:09Z</time></trkpt><trkpt lat="45.68696673227432" lon="3.0798374057048017"><ele>671.0</ele><time>2026-03-22T15:18:11Z</time></trkpt><trkpt lat="45.68698061209984" lon="3.07993648159606"><ele>667.5714285714286</ele><time>2026-03-22T15:18:13Z</time></trkpt><trkpt lat="45.68699481120344" lon="3.080037836525123"><ele>664.1428571428572</ele><time>2026-03-22T15:18:15Z</time></trkpt><trkpt lat="45.68700964957607" lon="3.0801437546013726"><ele>660.7142857142858</ele><time>2026-03-22T15:18:17Z</time></trkpt><trkpt lat="45.687022052191125" lon="3.0802380086378465"><ele>657.2857142857142</ele><time>2026-03-22T15:18:19Z</time></trkpt><trkpt lat="45.68703409352565" lon="3.0803322141754172"><ele>653.8571428571429</ele><time>2026-03-22T15:18:21Z</time></trkpt><trkpt lat="45.68704864375527" lon="3.0804434790940847"><ele>650.4285714285714</ele><time>2026-03-22T15:18:24Z</time></trkpt><trkpt lat="45.68706355640824" lon="3.0805521853443056"><ele>647.0</ele><time>2026-03-22T15:18:29Z</time></trkpt><trkpt lat="45.687078283447974" lon="3.0806595385695497"><ele>646.8333333333333</ele><time>2026-03-22T15:18:33Z</time></trkpt><trkpt lat="45.68709313079368" lon="3.080784438395852"><ele>646.6666666666666</ele><time>2026-03-22T15:18:36Z</time></trkpt><trkpt lat="45.68710343845825" lon="3.080899753397214"><ele>646.5</ele><time>2026-03-22T15:18:39Z</time></trkpt><trkpt lat="45.687107653505116" lon="3.0810169244833694"><ele>646.3333333333334</ele><time>2026-03-22T15:18:41Z</time></trkpt><trkpt lat="45.68712046811846" lon="3.0811066727644683"><ele>646.1666666666667</ele><time>2026-03-22T15:18:45Z</time></trkpt><trkpt lat="45.687158877652585" lon="3.081187474795329"><ele>646.0</ele><time>2026-03-22T15:18:48Z</time></trkpt><trkpt lat="45.68721744462956" lon="3.0812620216258733"><ele>646.0000000000001</ele><time>2026-03-22T15:18:50Z</time></trkpt><trkpt lat="45.6872356837165" lon="3.0813646009869196"><ele>646.0</ele><time>2026-03-22T15:18:53Z</time></trkpt><trkpt lat="45.687256131758254" lon="3.081457586094795"><ele>646.0</ele><time>2026-03-22T15:18:56Z</time></trkpt><trkpt lat="45.687277682640264" lon="3.081551751435151"><ele>646.0</ele><time>2026-03-22T15:18:59Z</time></trkpt><trkpt lat="45.68729999029157" lon="3.0816492234324486"><ele>646.0</ele><time>2026-03-22T15:19:02Z</time></trkpt><trkpt lat="45.68732288670311" lon="3.081749267960579"><ele>646.0000000000001</ele><time>2026-03-22T15:19:03.999Z</time></trkpt><trkpt lat="45.68734538285975" lon="3.081847563656471"><ele>646.0</ele><time>2026-03-22T15:19:06.999Z</time></trkpt><trkpt lat="45.6873727182893" lon="3.081967004183906"><ele>645.8571428571429</ele><time>2026-03-22T15:19:10.999Z</time></trkpt><trkpt lat="45.68740492331775" lon="3.0820773006696056"><ele>645.7142857142858</ele><time>2026-03-22T15:19:13.999Z</time></trkpt><trkpt lat="45.68743371077886" lon="3.082171823552008"><ele>645.5714285714287</ele><time>2026-03-22T15:19:16.999Z</time></trkpt><trkpt lat="45.6874619627207" lon="3.082264588033896"><ele>645.4285714285714</ele><time>2026-03-22T15:19:19.999Z</time></trkpt><trkpt lat="45.68749178896338" lon="3.082362699345412"><ele>645.2857142857142</ele><time>2026-03-22T15:19:22.999Z</time></trkpt><trkpt lat="45.68752199848465" lon="3.0824621687044216"><ele>645.1428571428572</ele><time>2026-03-22T15:19:25.999Z</time></trkpt><trkpt lat="45.68754795685244" lon="3.0825574626459527"><ele>645.0</ele><time>2026-03-22T15:19:28.999Z</time></trkpt><trkpt lat="45.68756915706901" lon="3.0826910946765342"><ele>644.8333333333334</ele><time>2026-03-22T15:19:31.999Z</time></trkpt><trkpt lat="45.687584733256436" lon="3.0827892766019116"><ele>644.6666666666666</ele><time>2026-03-22T15:19:34.999Z</time></trkpt><trkpt lat="45.68760336024156" lon="3.0829066886881704"><ele>644.5</ele><time>2026-03-22T15:19:37.999Z</time></trkpt><trkpt lat="45.68762520777228" lon="3.0830247592520243"><ele>644.3333333333333</ele><time>2026-03-22T15:19:40.999Z</time></trkpt><trkpt lat="45.687644118562964" lon="3.083125787742428"><ele>644.1666666666666</ele><time>2026-03-22T15:19:44Z</time></trkpt><trkpt lat="45.68766256729199" lon="3.0832243477116896"><ele>644.0</ele><time>2026-03-22T15:19:47Z</time></trkpt><trkpt lat="45.68767953663759" lon="3.0833173599812684"><ele>643.2857142857143</ele><time>2026-03-22T15:19:50Z</time></trkpt><trkpt lat="45.68769976065848" lon="3.0834108121100883"><ele>642.5714285714286</ele><time>2026-03-22T15:19:53Z</time></trkpt><trkpt lat="45.68771741336859" lon="3.083499123343041"><ele>641.8571428571429</ele><time>2026-03-22T15:19:56Z</time></trkpt><trkpt lat="45.687738773903526" lon="3.083607414116082"><ele>641.1428571428571</ele><time>2026-03-22T15:19:59Z</time></trkpt><trkpt lat="45.6877555472654" lon="3.083715039155532"><ele>640.4285714285714</ele><time>2026-03-22T15:20:03Z</time></trkpt><trkpt lat="45.68777052748265" lon="3.083811158654858"><ele>639.7142857142858</ele><time>2026-03-22T15:20:07Z</time></trkpt><trkpt lat="45.68778634300512" lon="3.0839126377481403"><ele>639.0</ele><time>2026-03-22T15:20:10Z</time></trkpt><trkpt lat="45.687800434341206" lon="3.0840030537678844"><ele>634.8333333333334</ele><time>2026-03-22T15:20:12Z</time></trkpt><trkpt lat="45.68780713429899" lon="3.0841269464211925"><ele>630.6666666666666</ele><time>2026-03-22T15:20:16Z</time></trkpt><trkpt lat="45.68780693652875" lon="3.084222449567849"><ele>626.5</ele><time>2026-03-22T15:20:19Z</time></trkpt><trkpt lat="45.68780672546711" lon="3.0843243711648705"><ele>622.3333333333333</ele><time>2026-03-22T15:20:22Z</time></trkpt><trkpt lat="45.68780652175462" lon="3.0844227440927994"><ele>618.1666666666666</ele><time>2026-03-22T15:20:24Z</time></trkpt><trkpt lat="45.687806302147905" lon="3.0845287921602984"><ele>614.0</ele><time>2026-03-22T15:20:27Z</time></trkpt><trkpt lat="45.687804003175515" lon="3.0846555207307262"><ele>613.9999999999999</ele><time>2026-03-22T15:20:30Z</time></trkpt><trkpt lat="45.687791997754914" lon="3.0847442189880567"><ele>614.0</ele><time>2026-03-22T15:20:32Z</time></trkpt><trkpt lat="45.68777668719715" lon="3.0848575310223083"><ele>614.0</ele><time>2026-03-22T15:20:34Z</time></trkpt><trkpt lat="45.68775557512627" lon="3.0849522441524986"><ele>614.0</ele><time>2026-03-22T15:20:37Z</time></trkpt><trkpt lat="45.68773339315146" lon="3.0850601850347408"><ele>614.0</ele><time>2026-03-22T15:20:40Z</time></trkpt><trkpt lat="45.6877023613939" lon="3.085158621354814"><ele>613.9999999999999</ele><time>2026-03-22T15:20:43Z</time></trkpt><trkpt lat="45.68767123380182" lon="3.0852573616703114"><ele>614.0</ele><time>2026-03-22T15:20:46Z</time></trkpt><trkpt lat="45.68763721573477" lon="3.085363124606069"><ele>615.1666666666666</ele><time>2026-03-22T15:20:49Z</time></trkpt><trkpt lat="45.68760703968957" lon="3.085455222760735"><ele>616.3333333333333</ele><time>2026-03-22T15:20:51Z</time></trkpt><trkpt lat="45.687576994428184" lon="3.0855469217347227"><ele>617.5</ele><time>2026-03-22T15:20:52Z</time></trkpt><trkpt lat="45.687543095059276" lon="3.085650383517998"><ele>618.6666666666666</ele><time>2026-03-22T15:20:54Z</time></trkpt><trkpt lat="45.687503609813845" lon="3.085769497346712"><ele>619.8333333333334</ele><time>2026-03-22T15:20:57Z</time></trkpt><trkpt lat="45.68746738467563" lon="3.0858787286015406"><ele>621.0</ele><time>2026-03-22T15:21:00Z</time></trkpt><trkpt lat="45.6874264975657" lon="3.086002017264542"><ele>621.0</ele><time>2026-03-22T15:21:01.999Z</time></trkpt><trkpt lat="45.687387888112305" lon="3.0861185547970016"><ele>621.0</ele><time>2026-03-22T15:21:02.999Z</time></trkpt><trkpt lat="45.68734384166643" lon="3.086252694359093"><ele>621.0</ele><time>2026-03-22T15:21:04.999Z</time></trkpt><trkpt lat="45.68729751021719" lon="3.086393792706157"><ele>621.0</ele><time>2026-03-22T15:21:06.999Z</time></trkpt><trkpt lat="45.687249711017785" lon="3.0865393609670595"><ele>621.0</ele><time>2026-03-22T15:21:08.999Z</time></trkpt><trkpt lat="45.68720260846805" lon="3.086682807655568"><ele>617.8</ele><time>2026-03-22T15:21:10.999Z</time></trkpt><trkpt lat="45.68715554046895" lon="3.086824927467387"><ele>614.6</ele><time>2026-03-22T15:21:12.999Z</time></trkpt><trkpt lat="45.68710505004784" lon="3.086975965622167"><ele>611.4</ele><time>2026-03-22T15:21:14.999Z</time></trkpt><trkpt lat="45.68706609793911" lon="3.0871052661853913"><ele>608.2</ele><time>2026-03-22T15:21:16.999Z</time></trkpt><trkpt lat="45.68702633112856" lon="3.087238368813355"><ele>605.0</ele><time>2026-03-22T15:21:18.999Z</time></trkpt><trkpt lat="45.68698343927245" lon="3.0873800568834686"><ele>603.0</ele><time>2026-03-22T15:21:20.999Z</time></trkpt><trkpt lat="45.68694117442774" lon="3.0875261632143403"><ele>601.0</ele><time>2026-03-22T15:21:22.999Z</time></trkpt><trkpt lat="45.68690822383562" lon="3.0876501815447273"><ele>599.0</ele><time>2026-03-22T15:21:24.999Z</time></trkpt><trkpt lat="45.68688442957487" lon="3.087739374592695"><ele>597.0</ele><time>2026-03-22T15:21:26.999Z</time></trkpt><trkpt lat="45.6868397641057" lon="3.087906372501934"><ele>595.0</ele><time>2026-03-22T15:21:28.999Z</time></trkpt><trkpt lat="45.686809198266964" lon="3.0880206539301533"><ele>599.2</ele><time>2026-03-22T15:21:30.999Z</time></trkpt><trkpt lat="45.686773967328996" lon="3.0881560476181047"><ele>603.4</ele><time>2026-03-22T15:21:32.999Z</time></trkpt><trkpt lat="45.68673790649199" lon="3.0882955107355827"><ele>607.6</ele><time>2026-03-22T15:21:34.999Z</time></trkpt><trkpt lat="45.68670319407448" lon="3.0884278890264696"><ele>611.8</ele><time>2026-03-22T15:21:36.999Z</time></trkpt><trkpt lat="45.686670187917834" lon="3.0885533624671098"><ele>616.0</ele><time>2026-03-22T15:21:38.999Z</time></trkpt><trkpt lat="45.6866413053805" lon="3.0886717226772"><ele>616.0</ele><time>2026-03-22T15:21:40.999Z</time></trkpt><trkpt lat="45.68661741849823" lon="3.0887855307881953"><ele>616.0</ele><time>2026-03-22T15:21:42.999Z</time></trkpt><trkpt lat="45.68659809293889" lon="3.0889057457007847"><ele>616.0</ele><time>2026-03-22T15:21:44.999Z</time></trkpt><trkpt lat="45.68658780049601" lon="3.0890496451765412"><ele>616.0</ele><time>2026-03-22T15:21:46.999Z</time></trkpt><trkpt lat="45.6865853015361" lon="3.089144541025714"><ele>616.0</ele><time>2026-03-22T15:21:49Z</time></trkpt><trkpt lat="45.68658015692409" lon="3.0892813604871208"><ele>616.0</ele><time>2026-03-22T15:21:52Z</time></trkpt><trkpt lat="45.68665572577368" lon="3.0893152100781474"><ele>613.4</ele><time>2026-03-22T15:21:57Z</time></trkpt><trkpt lat="45.686828404407336" lon="3.089337017001024"><ele>610.8</ele><time>2026-03-22T15:21:59Z</time></trkpt><trkpt lat="45.686893568256785" lon="3.0893445970830653"><ele>608.1999999999999</ele><time>2026-03-22T15:22:01Z</time></trkpt><trkpt lat="45.68696502225804" lon="3.089338147097846"><ele>605.6</ele><time>2026-03-22T15:22:03Z</time></trkpt><trkpt lat="45.687037300933824" lon="3.089337697057696"><ele>603.0</ele><time>2026-03-22T15:22:05Z</time></trkpt><trkpt lat="45.68711139505003" lon="3.0893476392957817"><ele>598.0</ele><time>2026-03-22T15:22:07Z</time></trkpt><trkpt lat="45.687186786973356" lon="3.0893595991625857"><ele>593.0</ele><time>2026-03-22T15:22:09Z</time></trkpt><trkpt lat="45.687271183718074" lon="3.0893837123431984"><ele>588.0</ele><time>2026-03-22T15:22:11Z</time></trkpt><trkpt lat="45.687355455381294" lon="3.089406127554158"><ele>583.0</ele><time>2026-03-22T15:22:14Z</time></trkpt><trkpt lat="45.68749951512487" lon="3.0894376446597853"><ele>578.0</ele><time>2026-03-22T15:22:17Z</time></trkpt><trkpt lat="45.687576822877865" lon="3.089457878724064"><ele>578.0</ele><time>2026-03-22T15:22:19Z</time></trkpt><trkpt lat="45.68765465041046" lon="3.08948081161604"><ele>578.0</ele><time>2026-03-22T15:22:21Z</time></trkpt><trkpt lat="45.68773598610463" lon="3.0894991168770445"><ele>578.0</ele><time>2026-03-22T15:22:23Z</time></trkpt><trkpt lat="45.68781423901592" lon="3.089518448355828"><ele>578.0</ele><time>2026-03-22T15:22:25Z</time></trkpt><trkpt lat="45.687889466396655" lon="3.089533684253313"><ele>578.0</ele><time>2026-03-22T15:22:27Z</time></trkpt><trkpt lat="45.68796382406816" lon="3.089548744037838"><ele>578.0</ele><time>2026-03-22T15:22:29Z</time></trkpt><trkpt lat="45.688040717131706" lon="3.089560071840294"><ele>575.6666666666666</ele><time>2026-03-22T15:22:31Z</time></trkpt><trkpt lat="45.68812236508652" lon="3.089566817339709"><ele>573.3333333333333</ele><time>2026-03-22T15:22:33Z</time></trkpt><trkpt lat="45.68820408519052" lon="3.089571555780745"><ele>571.0</ele><time>2026-03-22T15:22:35Z</time></trkpt><trkpt lat="45.68829830195709" lon="3.089575130703126"><ele>568.6666666666666</ele><time>2026-03-22T15:22:38Z</time></trkpt><trkpt lat="45.68838360210092" lon="3.0895751380236827"><ele>566.3333333333334</ele><time>2026-03-22T15:22:40Z</time></trkpt><trkpt lat="45.68846578035889" lon="3.089568406584581"><ele>564.0</ele><time>2026-03-22T15:22:42Z</time></trkpt><trkpt lat="45.68853771546001" lon="3.0895599170638297"><ele>561.3333333333334</ele><time>2026-03-22T15:22:44Z</time></trkpt><trkpt lat="45.6886090478892" lon="3.0895514986965535"><ele>558.6666666666666</ele><time>2026-03-22T15:22:46Z</time></trkpt><trkpt lat="45.68868420106582" lon="3.089582436369187"><ele>556.0</ele><time>2026-03-22T15:22:50Z</time></trkpt><trkpt lat="45.68874372376066" lon="3.0896784758937645"><ele>553.3333333333333</ele><time>2026-03-22T15:22:53Z</time></trkpt><trkpt lat="45.688772107296145" lon="3.08982374083428"><ele>550.6666666666666</ele><time>2026-03-22T15:22:54Z</time></trkpt><trkpt lat="45.68882320704877" lon="3.089902440444444"><ele>548.0</ele><time>2026-03-22T15:22:56Z</time></trkpt><trkpt lat="45.68886896801986" lon="3.089983801110529"><ele>548.0</ele><time>2026-03-22T15:22:58Z</time></trkpt><trkpt lat="45.68891562210591" lon="3.0900740925961068"><ele>548.0</ele><time>2026-03-22T15:22:59.999Z</time></trkpt><trkpt lat="45.68895731423455" lon="3.090158269236823"><ele>548.0</ele><time>2026-03-22T15:23:01.999Z</time></trkpt><trkpt lat="45.689001274366646" lon="3.0902522045760814"><ele>548.0</ele><time>2026-03-22T15:23:03.999Z</time></trkpt><trkpt lat="45.68904844779433" lon="3.090337450757293"><ele>548.0</ele><time>2026-03-22T15:23:05.999Z</time></trkpt><trkpt lat="45.689094669285694" lon="3.0904245345700145"><ele>548.0</ele><time>2026-03-22T15:23:07.999Z</time></trkpt><trkpt lat="45.68913784632079" lon="3.090506452785776"><ele>548.0000000000001</ele><time>2026-03-22T15:23:09.999Z</time></trkpt><trkpt lat="45.68918132467797" lon="3.0905922874108294"><ele>548.0</ele><time>2026-03-22T15:23:11.999Z</time></trkpt><trkpt lat="45.68922183688874" lon="3.0906722663717376"><ele>548.0</ele><time>2026-03-22T15:23:13.999Z</time></trkpt><trkpt lat="45.689255628062604" lon="3.090750962886259"><ele>548.0</ele><time>2026-03-22T15:23:15.999Z</time></trkpt><trkpt lat="45.689307951165176" lon="3.090823203846963"><ele>548.0</ele><time>2026-03-22T15:23:18.999Z</time></trkpt><trkpt lat="45.68937551706466" lon="3.0908753776086404"><ele>548.0000000000001</ele><time>2026-03-22T15:23:21.999Z</time></trkpt><trkpt lat="45.68944179184368" lon="3.0909276899397398"><ele>548.0</ele><time>2026-03-22T15:23:24.999Z</time></trkpt><trkpt lat="45.68952825903755" lon="3.0910018559692856"><ele>535.0</ele><time>2026-03-22T15:23:27.999Z</time></trkpt><trkpt lat="45.68960488467391" lon="3.0910163823718806"><ele>535.0</ele><time>2026-03-22T15:23:30.999Z</time></trkpt><trkpt lat="45.689688699501794" lon="3.0910265619282584"><ele>535.0</ele><time>2026-03-22T15:23:33.999Z</time></trkpt></trkseg></trk></gpx>